<?xml version="1.0" encoding="UTF-8" standalone="no" ?>
<gpx xmlns="http://www.topografix.com/GPX/1/1" xmlns:xsi="http://www.w3.org/2001/XMLSchema-instance" xsi:schemaLocation="http://www.topografix.com/GPX/1/1 http://www.topografix.com/GPX/1/1/gpx.xsd" version="1.1" creator="VisuGPX - https://www.visugpx.com">
  <metadata>
    <name>Pariou</name>
    <desc><![CDATA[Ascension du Pariou.
]]></desc>
  </metadata>
  <trk>
    <name><![CDATA[2013-10-18 16:31]]></name>
    <desc><![CDATA[<h1>OruxMaps</h1><br /><hr align="center" width="480" style="height: 2px; width: 517px"/><h2>Nom: 2013-10-18 16:31</h2><br /><p>Temps de départ: 10/18/2013 16:33</p><p>Temps d'arrivée: 10/18/2013 19:33</p><p>Distance: 33,9 km (03:00)</p><p>Temps déplacement: 02:41</p><p>Vitesse moyenne: 11,3 km/h</p><p>Vitesse moyenne: 12,5 km/h</p><p>Vitess Max.: 40,5 km/h</p><p>Altitude minimale: 688 m</p><p>Altitude maximale: 1204 m</p><p>Vitesse d'élévation: 0 m/h</p><p>Vitesse de descente: -922 m/h</p><p>Gain Altitude: 833 m</p><p>Perte Altitude: -855 m</p><p>Temps d'élévation: 383921:22</p><p>Temps de descente: 00:55</p><hr align="center" width="480" style="height: 2px; width: 517px"/>]]></desc>
    <trkseg>
      <trkpt lat="45.77716" lon="3.03177">
        <ele>690.8</ele>
        <time>2013-10-18T14:33:22Z</time>
      </trkpt>
      <trkpt lat="45.77698" lon="3.03176">
        <ele>703.57</ele>
        <time>2013-10-18T14:34:15Z</time>
      </trkpt>
      <trkpt lat="45.77686" lon="3.03157">
        <ele>703.59</ele>
        <time>2013-10-18T14:34:22Z</time>
      </trkpt>
      <trkpt lat="45.77669" lon="3.03146">
        <ele>703.13</ele>
        <time>2013-10-18T14:34:27Z</time>
      </trkpt>
      <trkpt lat="45.77648" lon="3.03141">
        <ele>706.2</ele>
        <time>2013-10-18T14:34:34Z</time>
      </trkpt>
      <trkpt lat="45.77629" lon="3.03132">
        <ele>708.04</ele>
        <time>2013-10-18T14:34:41Z</time>
      </trkpt>
      <trkpt lat="45.7761" lon="3.03124">
        <ele>711.97</ele>
        <time>2013-10-18T14:34:49Z</time>
      </trkpt>
      <trkpt lat="45.77599" lon="3.03148">
        <ele>711.43</ele>
        <time>2013-10-18T14:34:57Z</time>
      </trkpt>
      <trkpt lat="45.77579" lon="3.03148">
        <ele>711.76</ele>
        <time>2013-10-18T14:35:05Z</time>
      </trkpt>
      <trkpt lat="45.77562" lon="3.03139">
        <ele>710.8</ele>
        <time>2013-10-18T14:35:10Z</time>
      </trkpt>
      <trkpt lat="45.77544" lon="3.0313">
        <ele>710.59</ele>
        <time>2013-10-18T14:35:16Z</time>
      </trkpt>
      <trkpt lat="45.77525" lon="3.03123">
        <ele>709.07</ele>
        <time>2013-10-18T14:35:24Z</time>
      </trkpt>
      <trkpt lat="45.77508" lon="3.03138">
        <ele>712</ele>
        <time>2013-10-18T14:35:28Z</time>
      </trkpt>
      <trkpt lat="45.77504" lon="3.03163">
        <ele>715.12</ele>
        <time>2013-10-18T14:35:34Z</time>
      </trkpt>
      <trkpt lat="45.77515" lon="3.03186">
        <ele>715.21</ele>
        <time>2013-10-18T14:35:45Z</time>
      </trkpt>
      <trkpt lat="45.77528" lon="3.03207">
        <ele>713.94</ele>
        <time>2013-10-18T14:35:54Z</time>
      </trkpt>
      <trkpt lat="45.7754" lon="3.03226">
        <ele>712.7</ele>
        <time>2013-10-18T14:36:01Z</time>
      </trkpt>
      <trkpt lat="45.77552" lon="3.03251">
        <ele>712.37</ele>
        <time>2013-10-18T14:36:08Z</time>
      </trkpt>
      <trkpt lat="45.77556" lon="3.03277">
        <ele>711.24</ele>
        <time>2013-10-18T14:36:15Z</time>
      </trkpt>
      <trkpt lat="45.77564" lon="3.03304">
        <ele>713.26</ele>
        <time>2013-10-18T14:36:23Z</time>
      </trkpt>
      <trkpt lat="45.7757" lon="3.03332">
        <ele>716.39</ele>
        <time>2013-10-18T14:36:28Z</time>
      </trkpt>
      <trkpt lat="45.77573" lon="3.03359">
        <ele>718.04</ele>
        <time>2013-10-18T14:36:33Z</time>
      </trkpt>
      <trkpt lat="45.77573" lon="3.03386">
        <ele>720.47</ele>
        <time>2013-10-18T14:36:40Z</time>
      </trkpt>
      <trkpt lat="45.77558" lon="3.03402">
        <ele>720.37</ele>
        <time>2013-10-18T14:36:49Z</time>
      </trkpt>
      <trkpt lat="45.77538" lon="3.034">
        <ele>720.29</ele>
        <time>2013-10-18T14:37:00Z</time>
      </trkpt>
      <trkpt lat="45.7752" lon="3.03389">
        <ele>721.66</ele>
        <time>2013-10-18T14:37:08Z</time>
      </trkpt>
      <trkpt lat="45.77505" lon="3.03374">
        <ele>724.81</ele>
        <time>2013-10-18T14:37:20Z</time>
      </trkpt>
      <trkpt lat="45.77489" lon="3.0336">
        <ele>725.25</ele>
        <time>2013-10-18T14:37:27Z</time>
      </trkpt>
      <trkpt lat="45.77473" lon="3.0335">
        <ele>727.03</ele>
        <time>2013-10-18T14:37:34Z</time>
      </trkpt>
      <trkpt lat="45.77454" lon="3.03343">
        <ele>729.62</ele>
        <time>2013-10-18T14:37:41Z</time>
      </trkpt>
      <trkpt lat="45.77433" lon="3.03342">
        <ele>729.03</ele>
        <time>2013-10-18T14:37:52Z</time>
      </trkpt>
      <trkpt lat="45.77415" lon="3.03337">
        <ele>731.73</ele>
        <time>2013-10-18T14:38:00Z</time>
      </trkpt>
      <trkpt lat="45.77399" lon="3.03321">
        <ele>727.08</ele>
        <time>2013-10-18T14:38:08Z</time>
      </trkpt>
      <trkpt lat="45.77386" lon="3.03303">
        <ele>728.88</ele>
        <time>2013-10-18T14:38:15Z</time>
      </trkpt>
      <trkpt lat="45.7737" lon="3.0329">
        <ele>732.61</ele>
        <time>2013-10-18T14:38:24Z</time>
      </trkpt>
      <trkpt lat="45.77353" lon="3.03275">
        <ele>733.38</ele>
        <time>2013-10-18T14:38:38Z</time>
      </trkpt>
      <trkpt lat="45.77335" lon="3.03264">
        <ele>732.61</ele>
        <time>2013-10-18T14:38:44Z</time>
      </trkpt>
      <trkpt lat="45.77317" lon="3.03254">
        <ele>734.1</ele>
        <time>2013-10-18T14:38:50Z</time>
      </trkpt>
      <trkpt lat="45.773" lon="3.03245">
        <ele>736</ele>
        <time>2013-10-18T14:39:00Z</time>
      </trkpt>
      <trkpt lat="45.77284" lon="3.03232">
        <ele>742.03</ele>
        <time>2013-10-18T14:39:09Z</time>
      </trkpt>
      <trkpt lat="45.77268" lon="3.03218">
        <ele>747.75</ele>
        <time>2013-10-18T14:39:16Z</time>
      </trkpt>
      <trkpt lat="45.77251" lon="3.03209">
        <ele>747.14</ele>
        <time>2013-10-18T14:39:25Z</time>
      </trkpt>
      <trkpt lat="45.77235" lon="3.03194">
        <ele>744.88</ele>
        <time>2013-10-18T14:39:35Z</time>
      </trkpt>
      <trkpt lat="45.77218" lon="3.03181">
        <ele>744.98</ele>
        <time>2013-10-18T14:39:43Z</time>
      </trkpt>
      <trkpt lat="45.772" lon="3.03169">
        <ele>745.31</ele>
        <time>2013-10-18T14:39:51Z</time>
      </trkpt>
      <trkpt lat="45.77183" lon="3.03148">
        <ele>745.01</ele>
        <time>2013-10-18T14:39:57Z</time>
      </trkpt>
      <trkpt lat="45.77164" lon="3.03133">
        <ele>744.45</ele>
        <time>2013-10-18T14:40:01Z</time>
      </trkpt>
      <trkpt lat="45.77146" lon="3.03122">
        <ele>743.95</ele>
        <time>2013-10-18T14:40:06Z</time>
      </trkpt>
      <trkpt lat="45.77129" lon="3.03109">
        <ele>742.82</ele>
        <time>2013-10-18T14:40:12Z</time>
      </trkpt>
      <trkpt lat="45.77116" lon="3.03091">
        <ele>739.54</ele>
        <time>2013-10-18T14:40:17Z</time>
      </trkpt>
      <trkpt lat="45.77103" lon="3.03072">
        <ele>737.72</ele>
        <time>2013-10-18T14:40:26Z</time>
      </trkpt>
      <trkpt lat="45.77085" lon="3.03067">
        <ele>736.82</ele>
        <time>2013-10-18T14:40:32Z</time>
      </trkpt>
      <trkpt lat="45.77067" lon="3.03058">
        <ele>736.85</ele>
        <time>2013-10-18T14:40:37Z</time>
      </trkpt>
      <trkpt lat="45.77053" lon="3.03039">
        <ele>736.95</ele>
        <time>2013-10-18T14:40:41Z</time>
      </trkpt>
      <trkpt lat="45.77038" lon="3.03019">
        <ele>736.5</ele>
        <time>2013-10-18T14:40:45Z</time>
      </trkpt>
      <trkpt lat="45.77022" lon="3.03002">
        <ele>736.36</ele>
        <time>2013-10-18T14:40:50Z</time>
      </trkpt>
      <trkpt lat="45.77006" lon="3.02982">
        <ele>736.09</ele>
        <time>2013-10-18T14:40:56Z</time>
      </trkpt>
      <trkpt lat="45.76991" lon="3.02963">
        <ele>735.74</ele>
        <time>2013-10-18T14:41:02Z</time>
      </trkpt>
      <trkpt lat="45.76974" lon="3.02945">
        <ele>735.76</ele>
        <time>2013-10-18T14:41:09Z</time>
      </trkpt>
      <trkpt lat="45.76962" lon="3.02917">
        <ele>735.72</ele>
        <time>2013-10-18T14:41:12Z</time>
      </trkpt>
      <trkpt lat="45.76955" lon="3.0289">
        <ele>737.56</ele>
        <time>2013-10-18T14:41:17Z</time>
      </trkpt>
      <trkpt lat="45.76962" lon="3.0286">
        <ele>738.14</ele>
        <time>2013-10-18T14:41:21Z</time>
      </trkpt>
      <trkpt lat="45.76958" lon="3.02832">
        <ele>739.53</ele>
        <time>2013-10-18T14:41:28Z</time>
      </trkpt>
      <trkpt lat="45.76956" lon="3.02804">
        <ele>738.64</ele>
        <time>2013-10-18T14:41:35Z</time>
      </trkpt>
      <trkpt lat="45.76977" lon="3.02786">
        <ele>736.23</ele>
        <time>2013-10-18T14:41:38Z</time>
      </trkpt>
      <trkpt lat="45.76993" lon="3.02769">
        <ele>734.44</ele>
        <time>2013-10-18T14:41:42Z</time>
      </trkpt>
      <trkpt lat="45.76996" lon="3.02742">
        <ele>731.72</ele>
        <time>2013-10-18T14:41:49Z</time>
      </trkpt>
      <trkpt lat="45.76988" lon="3.02707">
        <ele>731.13</ele>
        <time>2013-10-18T14:41:52Z</time>
      </trkpt>
      <trkpt lat="45.76988" lon="3.02674">
        <ele>730</ele>
        <time>2013-10-18T14:41:55Z</time>
      </trkpt>
      <trkpt lat="45.76984" lon="3.02642">
        <ele>730.4</ele>
        <time>2013-10-18T14:41:58Z</time>
      </trkpt>
      <trkpt lat="45.76976" lon="3.02619">
        <ele>728.18</ele>
        <time>2013-10-18T14:42:01Z</time>
      </trkpt>
      <trkpt lat="45.7697" lon="3.02588">
        <ele>726.93</ele>
        <time>2013-10-18T14:42:05Z</time>
      </trkpt>
      <trkpt lat="45.76962" lon="3.02564">
        <ele>725.68</ele>
        <time>2013-10-18T14:42:09Z</time>
      </trkpt>
      <trkpt lat="45.7695" lon="3.02537">
        <ele>724.85</ele>
        <time>2013-10-18T14:42:14Z</time>
      </trkpt>
      <trkpt lat="45.76956" lon="3.02513">
        <ele>722.07</ele>
        <time>2013-10-18T14:42:22Z</time>
      </trkpt>
      <trkpt lat="45.76959" lon="3.02487">
        <ele>721.09</ele>
        <time>2013-10-18T14:42:29Z</time>
      </trkpt>
      <trkpt lat="45.7696" lon="3.02456">
        <ele>719.86</ele>
        <time>2013-10-18T14:42:35Z</time>
      </trkpt>
      <trkpt lat="45.76958" lon="3.0243">
        <ele>719.61</ele>
        <time>2013-10-18T14:42:39Z</time>
      </trkpt>
      <trkpt lat="45.76955" lon="3.02403">
        <ele>719.37</ele>
        <time>2013-10-18T14:42:43Z</time>
      </trkpt>
      <trkpt lat="45.76947" lon="3.02376">
        <ele>719.5</ele>
        <time>2013-10-18T14:42:48Z</time>
      </trkpt>
      <trkpt lat="45.76944" lon="3.0235">
        <ele>720.51</ele>
        <time>2013-10-18T14:42:56Z</time>
      </trkpt>
      <trkpt lat="45.76947" lon="3.02323">
        <ele>722.52</ele>
        <time>2013-10-18T14:43:03Z</time>
      </trkpt>
      <trkpt lat="45.76948" lon="3.02296">
        <ele>723.74</ele>
        <time>2013-10-18T14:43:11Z</time>
      </trkpt>
      <trkpt lat="45.7695" lon="3.02268">
        <ele>723.36</ele>
        <time>2013-10-18T14:43:20Z</time>
      </trkpt>
      <trkpt lat="45.76948" lon="3.02243">
        <ele>722.66</ele>
        <time>2013-10-18T14:43:28Z</time>
      </trkpt>
      <trkpt lat="45.76939" lon="3.02215">
        <ele>721.88</ele>
        <time>2013-10-18T14:43:36Z</time>
      </trkpt>
      <trkpt lat="45.76929" lon="3.02191">
        <ele>723.52</ele>
        <time>2013-10-18T14:43:42Z</time>
      </trkpt>
      <trkpt lat="45.76919" lon="3.02169">
        <ele>725.78</ele>
        <time>2013-10-18T14:43:49Z</time>
      </trkpt>
      <trkpt lat="45.76909" lon="3.02144">
        <ele>726.79</ele>
        <time>2013-10-18T14:43:56Z</time>
      </trkpt>
      <trkpt lat="45.76897" lon="3.02123">
        <ele>729.23</ele>
        <time>2013-10-18T14:44:06Z</time>
      </trkpt>
      <trkpt lat="45.76891" lon="3.02096">
        <ele>729.04</ele>
        <time>2013-10-18T14:44:17Z</time>
      </trkpt>
      <trkpt lat="45.76887" lon="3.02071">
        <ele>732.53</ele>
        <time>2013-10-18T14:44:25Z</time>
      </trkpt>
      <trkpt lat="45.76891" lon="3.02045">
        <ele>734.57</ele>
        <time>2013-10-18T14:44:36Z</time>
      </trkpt>
      <trkpt lat="45.76889" lon="3.02019">
        <ele>735.72</ele>
        <time>2013-10-18T14:44:47Z</time>
      </trkpt>
      <trkpt lat="45.76889" lon="3.01992">
        <ele>737.24</ele>
        <time>2013-10-18T14:44:55Z</time>
      </trkpt>
      <trkpt lat="45.76883" lon="3.01965">
        <ele>738.91</ele>
        <time>2013-10-18T14:45:04Z</time>
      </trkpt>
      <trkpt lat="45.76874" lon="3.0194">
        <ele>740.6</ele>
        <time>2013-10-18T14:45:12Z</time>
      </trkpt>
      <trkpt lat="45.76869" lon="3.01914">
        <ele>742.5</ele>
        <time>2013-10-18T14:45:18Z</time>
      </trkpt>
      <trkpt lat="45.76867" lon="3.01887">
        <ele>745.18</ele>
        <time>2013-10-18T14:45:25Z</time>
      </trkpt>
      <trkpt lat="45.76866" lon="3.01861">
        <ele>748.97</ele>
        <time>2013-10-18T14:45:34Z</time>
      </trkpt>
      <trkpt lat="45.76868" lon="3.01833">
        <ele>750.26</ele>
        <time>2013-10-18T14:45:45Z</time>
      </trkpt>
      <trkpt lat="45.76874" lon="3.01808">
        <ele>751.36</ele>
        <time>2013-10-18T14:45:53Z</time>
      </trkpt>
      <trkpt lat="45.7688" lon="3.01782">
        <ele>752.18</ele>
        <time>2013-10-18T14:46:02Z</time>
      </trkpt>
      <trkpt lat="45.76885" lon="3.01757">
        <ele>754.31</ele>
        <time>2013-10-18T14:46:09Z</time>
      </trkpt>
      <trkpt lat="45.76896" lon="3.01733">
        <ele>756.41</ele>
        <time>2013-10-18T14:46:19Z</time>
      </trkpt>
      <trkpt lat="45.76902" lon="3.01706">
        <ele>756.24</ele>
        <time>2013-10-18T14:46:27Z</time>
      </trkpt>
      <trkpt lat="45.76906" lon="3.01678">
        <ele>757.31</ele>
        <time>2013-10-18T14:46:33Z</time>
      </trkpt>
      <trkpt lat="45.76911" lon="3.01654">
        <ele>760.05</ele>
        <time>2013-10-18T14:46:40Z</time>
      </trkpt>
      <trkpt lat="45.76919" lon="3.01628">
        <ele>764.4</ele>
        <time>2013-10-18T14:46:49Z</time>
      </trkpt>
      <trkpt lat="45.76918" lon="3.01601">
        <ele>770.25</ele>
        <time>2013-10-18T14:46:57Z</time>
      </trkpt>
      <trkpt lat="45.76917" lon="3.01573">
        <ele>770.98</ele>
        <time>2013-10-18T14:47:05Z</time>
      </trkpt>
      <trkpt lat="45.7693" lon="3.01554">
        <ele>773.61</ele>
        <time>2013-10-18T14:47:19Z</time>
      </trkpt>
      <trkpt lat="45.76945" lon="3.0154">
        <ele>773.91</ele>
        <time>2013-10-18T14:47:31Z</time>
      </trkpt>
      <trkpt lat="45.76957" lon="3.01519">
        <ele>773.77</ele>
        <time>2013-10-18T14:47:38Z</time>
      </trkpt>
      <trkpt lat="45.76962" lon="3.01493">
        <ele>774.03</ele>
        <time>2013-10-18T14:47:45Z</time>
      </trkpt>
      <trkpt lat="45.76973" lon="3.01471">
        <ele>774.55</ele>
        <time>2013-10-18T14:47:54Z</time>
      </trkpt>
      <trkpt lat="45.76992" lon="3.01478">
        <ele>776.72</ele>
        <time>2013-10-18T14:48:00Z</time>
      </trkpt>
      <trkpt lat="45.77011" lon="3.01485">
        <ele>779.48</ele>
        <time>2013-10-18T14:48:06Z</time>
      </trkpt>
      <trkpt lat="45.77029" lon="3.01488">
        <ele>780.26</ele>
        <time>2013-10-18T14:48:12Z</time>
      </trkpt>
      <trkpt lat="45.7705" lon="3.0149">
        <ele>780.5</ele>
        <time>2013-10-18T14:48:18Z</time>
      </trkpt>
      <trkpt lat="45.77071" lon="3.01491">
        <ele>782.46</ele>
        <time>2013-10-18T14:48:24Z</time>
      </trkpt>
      <trkpt lat="45.77089" lon="3.01491">
        <ele>783.67</ele>
        <time>2013-10-18T14:48:29Z</time>
      </trkpt>
      <trkpt lat="45.77108" lon="3.01489">
        <ele>784.56</ele>
        <time>2013-10-18T14:48:35Z</time>
      </trkpt>
      <trkpt lat="45.77129" lon="3.01491">
        <ele>784.43</ele>
        <time>2013-10-18T14:48:42Z</time>
      </trkpt>
      <trkpt lat="45.77147" lon="3.01483">
        <ele>784.63</ele>
        <time>2013-10-18T14:48:48Z</time>
      </trkpt>
      <trkpt lat="45.77142" lon="3.01455">
        <ele>786.73</ele>
        <time>2013-10-18T14:48:55Z</time>
      </trkpt>
      <trkpt lat="45.77134" lon="3.01431">
        <ele>785.79</ele>
        <time>2013-10-18T14:49:01Z</time>
      </trkpt>
      <trkpt lat="45.77125" lon="3.01406">
        <ele>783.74</ele>
        <time>2013-10-18T14:49:07Z</time>
      </trkpt>
      <trkpt lat="45.77116" lon="3.01384">
        <ele>782.43</ele>
        <time>2013-10-18T14:49:13Z</time>
      </trkpt>
      <trkpt lat="45.77107" lon="3.01359">
        <ele>784.12</ele>
        <time>2013-10-18T14:49:18Z</time>
      </trkpt>
      <trkpt lat="45.77094" lon="3.01336">
        <ele>783.97</ele>
        <time>2013-10-18T14:49:24Z</time>
      </trkpt>
      <trkpt lat="45.77081" lon="3.01313">
        <ele>782.31</ele>
        <time>2013-10-18T14:49:30Z</time>
      </trkpt>
      <trkpt lat="45.77069" lon="3.0129">
        <ele>782.34</ele>
        <time>2013-10-18T14:49:37Z</time>
      </trkpt>
      <trkpt lat="45.7706" lon="3.01263">
        <ele>782</ele>
        <time>2013-10-18T14:49:44Z</time>
      </trkpt>
      <trkpt lat="45.77051" lon="3.01238">
        <ele>783.09</ele>
        <time>2013-10-18T14:49:50Z</time>
      </trkpt>
      <trkpt lat="45.77041" lon="3.01217">
        <ele>784.52</ele>
        <time>2013-10-18T14:49:55Z</time>
      </trkpt>
      <trkpt lat="45.77028" lon="3.01194">
        <ele>785.56</ele>
        <time>2013-10-18T14:50:01Z</time>
      </trkpt>
      <trkpt lat="45.77017" lon="3.01172">
        <ele>785.53</ele>
        <time>2013-10-18T14:51:17Z</time>
      </trkpt>
      <trkpt lat="45.7701" lon="3.01145">
        <ele>786.78</ele>
        <time>2013-10-18T14:51:24Z</time>
      </trkpt>
      <trkpt lat="45.77001" lon="3.01122">
        <ele>790.37</ele>
        <time>2013-10-18T14:51:35Z</time>
      </trkpt>
      <trkpt lat="45.76994" lon="3.01095">
        <ele>789.7</ele>
        <time>2013-10-18T14:51:44Z</time>
      </trkpt>
      <trkpt lat="45.76985" lon="3.01072">
        <ele>789.84</ele>
        <time>2013-10-18T14:51:49Z</time>
      </trkpt>
      <trkpt lat="45.76976" lon="3.01045">
        <ele>789.44</ele>
        <time>2013-10-18T14:51:54Z</time>
      </trkpt>
      <trkpt lat="45.76965" lon="3.01024">
        <ele>788.99</ele>
        <time>2013-10-18T14:51:57Z</time>
      </trkpt>
      <trkpt lat="45.76962" lon="3.00998">
        <ele>788.5</ele>
        <time>2013-10-18T14:52:01Z</time>
      </trkpt>
      <trkpt lat="45.7696" lon="3.00972">
        <ele>787.54</ele>
        <time>2013-10-18T14:52:05Z</time>
      </trkpt>
      <trkpt lat="45.76966" lon="3.00947">
        <ele>788.27</ele>
        <time>2013-10-18T14:52:14Z</time>
      </trkpt>
      <trkpt lat="45.76979" lon="3.00921">
        <ele>789.69</ele>
        <time>2013-10-18T14:52:20Z</time>
      </trkpt>
      <trkpt lat="45.76987" lon="3.00897">
        <ele>790.24</ele>
        <time>2013-10-18T14:52:25Z</time>
      </trkpt>
      <trkpt lat="45.76998" lon="3.00875">
        <ele>793.13</ele>
        <time>2013-10-18T14:52:35Z</time>
      </trkpt>
      <trkpt lat="45.77013" lon="3.00855">
        <ele>803</ele>
        <time>2013-10-18T14:52:45Z</time>
      </trkpt>
      <trkpt lat="45.77024" lon="3.00833">
        <ele>806.9</ele>
        <time>2013-10-18T14:52:54Z</time>
      </trkpt>
      <trkpt lat="45.77039" lon="3.00815">
        <ele>806.92</ele>
        <time>2013-10-18T14:53:08Z</time>
      </trkpt>
      <trkpt lat="45.77051" lon="3.00794">
        <ele>806.58</ele>
        <time>2013-10-18T14:53:18Z</time>
      </trkpt>
      <trkpt lat="45.77061" lon="3.00771">
        <ele>805.77</ele>
        <time>2013-10-18T14:53:27Z</time>
      </trkpt>
      <trkpt lat="45.77074" lon="3.0075">
        <ele>804.64</ele>
        <time>2013-10-18T14:53:35Z</time>
      </trkpt>
      <trkpt lat="45.7709" lon="3.00738">
        <ele>803.6</ele>
        <time>2013-10-18T14:53:43Z</time>
      </trkpt>
      <trkpt lat="45.77104" lon="3.00722">
        <ele>802.37</ele>
        <time>2013-10-18T14:53:51Z</time>
      </trkpt>
      <trkpt lat="45.77111" lon="3.00698">
        <ele>801.21</ele>
        <time>2013-10-18T14:53:58Z</time>
      </trkpt>
      <trkpt lat="45.77114" lon="3.00672">
        <ele>802.6</ele>
        <time>2013-10-18T14:54:03Z</time>
      </trkpt>
      <trkpt lat="45.77115" lon="3.00642">
        <ele>804</ele>
        <time>2013-10-18T14:54:09Z</time>
      </trkpt>
      <trkpt lat="45.77118" lon="3.00615">
        <ele>807.19</ele>
        <time>2013-10-18T14:54:18Z</time>
      </trkpt>
      <trkpt lat="45.77124" lon="3.0059">
        <ele>810.62</ele>
        <time>2013-10-18T14:54:26Z</time>
      </trkpt>
      <trkpt lat="45.77128" lon="3.00563">
        <ele>810.46</ele>
        <time>2013-10-18T14:54:35Z</time>
      </trkpt>
      <trkpt lat="45.77137" lon="3.00539">
        <ele>809.99</ele>
        <time>2013-10-18T14:54:44Z</time>
      </trkpt>
      <trkpt lat="45.77151" lon="3.0052">
        <ele>809.87</ele>
        <time>2013-10-18T14:54:51Z</time>
      </trkpt>
      <trkpt lat="45.77162" lon="3.00497">
        <ele>811.57</ele>
        <time>2013-10-18T14:54:57Z</time>
      </trkpt>
      <trkpt lat="45.77175" lon="3.00475">
        <ele>813.86</ele>
        <time>2013-10-18T14:55:04Z</time>
      </trkpt>
      <trkpt lat="45.77186" lon="3.00454">
        <ele>817.29</ele>
        <time>2013-10-18T14:55:12Z</time>
      </trkpt>
      <trkpt lat="45.77198" lon="3.00433">
        <ele>819.81</ele>
        <time>2013-10-18T14:55:20Z</time>
      </trkpt>
      <trkpt lat="45.77212" lon="3.00416">
        <ele>820.65</ele>
        <time>2013-10-18T14:55:34Z</time>
      </trkpt>
      <trkpt lat="45.77229" lon="3.00406">
        <ele>823.44</ele>
        <time>2013-10-18T14:55:44Z</time>
      </trkpt>
      <trkpt lat="45.77245" lon="3.00392">
        <ele>827.29</ele>
        <time>2013-10-18T14:55:54Z</time>
      </trkpt>
      <trkpt lat="45.77254" lon="3.00369">
        <ele>828.86</ele>
        <time>2013-10-18T14:56:04Z</time>
      </trkpt>
      <trkpt lat="45.77262" lon="3.00346">
        <ele>828.95</ele>
        <time>2013-10-18T14:56:15Z</time>
      </trkpt>
      <trkpt lat="45.77277" lon="3.00327">
        <ele>830.42</ele>
        <time>2013-10-18T14:56:27Z</time>
      </trkpt>
      <trkpt lat="45.77293" lon="3.00308">
        <ele>831.45</ele>
        <time>2013-10-18T14:56:34Z</time>
      </trkpt>
      <trkpt lat="45.77304" lon="3.00288">
        <ele>831.96</ele>
        <time>2013-10-18T14:56:41Z</time>
      </trkpt>
      <trkpt lat="45.77316" lon="3.00265">
        <ele>832.81</ele>
        <time>2013-10-18T14:56:49Z</time>
      </trkpt>
      <trkpt lat="45.77325" lon="3.00241">
        <ele>834.08</ele>
        <time>2013-10-18T14:56:59Z</time>
      </trkpt>
      <trkpt lat="45.77332" lon="3.00217">
        <ele>835.13</ele>
        <time>2013-10-18T14:57:07Z</time>
      </trkpt>
      <trkpt lat="45.7734" lon="3.00193">
        <ele>836.53</ele>
        <time>2013-10-18T14:57:16Z</time>
      </trkpt>
      <trkpt lat="45.77353" lon="3.00175">
        <ele>837.69</ele>
        <time>2013-10-18T14:57:23Z</time>
      </trkpt>
      <trkpt lat="45.7737" lon="3.00158">
        <ele>840.71</ele>
        <time>2013-10-18T14:57:30Z</time>
      </trkpt>
      <trkpt lat="45.77385" lon="3.0014">
        <ele>843.89</ele>
        <time>2013-10-18T14:57:39Z</time>
      </trkpt>
      <trkpt lat="45.77401" lon="3.00129">
        <ele>845.34</ele>
        <time>2013-10-18T14:57:50Z</time>
      </trkpt>
      <trkpt lat="45.77412" lon="3.00104">
        <ele>843.34</ele>
        <time>2013-10-18T14:57:58Z</time>
      </trkpt>
      <trkpt lat="45.77418" lon="3.00078">
        <ele>842.15</ele>
        <time>2013-10-18T14:58:05Z</time>
      </trkpt>
      <trkpt lat="45.77427" lon="3.00053">
        <ele>841.83</ele>
        <time>2013-10-18T14:58:13Z</time>
      </trkpt>
      <trkpt lat="45.77434" lon="3.00027">
        <ele>842.4</ele>
        <time>2013-10-18T14:58:23Z</time>
      </trkpt>
      <trkpt lat="45.77448" lon="3.00011">
        <ele>844.56</ele>
        <time>2013-10-18T14:58:29Z</time>
      </trkpt>
      <trkpt lat="45.77466" lon="2.99995">
        <ele>846.29</ele>
        <time>2013-10-18T14:58:35Z</time>
      </trkpt>
      <trkpt lat="45.77482" lon="2.99981">
        <ele>847.95</ele>
        <time>2013-10-18T14:58:42Z</time>
      </trkpt>
      <trkpt lat="45.77498" lon="2.99969">
        <ele>850.34</ele>
        <time>2013-10-18T14:58:49Z</time>
      </trkpt>
      <trkpt lat="45.77513" lon="2.99952">
        <ele>851.46</ele>
        <time>2013-10-18T14:58:57Z</time>
      </trkpt>
      <trkpt lat="45.77524" lon="2.99931">
        <ele>852.81</ele>
        <time>2013-10-18T14:59:06Z</time>
      </trkpt>
      <trkpt lat="45.77537" lon="2.99913">
        <ele>853.84</ele>
        <time>2013-10-18T14:59:16Z</time>
      </trkpt>
      <trkpt lat="45.7755" lon="2.99892">
        <ele>857.61</ele>
        <time>2013-10-18T14:59:25Z</time>
      </trkpt>
      <trkpt lat="45.77557" lon="2.99867">
        <ele>858.98</ele>
        <time>2013-10-18T14:59:37Z</time>
      </trkpt>
      <trkpt lat="45.77571" lon="2.99847">
        <ele>857.42</ele>
        <time>2013-10-18T14:59:47Z</time>
      </trkpt>
      <trkpt lat="45.77586" lon="2.99831">
        <ele>855.75</ele>
        <time>2013-10-18T14:59:57Z</time>
      </trkpt>
      <trkpt lat="45.77599" lon="2.99813">
        <ele>854.25</ele>
        <time>2013-10-18T15:00:04Z</time>
      </trkpt>
      <trkpt lat="45.77617" lon="2.99804">
        <ele>854.23</ele>
        <time>2013-10-18T15:00:12Z</time>
      </trkpt>
      <trkpt lat="45.77637" lon="2.99802">
        <ele>856.23</ele>
        <time>2013-10-18T15:00:20Z</time>
      </trkpt>
      <trkpt lat="45.77651" lon="2.99781">
        <ele>857.99</ele>
        <time>2013-10-18T15:00:28Z</time>
      </trkpt>
      <trkpt lat="45.77653" lon="2.99754">
        <ele>864.01</ele>
        <time>2013-10-18T15:00:35Z</time>
      </trkpt>
      <trkpt lat="45.77656" lon="2.99729">
        <ele>869.35</ele>
        <time>2013-10-18T15:00:45Z</time>
      </trkpt>
      <trkpt lat="45.77666" lon="2.99705">
        <ele>869.8</ele>
        <time>2013-10-18T15:00:58Z</time>
      </trkpt>
      <trkpt lat="45.77681" lon="2.99687">
        <ele>869.97</ele>
        <time>2013-10-18T15:01:07Z</time>
      </trkpt>
      <trkpt lat="45.77695" lon="2.99672">
        <ele>871.49</ele>
        <time>2013-10-18T15:01:15Z</time>
      </trkpt>
      <trkpt lat="45.77709" lon="2.99655">
        <ele>873.21</ele>
        <time>2013-10-18T15:01:25Z</time>
      </trkpt>
      <trkpt lat="45.77724" lon="2.99636">
        <ele>876.02</ele>
        <time>2013-10-18T15:01:35Z</time>
      </trkpt>
      <trkpt lat="45.77739" lon="2.9962">
        <ele>877.99</ele>
        <time>2013-10-18T15:01:43Z</time>
      </trkpt>
      <trkpt lat="45.77757" lon="2.99606">
        <ele>877.92</ele>
        <time>2013-10-18T15:01:50Z</time>
      </trkpt>
      <trkpt lat="45.77777" lon="2.99597">
        <ele>876.8</ele>
        <time>2013-10-18T15:01:57Z</time>
      </trkpt>
      <trkpt lat="45.77795" lon="2.99586">
        <ele>876.25</ele>
        <time>2013-10-18T15:02:04Z</time>
      </trkpt>
      <trkpt lat="45.7781" lon="2.9957">
        <ele>877.79</ele>
        <time>2013-10-18T15:02:11Z</time>
      </trkpt>
      <trkpt lat="45.77827" lon="2.9956">
        <ele>880.37</ele>
        <time>2013-10-18T15:02:18Z</time>
      </trkpt>
      <trkpt lat="45.77843" lon="2.99546">
        <ele>881.89</ele>
        <time>2013-10-18T15:02:25Z</time>
      </trkpt>
      <trkpt lat="45.77855" lon="2.99524">
        <ele>883.93</ele>
        <time>2013-10-18T15:02:33Z</time>
      </trkpt>
      <trkpt lat="45.77871" lon="2.99507">
        <ele>884.62</ele>
        <time>2013-10-18T15:02:42Z</time>
      </trkpt>
      <trkpt lat="45.77886" lon="2.99491">
        <ele>883.97</ele>
        <time>2013-10-18T15:02:49Z</time>
      </trkpt>
      <trkpt lat="45.77902" lon="2.99476">
        <ele>884.73</ele>
        <time>2013-10-18T15:02:55Z</time>
      </trkpt>
      <trkpt lat="45.77919" lon="2.9946">
        <ele>884.91</ele>
        <time>2013-10-18T15:03:02Z</time>
      </trkpt>
      <trkpt lat="45.77936" lon="2.99445">
        <ele>884.86</ele>
        <time>2013-10-18T15:03:08Z</time>
      </trkpt>
      <trkpt lat="45.77953" lon="2.99429">
        <ele>885.59</ele>
        <time>2013-10-18T15:03:14Z</time>
      </trkpt>
      <trkpt lat="45.7797" lon="2.99415">
        <ele>886.63</ele>
        <time>2013-10-18T15:03:20Z</time>
      </trkpt>
      <trkpt lat="45.77985" lon="2.99395">
        <ele>890.94</ele>
        <time>2013-10-18T15:03:26Z</time>
      </trkpt>
      <trkpt lat="45.77996" lon="2.99374">
        <ele>892.53</ele>
        <time>2013-10-18T15:03:33Z</time>
      </trkpt>
      <trkpt lat="45.78009" lon="2.99354">
        <ele>892.91</ele>
        <time>2013-10-18T15:03:42Z</time>
      </trkpt>
      <trkpt lat="45.78021" lon="2.99333">
        <ele>892.8</ele>
        <time>2013-10-18T15:03:50Z</time>
      </trkpt>
      <trkpt lat="45.78038" lon="2.99341">
        <ele>893.54</ele>
        <time>2013-10-18T15:03:56Z</time>
      </trkpt>
      <trkpt lat="45.78058" lon="2.9935">
        <ele>894.79</ele>
        <time>2013-10-18T15:04:01Z</time>
      </trkpt>
      <trkpt lat="45.78077" lon="2.99352">
        <ele>896.08</ele>
        <time>2013-10-18T15:04:06Z</time>
      </trkpt>
      <trkpt lat="45.78097" lon="2.99356">
        <ele>896.06</ele>
        <time>2013-10-18T15:04:12Z</time>
      </trkpt>
      <trkpt lat="45.78117" lon="2.9936">
        <ele>896.7</ele>
        <time>2013-10-18T15:04:18Z</time>
      </trkpt>
      <trkpt lat="45.78135" lon="2.99362">
        <ele>896.24</ele>
        <time>2013-10-18T15:04:24Z</time>
      </trkpt>
      <trkpt lat="45.78154" lon="2.99361">
        <ele>894.67</ele>
        <time>2013-10-18T15:04:31Z</time>
      </trkpt>
      <trkpt lat="45.78174" lon="2.9936">
        <ele>894.92</ele>
        <time>2013-10-18T15:04:39Z</time>
      </trkpt>
      <trkpt lat="45.78193" lon="2.99359">
        <ele>894.68</ele>
        <time>2013-10-18T15:04:48Z</time>
      </trkpt>
      <trkpt lat="45.78212" lon="2.99359">
        <ele>892.56</ele>
        <time>2013-10-18T15:04:57Z</time>
      </trkpt>
      <trkpt lat="45.78231" lon="2.99351">
        <ele>891.6</ele>
        <time>2013-10-18T15:05:05Z</time>
      </trkpt>
      <trkpt lat="45.7825" lon="2.99348">
        <ele>889.8</ele>
        <time>2013-10-18T15:05:13Z</time>
      </trkpt>
      <trkpt lat="45.78269" lon="2.9935">
        <ele>888.66</ele>
        <time>2013-10-18T15:05:20Z</time>
      </trkpt>
      <trkpt lat="45.78287" lon="2.99346">
        <ele>888.08</ele>
        <time>2013-10-18T15:05:26Z</time>
      </trkpt>
      <trkpt lat="45.78309" lon="2.99341">
        <ele>885.75</ele>
        <time>2013-10-18T15:05:32Z</time>
      </trkpt>
      <trkpt lat="45.78327" lon="2.99337">
        <ele>885.22</ele>
        <time>2013-10-18T15:05:38Z</time>
      </trkpt>
      <trkpt lat="45.78346" lon="2.99339">
        <ele>886.11</ele>
        <time>2013-10-18T15:05:45Z</time>
      </trkpt>
      <trkpt lat="45.78365" lon="2.99345">
        <ele>887.5</ele>
        <time>2013-10-18T15:05:51Z</time>
      </trkpt>
      <trkpt lat="45.78386" lon="2.99347">
        <ele>889.94</ele>
        <time>2013-10-18T15:05:56Z</time>
      </trkpt>
      <trkpt lat="45.78404" lon="2.99355">
        <ele>890.95</ele>
        <time>2013-10-18T15:06:01Z</time>
      </trkpt>
      <trkpt lat="45.78424" lon="2.99361">
        <ele>891.41</ele>
        <time>2013-10-18T15:06:07Z</time>
      </trkpt>
      <trkpt lat="45.78443" lon="2.99373">
        <ele>892.78</ele>
        <time>2013-10-18T15:06:14Z</time>
      </trkpt>
      <trkpt lat="45.78462" lon="2.99382">
        <ele>895.38</ele>
        <time>2013-10-18T15:06:20Z</time>
      </trkpt>
      <trkpt lat="45.78478" lon="2.99394">
        <ele>896.08</ele>
        <time>2013-10-18T15:06:27Z</time>
      </trkpt>
      <trkpt lat="45.78493" lon="2.9941">
        <ele>895.89</ele>
        <time>2013-10-18T15:06:35Z</time>
      </trkpt>
      <trkpt lat="45.78507" lon="2.99426">
        <ele>895.06</ele>
        <time>2013-10-18T15:06:40Z</time>
      </trkpt>
      <trkpt lat="45.78526" lon="2.99434">
        <ele>894.33</ele>
        <time>2013-10-18T15:06:44Z</time>
      </trkpt>
      <trkpt lat="45.78545" lon="2.99439">
        <ele>894.72</ele>
        <time>2013-10-18T15:06:48Z</time>
      </trkpt>
      <trkpt lat="45.78567" lon="2.99442">
        <ele>897.14</ele>
        <time>2013-10-18T15:06:52Z</time>
      </trkpt>
      <trkpt lat="45.78588" lon="2.99443">
        <ele>899.25</ele>
        <time>2013-10-18T15:06:58Z</time>
      </trkpt>
      <trkpt lat="45.78607" lon="2.99447">
        <ele>899.46</ele>
        <time>2013-10-18T15:07:07Z</time>
      </trkpt>
      <trkpt lat="45.78625" lon="2.99433">
        <ele>900.18</ele>
        <time>2013-10-18T15:07:15Z</time>
      </trkpt>
      <trkpt lat="45.78641" lon="2.99421">
        <ele>900.59</ele>
        <time>2013-10-18T15:07:24Z</time>
      </trkpt>
      <trkpt lat="45.78661" lon="2.9941">
        <ele>901.17</ele>
        <time>2013-10-18T15:07:30Z</time>
      </trkpt>
      <trkpt lat="45.7868" lon="2.99398">
        <ele>902.19</ele>
        <time>2013-10-18T15:07:37Z</time>
      </trkpt>
      <trkpt lat="45.78696" lon="2.99383">
        <ele>904.74</ele>
        <time>2013-10-18T15:07:47Z</time>
      </trkpt>
      <trkpt lat="45.78709" lon="2.99363">
        <ele>905.58</ele>
        <time>2013-10-18T15:07:55Z</time>
      </trkpt>
      <trkpt lat="45.78723" lon="2.99344">
        <ele>905.06</ele>
        <time>2013-10-18T15:08:03Z</time>
      </trkpt>
      <trkpt lat="45.78733" lon="2.99322">
        <ele>905.02</ele>
        <time>2013-10-18T15:08:12Z</time>
      </trkpt>
      <trkpt lat="45.78745" lon="2.993">
        <ele>907.21</ele>
        <time>2013-10-18T15:08:20Z</time>
      </trkpt>
      <trkpt lat="45.78762" lon="2.99288">
        <ele>906.67</ele>
        <time>2013-10-18T15:08:31Z</time>
      </trkpt>
      <trkpt lat="45.78778" lon="2.99276">
        <ele>906.42</ele>
        <time>2013-10-18T15:08:43Z</time>
      </trkpt>
      <trkpt lat="45.78795" lon="2.99266">
        <ele>906.3</ele>
        <time>2013-10-18T15:08:50Z</time>
      </trkpt>
      <trkpt lat="45.78807" lon="2.99245">
        <ele>908.69</ele>
        <time>2013-10-18T15:08:55Z</time>
      </trkpt>
      <trkpt lat="45.78819" lon="2.99223">
        <ele>908.48</ele>
        <time>2013-10-18T15:09:02Z</time>
      </trkpt>
      <trkpt lat="45.7883" lon="2.99196">
        <ele>906.28</ele>
        <time>2013-10-18T15:09:08Z</time>
      </trkpt>
      <trkpt lat="45.78839" lon="2.99172">
        <ele>905.91</ele>
        <time>2013-10-18T15:09:13Z</time>
      </trkpt>
      <trkpt lat="45.78843" lon="2.99144">
        <ele>908.26</ele>
        <time>2013-10-18T15:09:18Z</time>
      </trkpt>
      <trkpt lat="45.78842" lon="2.99118">
        <ele>912.2</ele>
        <time>2013-10-18T15:09:24Z</time>
      </trkpt>
      <trkpt lat="45.78843" lon="2.99092">
        <ele>915.95</ele>
        <time>2013-10-18T15:09:30Z</time>
      </trkpt>
      <trkpt lat="45.78844" lon="2.99064">
        <ele>916.66</ele>
        <time>2013-10-18T15:09:37Z</time>
      </trkpt>
      <trkpt lat="45.78837" lon="2.99039">
        <ele>918.25</ele>
        <time>2013-10-18T15:09:45Z</time>
      </trkpt>
      <trkpt lat="45.78825" lon="2.99014">
        <ele>919.73</ele>
        <time>2013-10-18T15:09:53Z</time>
      </trkpt>
      <trkpt lat="45.78817" lon="2.98987">
        <ele>921.41</ele>
        <time>2013-10-18T15:09:59Z</time>
      </trkpt>
      <trkpt lat="45.78806" lon="2.98964">
        <ele>926.35</ele>
        <time>2013-10-18T15:10:05Z</time>
      </trkpt>
      <trkpt lat="45.78799" lon="2.9894">
        <ele>928.71</ele>
        <time>2013-10-18T15:10:11Z</time>
      </trkpt>
      <trkpt lat="45.78793" lon="2.98915">
        <ele>929.24</ele>
        <time>2013-10-18T15:10:18Z</time>
      </trkpt>
      <trkpt lat="45.78789" lon="2.98885">
        <ele>930.05</ele>
        <time>2013-10-18T15:10:24Z</time>
      </trkpt>
      <trkpt lat="45.78783" lon="2.98859">
        <ele>931.8</ele>
        <time>2013-10-18T15:10:29Z</time>
      </trkpt>
      <trkpt lat="45.78784" lon="2.9883">
        <ele>930.97</ele>
        <time>2013-10-18T15:10:35Z</time>
      </trkpt>
      <trkpt lat="45.7879" lon="2.98806">
        <ele>929.53</ele>
        <time>2013-10-18T15:10:41Z</time>
      </trkpt>
      <trkpt lat="45.78798" lon="2.98777">
        <ele>927.98</ele>
        <time>2013-10-18T15:10:47Z</time>
      </trkpt>
      <trkpt lat="45.78804" lon="2.98751">
        <ele>928.43</ele>
        <time>2013-10-18T15:10:53Z</time>
      </trkpt>
      <trkpt lat="45.78805" lon="2.98722">
        <ele>929.36</ele>
        <time>2013-10-18T15:11:01Z</time>
      </trkpt>
      <trkpt lat="45.78802" lon="2.98695">
        <ele>927.53</ele>
        <time>2013-10-18T15:11:09Z</time>
      </trkpt>
      <trkpt lat="45.78806" lon="2.98669">
        <ele>928.23</ele>
        <time>2013-10-18T15:11:16Z</time>
      </trkpt>
      <trkpt lat="45.78808" lon="2.98641">
        <ele>928.9</ele>
        <time>2013-10-18T15:11:22Z</time>
      </trkpt>
      <trkpt lat="45.78814" lon="2.98613">
        <ele>927.23</ele>
        <time>2013-10-18T15:11:27Z</time>
      </trkpt>
      <trkpt lat="45.7882" lon="2.98588">
        <ele>925.78</ele>
        <time>2013-10-18T15:11:33Z</time>
      </trkpt>
      <trkpt lat="45.78829" lon="2.98561">
        <ele>926.2</ele>
        <time>2013-10-18T15:11:41Z</time>
      </trkpt>
      <trkpt lat="45.78844" lon="2.98537">
        <ele>923.74</ele>
        <time>2013-10-18T15:11:47Z</time>
      </trkpt>
      <trkpt lat="45.78851" lon="2.98512">
        <ele>921.2</ele>
        <time>2013-10-18T15:11:51Z</time>
      </trkpt>
      <trkpt lat="45.78857" lon="2.98483">
        <ele>921.66</ele>
        <time>2013-10-18T15:11:55Z</time>
      </trkpt>
      <trkpt lat="45.78864" lon="2.98453">
        <ele>924.71</ele>
        <time>2013-10-18T15:11:59Z</time>
      </trkpt>
      <trkpt lat="45.78873" lon="2.98429">
        <ele>925.98</ele>
        <time>2013-10-18T15:12:03Z</time>
      </trkpt>
      <trkpt lat="45.78885" lon="2.98403">
        <ele>928.11</ele>
        <time>2013-10-18T15:12:08Z</time>
      </trkpt>
      <trkpt lat="45.78895" lon="2.98381">
        <ele>928.74</ele>
        <time>2013-10-18T15:12:12Z</time>
      </trkpt>
      <trkpt lat="45.78905" lon="2.98357">
        <ele>929.93</ele>
        <time>2013-10-18T15:12:18Z</time>
      </trkpt>
      <trkpt lat="45.78917" lon="2.98335">
        <ele>929.38</ele>
        <time>2013-10-18T15:12:24Z</time>
      </trkpt>
      <trkpt lat="45.78927" lon="2.9831">
        <ele>931.36</ele>
        <time>2013-10-18T15:12:30Z</time>
      </trkpt>
      <trkpt lat="45.78937" lon="2.98286">
        <ele>933.1</ele>
        <time>2013-10-18T15:12:36Z</time>
      </trkpt>
      <trkpt lat="45.78949" lon="2.98262">
        <ele>932.16</ele>
        <time>2013-10-18T15:12:43Z</time>
      </trkpt>
      <trkpt lat="45.78957" lon="2.98235">
        <ele>932.55</ele>
        <time>2013-10-18T15:12:49Z</time>
      </trkpt>
      <trkpt lat="45.78964" lon="2.9821">
        <ele>933.88</ele>
        <time>2013-10-18T15:12:55Z</time>
      </trkpt>
      <trkpt lat="45.78978" lon="2.98188">
        <ele>935.04</ele>
        <time>2013-10-18T15:13:02Z</time>
      </trkpt>
      <trkpt lat="45.78992" lon="2.98169">
        <ele>936.15</ele>
        <time>2013-10-18T15:13:08Z</time>
      </trkpt>
      <trkpt lat="45.79004" lon="2.98145">
        <ele>936.74</ele>
        <time>2013-10-18T15:13:15Z</time>
      </trkpt>
      <trkpt lat="45.79015" lon="2.98123">
        <ele>937.65</ele>
        <time>2013-10-18T15:13:21Z</time>
      </trkpt>
      <trkpt lat="45.79027" lon="2.98101">
        <ele>939.17</ele>
        <time>2013-10-18T15:13:28Z</time>
      </trkpt>
      <trkpt lat="45.79039" lon="2.98082">
        <ele>938.2</ele>
        <time>2013-10-18T15:13:34Z</time>
      </trkpt>
      <trkpt lat="45.79049" lon="2.98059">
        <ele>938.65</ele>
        <time>2013-10-18T15:13:42Z</time>
      </trkpt>
      <trkpt lat="45.79062" lon="2.9804">
        <ele>942.58</ele>
        <time>2013-10-18T15:13:50Z</time>
      </trkpt>
      <trkpt lat="45.79075" lon="2.9802">
        <ele>945.06</ele>
        <time>2013-10-18T15:13:59Z</time>
      </trkpt>
      <trkpt lat="45.79088" lon="2.98">
        <ele>949.38</ele>
        <time>2013-10-18T15:14:09Z</time>
      </trkpt>
      <trkpt lat="45.791" lon="2.97979">
        <ele>950.27</ele>
        <time>2013-10-18T15:14:20Z</time>
      </trkpt>
      <trkpt lat="45.79112" lon="2.9796">
        <ele>952.41</ele>
        <time>2013-10-18T15:14:30Z</time>
      </trkpt>
      <trkpt lat="45.79123" lon="2.97938">
        <ele>952.54</ele>
        <time>2013-10-18T15:14:42Z</time>
      </trkpt>
      <trkpt lat="45.79134" lon="2.97917">
        <ele>953.81</ele>
        <time>2013-10-18T15:14:52Z</time>
      </trkpt>
      <trkpt lat="45.79146" lon="2.97896">
        <ele>955.07</ele>
        <time>2013-10-18T15:15:02Z</time>
      </trkpt>
      <trkpt lat="45.7916" lon="2.97875">
        <ele>954.96</ele>
        <time>2013-10-18T15:15:12Z</time>
      </trkpt>
      <trkpt lat="45.79172" lon="2.97853">
        <ele>955.68</ele>
        <time>2013-10-18T15:15:23Z</time>
      </trkpt>
      <trkpt lat="45.79186" lon="2.97835">
        <ele>956.28</ele>
        <time>2013-10-18T15:15:32Z</time>
      </trkpt>
      <trkpt lat="45.79197" lon="2.97812">
        <ele>956.87</ele>
        <time>2013-10-18T15:15:42Z</time>
      </trkpt>
      <trkpt lat="45.79208" lon="2.97789">
        <ele>959.64</ele>
        <time>2013-10-18T15:15:52Z</time>
      </trkpt>
      <trkpt lat="45.7922" lon="2.97769">
        <ele>960.74</ele>
        <time>2013-10-18T15:16:03Z</time>
      </trkpt>
      <trkpt lat="45.79233" lon="2.97747">
        <ele>962.77</ele>
        <time>2013-10-18T15:16:14Z</time>
      </trkpt>
      <trkpt lat="45.79245" lon="2.97728">
        <ele>965.16</ele>
        <time>2013-10-18T15:16:25Z</time>
      </trkpt>
      <trkpt lat="45.79263" lon="2.97738">
        <ele>966.54</ele>
        <time>2013-10-18T15:16:35Z</time>
      </trkpt>
      <trkpt lat="45.79276" lon="2.97761">
        <ele>967.35</ele>
        <time>2013-10-18T15:16:43Z</time>
      </trkpt>
      <trkpt lat="45.79288" lon="2.97783">
        <ele>969.65</ele>
        <time>2013-10-18T15:16:50Z</time>
      </trkpt>
      <trkpt lat="45.79302" lon="2.978">
        <ele>978.28</ele>
        <time>2013-10-18T15:20:40Z</time>
      </trkpt>
      <trkpt lat="45.79312" lon="2.97823">
        <ele>975.1</ele>
        <time>2013-10-18T15:21:15Z</time>
      </trkpt>
      <trkpt lat="45.79326" lon="2.97841">
        <ele>974.14</ele>
        <time>2013-10-18T15:21:24Z</time>
      </trkpt>
      <trkpt lat="45.79339" lon="2.97861">
        <ele>976.32</ele>
        <time>2013-10-18T15:21:33Z</time>
      </trkpt>
      <trkpt lat="45.79354" lon="2.9788">
        <ele>976.34</ele>
        <time>2013-10-18T15:21:41Z</time>
      </trkpt>
      <trkpt lat="45.79368" lon="2.97897">
        <ele>975.77</ele>
        <time>2013-10-18T15:21:46Z</time>
      </trkpt>
      <trkpt lat="45.79383" lon="2.97915">
        <ele>975.53</ele>
        <time>2013-10-18T15:21:51Z</time>
      </trkpt>
      <trkpt lat="45.79398" lon="2.9793">
        <ele>973.95</ele>
        <time>2013-10-18T15:21:55Z</time>
      </trkpt>
      <trkpt lat="45.79416" lon="2.97948">
        <ele>971.86</ele>
        <time>2013-10-18T15:21:59Z</time>
      </trkpt>
      <trkpt lat="45.79432" lon="2.97969">
        <ele>970.66</ele>
        <time>2013-10-18T15:22:04Z</time>
      </trkpt>
      <trkpt lat="45.79446" lon="2.97989">
        <ele>970.21</ele>
        <time>2013-10-18T15:22:09Z</time>
      </trkpt>
      <trkpt lat="45.7946" lon="2.98007">
        <ele>966.63</ele>
        <time>2013-10-18T15:22:12Z</time>
      </trkpt>
      <trkpt lat="45.7947" lon="2.9803">
        <ele>965.55</ele>
        <time>2013-10-18T15:22:13Z</time>
      </trkpt>
      <trkpt lat="45.79483" lon="2.9805">
        <ele>963.35</ele>
        <time>2013-10-18T15:22:16Z</time>
      </trkpt>
      <trkpt lat="45.79495" lon="2.98077">
        <ele>962.48</ele>
        <time>2013-10-18T15:22:20Z</time>
      </trkpt>
      <trkpt lat="45.79507" lon="2.98105">
        <ele>961.86</ele>
        <time>2013-10-18T15:22:24Z</time>
      </trkpt>
      <trkpt lat="45.79521" lon="2.98131">
        <ele>961.36</ele>
        <time>2013-10-18T15:22:28Z</time>
      </trkpt>
      <trkpt lat="45.79538" lon="2.98149">
        <ele>960.31</ele>
        <time>2013-10-18T15:22:32Z</time>
      </trkpt>
      <trkpt lat="45.79555" lon="2.98162">
        <ele>959.51</ele>
        <time>2013-10-18T15:22:37Z</time>
      </trkpt>
      <trkpt lat="45.79574" lon="2.98172">
        <ele>958.99</ele>
        <time>2013-10-18T15:22:42Z</time>
      </trkpt>
      <trkpt lat="45.79589" lon="2.98188">
        <ele>957.08</ele>
        <time>2013-10-18T15:22:46Z</time>
      </trkpt>
      <trkpt lat="45.79606" lon="2.98202">
        <ele>955.62</ele>
        <time>2013-10-18T15:22:50Z</time>
      </trkpt>
      <trkpt lat="45.79626" lon="2.98212">
        <ele>954.38</ele>
        <time>2013-10-18T15:22:55Z</time>
      </trkpt>
      <trkpt lat="45.79644" lon="2.98228">
        <ele>952.76</ele>
        <time>2013-10-18T15:23:00Z</time>
      </trkpt>
      <trkpt lat="45.79664" lon="2.98241">
        <ele>954.77</ele>
        <time>2013-10-18T15:23:05Z</time>
      </trkpt>
      <trkpt lat="45.79683" lon="2.98252">
        <ele>959.88</ele>
        <time>2013-10-18T15:23:10Z</time>
      </trkpt>
      <trkpt lat="45.79703" lon="2.98263">
        <ele>962.22</ele>
        <time>2013-10-18T15:23:15Z</time>
      </trkpt>
      <trkpt lat="45.79721" lon="2.98271">
        <ele>960.51</ele>
        <time>2013-10-18T15:23:19Z</time>
      </trkpt>
      <trkpt lat="45.7974" lon="2.98273">
        <ele>959.8</ele>
        <time>2013-10-18T15:23:23Z</time>
      </trkpt>
      <trkpt lat="45.79761" lon="2.98278">
        <ele>959.16</ele>
        <time>2013-10-18T15:23:28Z</time>
      </trkpt>
      <trkpt lat="45.79781" lon="2.98293">
        <ele>958.83</ele>
        <time>2013-10-18T15:23:33Z</time>
      </trkpt>
      <trkpt lat="45.79796" lon="2.98307">
        <ele>958.58</ele>
        <time>2013-10-18T15:23:37Z</time>
      </trkpt>
      <trkpt lat="45.79813" lon="2.98322">
        <ele>958.49</ele>
        <time>2013-10-18T15:23:42Z</time>
      </trkpt>
      <trkpt lat="45.7983" lon="2.98336">
        <ele>962.28</ele>
        <time>2013-10-18T15:23:47Z</time>
      </trkpt>
      <trkpt lat="45.79849" lon="2.98339">
        <ele>963.81</ele>
        <time>2013-10-18T15:23:54Z</time>
      </trkpt>
      <trkpt lat="45.79865" lon="2.98352">
        <ele>964.18</ele>
        <time>2013-10-18T15:24:04Z</time>
      </trkpt>
      <trkpt lat="45.79902" lon="2.98362">
        <ele>961</ele>
        <time>2013-10-18T15:24:15Z</time>
      </trkpt>
      <trkpt lat="45.79925" lon="2.9836">
        <ele>957.49</ele>
        <time>2013-10-18T15:24:19Z</time>
      </trkpt>
      <trkpt lat="45.79946" lon="2.98359">
        <ele>956.13</ele>
        <time>2013-10-18T15:24:23Z</time>
      </trkpt>
      <trkpt lat="45.79971" lon="2.98358">
        <ele>957.45</ele>
        <time>2013-10-18T15:24:27Z</time>
      </trkpt>
      <trkpt lat="45.7999" lon="2.9836">
        <ele>958.04</ele>
        <time>2013-10-18T15:24:30Z</time>
      </trkpt>
      <trkpt lat="45.8001" lon="2.98365">
        <ele>957.91</ele>
        <time>2013-10-18T15:24:34Z</time>
      </trkpt>
      <trkpt lat="45.8003" lon="2.98372">
        <ele>956.75</ele>
        <time>2013-10-18T15:24:38Z</time>
      </trkpt>
      <trkpt lat="45.80051" lon="2.98379">
        <ele>955.89</ele>
        <time>2013-10-18T15:24:43Z</time>
      </trkpt>
      <trkpt lat="45.80071" lon="2.98385">
        <ele>956.74</ele>
        <time>2013-10-18T15:24:49Z</time>
      </trkpt>
      <trkpt lat="45.8009" lon="2.98386">
        <ele>959.13</ele>
        <time>2013-10-18T15:24:57Z</time>
      </trkpt>
      <trkpt lat="45.80109" lon="2.9839">
        <ele>959</ele>
        <time>2013-10-18T15:25:04Z</time>
      </trkpt>
      <trkpt lat="45.80128" lon="2.98389">
        <ele>958.31</ele>
        <time>2013-10-18T15:25:11Z</time>
      </trkpt>
      <trkpt lat="45.80146" lon="2.98386">
        <ele>958</ele>
        <time>2013-10-18T15:25:20Z</time>
      </trkpt>
      <trkpt lat="45.80165" lon="2.98382">
        <ele>960.18</ele>
        <time>2013-10-18T15:25:26Z</time>
      </trkpt>
      <trkpt lat="45.80182" lon="2.9839">
        <ele>963.03</ele>
        <time>2013-10-18T15:25:32Z</time>
      </trkpt>
      <trkpt lat="45.80198" lon="2.98408">
        <ele>965.96</ele>
        <time>2013-10-18T15:25:38Z</time>
      </trkpt>
      <trkpt lat="45.80212" lon="2.98427">
        <ele>965.05</ele>
        <time>2013-10-18T15:25:44Z</time>
      </trkpt>
      <trkpt lat="45.80224" lon="2.98446">
        <ele>964</ele>
        <time>2013-10-18T15:25:51Z</time>
      </trkpt>
      <trkpt lat="45.8024" lon="2.98463">
        <ele>969.42</ele>
        <time>2013-10-18T15:25:58Z</time>
      </trkpt>
      <trkpt lat="45.80258" lon="2.98476">
        <ele>971.55</ele>
        <time>2013-10-18T15:26:06Z</time>
      </trkpt>
      <trkpt lat="45.80277" lon="2.9848">
        <ele>969.13</ele>
        <time>2013-10-18T15:26:15Z</time>
      </trkpt>
      <trkpt lat="45.80293" lon="2.98468">
        <ele>967.81</ele>
        <time>2013-10-18T15:26:21Z</time>
      </trkpt>
      <trkpt lat="45.80313" lon="2.98466">
        <ele>968.13</ele>
        <time>2013-10-18T15:26:27Z</time>
      </trkpt>
      <trkpt lat="45.80333" lon="2.9846">
        <ele>966.6</ele>
        <time>2013-10-18T15:26:34Z</time>
      </trkpt>
      <trkpt lat="45.80349" lon="2.98444">
        <ele>964.63</ele>
        <time>2013-10-18T15:26:40Z</time>
      </trkpt>
      <trkpt lat="45.80361" lon="2.98426">
        <ele>961.94</ele>
        <time>2013-10-18T15:26:46Z</time>
      </trkpt>
      <trkpt lat="45.80371" lon="2.98403">
        <ele>961.41</ele>
        <time>2013-10-18T15:26:54Z</time>
      </trkpt>
      <trkpt lat="45.80361" lon="2.98381">
        <ele>968.34</ele>
        <time>2013-10-18T15:27:07Z</time>
      </trkpt>
      <trkpt lat="45.80354" lon="2.98356">
        <ele>969.77</ele>
        <time>2013-10-18T15:27:20Z</time>
      </trkpt>
      <trkpt lat="45.80349" lon="2.98331">
        <ele>971.04</ele>
        <time>2013-10-18T15:27:32Z</time>
      </trkpt>
      <trkpt lat="45.80349" lon="2.98303">
        <ele>971.63</ele>
        <time>2013-10-18T15:27:42Z</time>
      </trkpt>
      <trkpt lat="45.80359" lon="2.98279">
        <ele>968.99</ele>
        <time>2013-10-18T15:27:48Z</time>
      </trkpt>
      <trkpt lat="45.80368" lon="2.98256">
        <ele>968.59</ele>
        <time>2013-10-18T15:27:54Z</time>
      </trkpt>
      <trkpt lat="45.80371" lon="2.98228">
        <ele>969.35</ele>
        <time>2013-10-18T15:28:00Z</time>
      </trkpt>
      <trkpt lat="45.8037" lon="2.98201">
        <ele>971.27</ele>
        <time>2013-10-18T15:28:08Z</time>
      </trkpt>
      <trkpt lat="45.80372" lon="2.98175">
        <ele>972.13</ele>
        <time>2013-10-18T15:28:17Z</time>
      </trkpt>
      <trkpt lat="45.80384" lon="2.98155">
        <ele>974.43</ele>
        <time>2013-10-18T15:28:26Z</time>
      </trkpt>
      <trkpt lat="45.80392" lon="2.98132">
        <ele>976.58</ele>
        <time>2013-10-18T15:28:38Z</time>
      </trkpt>
      <trkpt lat="45.80392" lon="2.98104">
        <ele>979.55</ele>
        <time>2013-10-18T15:28:52Z</time>
      </trkpt>
      <trkpt lat="45.804" lon="2.98081">
        <ele>980.59</ele>
        <time>2013-10-18T15:29:03Z</time>
      </trkpt>
      <trkpt lat="45.80411" lon="2.9806">
        <ele>984.06</ele>
        <time>2013-10-18T15:29:18Z</time>
      </trkpt>
      <trkpt lat="45.80422" lon="2.98038">
        <ele>987.06</ele>
        <time>2013-10-18T15:29:30Z</time>
      </trkpt>
      <trkpt lat="45.80435" lon="2.9802">
        <ele>989.16</ele>
        <time>2013-10-18T15:29:42Z</time>
      </trkpt>
      <trkpt lat="45.80443" lon="2.97997">
        <ele>993.74</ele>
        <time>2013-10-18T15:29:58Z</time>
      </trkpt>
      <trkpt lat="45.80445" lon="2.9797">
        <ele>996.97</ele>
        <time>2013-10-18T15:30:13Z</time>
      </trkpt>
      <trkpt lat="45.80448" lon="2.97943">
        <ele>996.89</ele>
        <time>2013-10-18T15:30:24Z</time>
      </trkpt>
      <trkpt lat="45.80449" lon="2.97916">
        <ele>998.51</ele>
        <time>2013-10-18T15:30:34Z</time>
      </trkpt>
      <trkpt lat="45.80451" lon="2.97889">
        <ele>1000.73</ele>
        <time>2013-10-18T15:30:45Z</time>
      </trkpt>
      <trkpt lat="45.80452" lon="2.9786">
        <ele>1002.58</ele>
        <time>2013-10-18T15:30:54Z</time>
      </trkpt>
      <trkpt lat="45.80452" lon="2.97834">
        <ele>1002.29</ele>
        <time>2013-10-18T15:31:03Z</time>
      </trkpt>
      <trkpt lat="45.80451" lon="2.97808">
        <ele>1001.77</ele>
        <time>2013-10-18T15:31:13Z</time>
      </trkpt>
      <trkpt lat="45.8045" lon="2.97782">
        <ele>1001.46</ele>
        <time>2013-10-18T15:31:22Z</time>
      </trkpt>
      <trkpt lat="45.80455" lon="2.97755">
        <ele>1000.6</ele>
        <time>2013-10-18T15:31:30Z</time>
      </trkpt>
      <trkpt lat="45.80461" lon="2.97728">
        <ele>1002.77</ele>
        <time>2013-10-18T15:31:38Z</time>
      </trkpt>
      <trkpt lat="45.80457" lon="2.97701">
        <ele>1003.41</ele>
        <time>2013-10-18T15:31:47Z</time>
      </trkpt>
      <trkpt lat="45.80456" lon="2.97673">
        <ele>1001.82</ele>
        <time>2013-10-18T15:31:56Z</time>
      </trkpt>
      <trkpt lat="45.80455" lon="2.97645">
        <ele>1001.37</ele>
        <time>2013-10-18T15:32:01Z</time>
      </trkpt>
      <trkpt lat="45.80455" lon="2.97619">
        <ele>1000.21</ele>
        <time>2013-10-18T15:32:04Z</time>
      </trkpt>
      <trkpt lat="45.80452" lon="2.97579">
        <ele>1000.84</ele>
        <time>2013-10-18T15:32:06Z</time>
      </trkpt>
      <trkpt lat="45.80449" lon="2.97553">
        <ele>1006.19</ele>
        <time>2013-10-18T15:32:16Z</time>
      </trkpt>
      <trkpt lat="45.80431" lon="2.97547">
        <ele>1006.34</ele>
        <time>2013-10-18T15:32:30Z</time>
      </trkpt>
      <trkpt lat="45.80416" lon="2.97532">
        <ele>1005.4</ele>
        <time>2013-10-18T15:32:40Z</time>
      </trkpt>
      <trkpt lat="45.80402" lon="2.97515">
        <ele>1006.83</ele>
        <time>2013-10-18T15:32:48Z</time>
      </trkpt>
      <trkpt lat="45.80383" lon="2.9751">
        <ele>1009.33</ele>
        <time>2013-10-18T15:32:59Z</time>
      </trkpt>
      <trkpt lat="45.80366" lon="2.975">
        <ele>1012.61</ele>
        <time>2013-10-18T15:33:06Z</time>
      </trkpt>
      <trkpt lat="45.80347" lon="2.97499">
        <ele>1014.03</ele>
        <time>2013-10-18T15:33:13Z</time>
      </trkpt>
      <trkpt lat="45.80327" lon="2.97501">
        <ele>1013.35</ele>
        <time>2013-10-18T15:33:23Z</time>
      </trkpt>
      <trkpt lat="45.80309" lon="2.97489">
        <ele>1013.16</ele>
        <time>2013-10-18T15:33:32Z</time>
      </trkpt>
      <trkpt lat="45.80293" lon="2.97471">
        <ele>1012.17</ele>
        <time>2013-10-18T15:33:39Z</time>
      </trkpt>
      <trkpt lat="45.80275" lon="2.97471">
        <ele>1012.01</ele>
        <time>2013-10-18T15:33:49Z</time>
      </trkpt>
      <trkpt lat="45.80256" lon="2.97465">
        <ele>1016.44</ele>
        <time>2013-10-18T15:33:59Z</time>
      </trkpt>
      <trkpt lat="45.80238" lon="2.97459">
        <ele>1017.6</ele>
        <time>2013-10-18T15:34:08Z</time>
      </trkpt>
      <trkpt lat="45.80219" lon="2.97459">
        <ele>1017.88</ele>
        <time>2013-10-18T15:34:18Z</time>
      </trkpt>
      <trkpt lat="45.802" lon="2.97459">
        <ele>1021.34</ele>
        <time>2013-10-18T15:34:25Z</time>
      </trkpt>
      <trkpt lat="45.80181" lon="2.97465">
        <ele>1024.82</ele>
        <time>2013-10-18T15:34:35Z</time>
      </trkpt>
      <trkpt lat="45.80161" lon="2.97466">
        <ele>1027.77</ele>
        <time>2013-10-18T15:34:45Z</time>
      </trkpt>
      <trkpt lat="45.80143" lon="2.97461">
        <ele>1028.83</ele>
        <time>2013-10-18T15:34:56Z</time>
      </trkpt>
      <trkpt lat="45.80125" lon="2.97455">
        <ele>1031.08</ele>
        <time>2013-10-18T15:35:10Z</time>
      </trkpt>
      <trkpt lat="45.80112" lon="2.97436">
        <ele>1033.43</ele>
        <time>2013-10-18T15:35:24Z</time>
      </trkpt>
      <trkpt lat="45.80094" lon="2.9743">
        <ele>1039.48</ele>
        <time>2013-10-18T15:35:43Z</time>
      </trkpt>
      <trkpt lat="45.80077" lon="2.97442">
        <ele>1048.84</ele>
        <time>2013-10-18T15:35:57Z</time>
      </trkpt>
      <trkpt lat="45.80059" lon="2.9745">
        <ele>1049.25</ele>
        <time>2013-10-18T15:36:35Z</time>
      </trkpt>
      <trkpt lat="45.80046" lon="2.97471">
        <ele>1050.97</ele>
        <time>2013-10-18T15:36:46Z</time>
      </trkpt>
      <trkpt lat="45.80044" lon="2.97498">
        <ele>1052.13</ele>
        <time>2013-10-18T15:37:01Z</time>
      </trkpt>
      <trkpt lat="45.8004" lon="2.97526">
        <ele>1049.59</ele>
        <time>2013-10-18T15:37:09Z</time>
      </trkpt>
      <trkpt lat="45.80044" lon="2.97552">
        <ele>1048.67</ele>
        <time>2013-10-18T15:37:20Z</time>
      </trkpt>
      <trkpt lat="45.80041" lon="2.9758">
        <ele>1049.56</ele>
        <time>2013-10-18T15:37:29Z</time>
      </trkpt>
      <trkpt lat="45.80034" lon="2.97606">
        <ele>1053.63</ele>
        <time>2013-10-18T15:37:36Z</time>
      </trkpt>
      <trkpt lat="45.80024" lon="2.97628">
        <ele>1056.51</ele>
        <time>2013-10-18T15:37:45Z</time>
      </trkpt>
      <trkpt lat="45.80014" lon="2.97651">
        <ele>1056.11</ele>
        <time>2013-10-18T15:37:55Z</time>
      </trkpt>
      <trkpt lat="45.80002" lon="2.97671">
        <ele>1054.36</ele>
        <time>2013-10-18T15:38:04Z</time>
      </trkpt>
      <trkpt lat="45.79995" lon="2.97696">
        <ele>1052.65</ele>
        <time>2013-10-18T15:38:14Z</time>
      </trkpt>
      <trkpt lat="45.79992" lon="2.97723">
        <ele>1051.69</ele>
        <time>2013-10-18T15:38:26Z</time>
      </trkpt>
      <trkpt lat="45.79983" lon="2.97749">
        <ele>1050.5</ele>
        <time>2013-10-18T15:38:35Z</time>
      </trkpt>
      <trkpt lat="45.79972" lon="2.97771">
        <ele>1049.05</ele>
        <time>2013-10-18T15:38:42Z</time>
      </trkpt>
      <trkpt lat="45.7996" lon="2.97791">
        <ele>1048.3</ele>
        <time>2013-10-18T15:38:47Z</time>
      </trkpt>
      <trkpt lat="45.79942" lon="2.978">
        <ele>1049.43</ele>
        <time>2013-10-18T15:38:53Z</time>
      </trkpt>
      <trkpt lat="45.79924" lon="2.97802">
        <ele>1051.78</ele>
        <time>2013-10-18T15:39:00Z</time>
      </trkpt>
      <trkpt lat="45.79907" lon="2.97814">
        <ele>1052.56</ele>
        <time>2013-10-18T15:39:06Z</time>
      </trkpt>
      <trkpt lat="45.79888" lon="2.97826">
        <ele>1055.26</ele>
        <time>2013-10-18T15:39:14Z</time>
      </trkpt>
      <trkpt lat="45.79869" lon="2.97818">
        <ele>1056.33</ele>
        <time>2013-10-18T15:39:27Z</time>
      </trkpt>
      <trkpt lat="45.79856" lon="2.97798">
        <ele>1059.65</ele>
        <time>2013-10-18T15:39:36Z</time>
      </trkpt>
      <trkpt lat="45.79843" lon="2.97777">
        <ele>1060.42</ele>
        <time>2013-10-18T15:39:45Z</time>
      </trkpt>
      <trkpt lat="45.7983" lon="2.97757">
        <ele>1058.85</ele>
        <time>2013-10-18T15:39:57Z</time>
      </trkpt>
      <trkpt lat="45.79819" lon="2.97735">
        <ele>1065.04</ele>
        <time>2013-10-18T15:40:09Z</time>
      </trkpt>
      <trkpt lat="45.7981" lon="2.97712">
        <ele>1067.79</ele>
        <time>2013-10-18T15:40:28Z</time>
      </trkpt>
      <trkpt lat="45.79824" lon="2.97695">
        <ele>1081.53</ele>
        <time>2013-10-18T15:41:10Z</time>
      </trkpt>
      <trkpt lat="45.79818" lon="2.97669">
        <ele>1083.78</ele>
        <time>2013-10-18T15:42:11Z</time>
      </trkpt>
      <trkpt lat="45.79818" lon="2.97643">
        <ele>1088.82</ele>
        <time>2013-10-18T15:42:39Z</time>
      </trkpt>
      <trkpt lat="45.79823" lon="2.97617">
        <ele>1089.14</ele>
        <time>2013-10-18T15:42:47Z</time>
      </trkpt>
      <trkpt lat="45.79834" lon="2.97596">
        <ele>1092.03</ele>
        <time>2013-10-18T15:43:00Z</time>
      </trkpt>
      <trkpt lat="45.79829" lon="2.97569">
        <ele>1095.72</ele>
        <time>2013-10-18T15:43:11Z</time>
      </trkpt>
      <trkpt lat="45.79836" lon="2.97541">
        <ele>1096.85</ele>
        <time>2013-10-18T15:43:21Z</time>
      </trkpt>
      <trkpt lat="45.79847" lon="2.9752">
        <ele>1096.05</ele>
        <time>2013-10-18T15:43:33Z</time>
      </trkpt>
      <trkpt lat="45.79846" lon="2.97492">
        <ele>1097.96</ele>
        <time>2013-10-18T15:43:46Z</time>
      </trkpt>
      <trkpt lat="45.79847" lon="2.97464">
        <ele>1100.47</ele>
        <time>2013-10-18T15:44:01Z</time>
      </trkpt>
      <trkpt lat="45.79853" lon="2.97439">
        <ele>1103.06</ele>
        <time>2013-10-18T15:44:14Z</time>
      </trkpt>
      <trkpt lat="45.79854" lon="2.97413">
        <ele>1105.93</ele>
        <time>2013-10-18T15:44:36Z</time>
      </trkpt>
      <trkpt lat="45.79857" lon="2.97387">
        <ele>1106.06</ele>
        <time>2013-10-18T15:44:56Z</time>
      </trkpt>
      <trkpt lat="45.79855" lon="2.97361">
        <ele>1107.84</ele>
        <time>2013-10-18T15:45:06Z</time>
      </trkpt>
      <trkpt lat="45.79856" lon="2.97334">
        <ele>1111.05</ele>
        <time>2013-10-18T15:45:19Z</time>
      </trkpt>
      <trkpt lat="45.79854" lon="2.97308">
        <ele>1115.31</ele>
        <time>2013-10-18T15:45:32Z</time>
      </trkpt>
      <trkpt lat="45.79856" lon="2.97282">
        <ele>1133.55</ele>
        <time>2013-10-18T15:47:16Z</time>
      </trkpt>
      <trkpt lat="45.79854" lon="2.97255">
        <ele>1135.29</ele>
        <time>2013-10-18T15:48:04Z</time>
      </trkpt>
      <trkpt lat="45.79851" lon="2.97229">
        <ele>1141.08</ele>
        <time>2013-10-18T15:48:19Z</time>
      </trkpt>
      <trkpt lat="45.79841" lon="2.97208">
        <ele>1140.49</ele>
        <time>2013-10-18T15:48:36Z</time>
      </trkpt>
      <trkpt lat="45.79834" lon="2.97183">
        <ele>1139.56</ele>
        <time>2013-10-18T15:48:44Z</time>
      </trkpt>
      <trkpt lat="45.79824" lon="2.9716">
        <ele>1140.62</ele>
        <time>2013-10-18T15:48:56Z</time>
      </trkpt>
      <trkpt lat="45.79815" lon="2.97136">
        <ele>1145.15</ele>
        <time>2013-10-18T15:49:06Z</time>
      </trkpt>
      <trkpt lat="45.79805" lon="2.97111">
        <ele>1144.84</ele>
        <time>2013-10-18T15:49:19Z</time>
      </trkpt>
      <trkpt lat="45.79801" lon="2.97085">
        <ele>1150.43</ele>
        <time>2013-10-18T15:49:49Z</time>
      </trkpt>
      <trkpt lat="45.79803" lon="2.97112">
        <ele>1151.73</ele>
        <time>2013-10-18T15:51:02Z</time>
      </trkpt>
      <trkpt lat="45.79719" lon="2.97383">
        <ele>1161.01</ele>
        <time>2013-10-18T15:53:20Z</time>
      </trkpt>
      <trkpt lat="45.79701" lon="2.97389">
        <ele>1168.8</ele>
        <time>2013-10-18T15:53:30Z</time>
      </trkpt>
      <trkpt lat="45.79681" lon="2.97388">
        <ele>1172.09</ele>
        <time>2013-10-18T15:53:44Z</time>
      </trkpt>
      <trkpt lat="45.79663" lon="2.97388">
        <ele>1166.77</ele>
        <time>2013-10-18T15:53:55Z</time>
      </trkpt>
      <trkpt lat="45.79646" lon="2.97379">
        <ele>1177.46</ele>
        <time>2013-10-18T15:55:15Z</time>
      </trkpt>
      <trkpt lat="45.79681" lon="2.97388">
        <ele>1172.09</ele>
        <time>2013-10-18T15:53:44Z</time>
      </trkpt>
      <trkpt lat="45.79663" lon="2.97388">
        <ele>1166.77</ele>
        <time>2013-10-18T15:53:55Z</time>
      </trkpt>
      <trkpt lat="45.79646" lon="2.97379">
        <ele>1177.46</ele>
        <time>2013-10-18T15:55:15Z</time>
      </trkpt>
      <trkpt lat="45.79663" lon="2.97387">
        <ele>1181.34</ele>
        <time>2013-10-18T15:59:36Z</time>
      </trkpt>
      <trkpt lat="45.79685" lon="2.97386">
        <ele>1180.44</ele>
        <time>2013-10-18T15:59:47Z</time>
      </trkpt>
      <trkpt lat="45.79704" lon="2.97384">
        <ele>1179.55</ele>
        <time>2013-10-18T15:59:50Z</time>
      </trkpt>
      <trkpt lat="45.79722" lon="2.97374">
        <ele>1178.33</ele>
        <time>2013-10-18T15:59:53Z</time>
      </trkpt>
      <trkpt lat="45.79739" lon="2.97364">
        <ele>1177.56</ele>
        <time>2013-10-18T15:59:56Z</time>
      </trkpt>
      <trkpt lat="45.79758" lon="2.9735">
        <ele>1175.75</ele>
        <time>2013-10-18T15:59:59Z</time>
      </trkpt>
      <trkpt lat="45.79775" lon="2.97332">
        <ele>1174.17</ele>
        <time>2013-10-18T16:00:02Z</time>
      </trkpt>
      <trkpt lat="45.79788" lon="2.97305">
        <ele>1172.05</ele>
        <time>2013-10-18T16:00:05Z</time>
      </trkpt>
      <trkpt lat="45.79801" lon="2.97283">
        <ele>1170.13</ele>
        <time>2013-10-18T16:00:08Z</time>
      </trkpt>
      <trkpt lat="45.7981" lon="2.97256">
        <ele>1168.04</ele>
        <time>2013-10-18T16:00:11Z</time>
      </trkpt>
      <trkpt lat="45.79816" lon="2.97224">
        <ele>1165.93</ele>
        <time>2013-10-18T16:00:15Z</time>
      </trkpt>
      <trkpt lat="45.79818" lon="2.97196">
        <ele>1164.27</ele>
        <time>2013-10-18T16:00:18Z</time>
      </trkpt>
      <trkpt lat="45.79814" lon="2.97166">
        <ele>1162.44</ele>
        <time>2013-10-18T16:00:21Z</time>
      </trkpt>
      <trkpt lat="45.79809" lon="2.97137">
        <ele>1160.29</ele>
        <time>2013-10-18T16:00:24Z</time>
      </trkpt>
      <trkpt lat="45.79827" lon="2.9714">
        <ele>1157.87</ele>
        <time>2013-10-18T16:00:38Z</time>
      </trkpt>
      <trkpt lat="45.79838" lon="2.97163">
        <ele>1155.52</ele>
        <time>2013-10-18T16:00:43Z</time>
      </trkpt>
      <trkpt lat="45.79847" lon="2.97188">
        <ele>1152.72</ele>
        <time>2013-10-18T16:00:48Z</time>
      </trkpt>
      <trkpt lat="45.79852" lon="2.97213">
        <ele>1149.42</ele>
        <time>2013-10-18T16:01:00Z</time>
      </trkpt>
      <trkpt lat="45.79857" lon="2.97241">
        <ele>1145.81</ele>
        <time>2013-10-18T16:01:08Z</time>
      </trkpt>
      <trkpt lat="45.79861" lon="2.97267">
        <ele>1144.07</ele>
        <time>2013-10-18T16:01:22Z</time>
      </trkpt>
      <trkpt lat="45.79866" lon="2.97292">
        <ele>1141.06</ele>
        <time>2013-10-18T16:01:30Z</time>
      </trkpt>
      <trkpt lat="45.79869" lon="2.97318">
        <ele>1139.16</ele>
        <time>2013-10-18T16:01:36Z</time>
      </trkpt>
      <trkpt lat="45.79867" lon="2.97344">
        <ele>1136.14</ele>
        <time>2013-10-18T16:01:42Z</time>
      </trkpt>
      <trkpt lat="45.79865" lon="2.9737">
        <ele>1131.71</ele>
        <time>2013-10-18T16:01:48Z</time>
      </trkpt>
      <trkpt lat="45.79863" lon="2.97399">
        <ele>1129.74</ele>
        <time>2013-10-18T16:01:57Z</time>
      </trkpt>
      <trkpt lat="45.79862" lon="2.97428">
        <ele>1127.35</ele>
        <time>2013-10-18T16:02:04Z</time>
      </trkpt>
      <trkpt lat="45.79858" lon="2.97458">
        <ele>1120.03</ele>
        <time>2013-10-18T16:02:10Z</time>
      </trkpt>
      <trkpt lat="45.79854" lon="2.97485">
        <ele>1112.48</ele>
        <time>2013-10-18T16:02:15Z</time>
      </trkpt>
      <trkpt lat="45.79848" lon="2.97511">
        <ele>1105.64</ele>
        <time>2013-10-18T16:02:20Z</time>
      </trkpt>
      <trkpt lat="45.79844" lon="2.97536">
        <ele>1101.23</ele>
        <time>2013-10-18T16:02:25Z</time>
      </trkpt>
      <trkpt lat="45.79839" lon="2.97574">
        <ele>1097.67</ele>
        <time>2013-10-18T16:02:27Z</time>
      </trkpt>
      <trkpt lat="45.79839" lon="2.97604">
        <ele>1092.1</ele>
        <time>2013-10-18T16:02:34Z</time>
      </trkpt>
      <trkpt lat="45.79838" lon="2.97631">
        <ele>1087.97</ele>
        <time>2013-10-18T16:02:39Z</time>
      </trkpt>
      <trkpt lat="45.79826" lon="2.97654">
        <ele>1086.35</ele>
        <time>2013-10-18T16:02:46Z</time>
      </trkpt>
      <trkpt lat="45.79814" lon="2.97673">
        <ele>1083.17</ele>
        <time>2013-10-18T16:02:54Z</time>
      </trkpt>
      <trkpt lat="45.79814" lon="2.97701">
        <ele>1081.55</ele>
        <time>2013-10-18T16:03:05Z</time>
      </trkpt>
      <trkpt lat="45.79821" lon="2.97727">
        <ele>1077.3</ele>
        <time>2013-10-18T16:03:16Z</time>
      </trkpt>
      <trkpt lat="45.7983" lon="2.97752">
        <ele>1075.73</ele>
        <time>2013-10-18T16:03:25Z</time>
      </trkpt>
      <trkpt lat="45.79843" lon="2.97771">
        <ele>1074.62</ele>
        <time>2013-10-18T16:03:32Z</time>
      </trkpt>
      <trkpt lat="45.79852" lon="2.97795">
        <ele>1069.18</ele>
        <time>2013-10-18T16:03:40Z</time>
      </trkpt>
      <trkpt lat="45.79837" lon="2.97811">
        <ele>1064.57</ele>
        <time>2013-10-18T16:05:04Z</time>
      </trkpt>
      <trkpt lat="45.79817" lon="2.97818">
        <ele>1061.89</ele>
        <time>2013-10-18T16:05:18Z</time>
      </trkpt>
      <trkpt lat="45.79822" lon="2.9785">
        <ele>1059.4</ele>
        <time>2013-10-18T16:05:23Z</time>
      </trkpt>
      <trkpt lat="45.79829" lon="2.97876">
        <ele>1053.78</ele>
        <time>2013-10-18T16:05:30Z</time>
      </trkpt>
      <trkpt lat="45.79829" lon="2.97906">
        <ele>1049.45</ele>
        <time>2013-10-18T16:05:41Z</time>
      </trkpt>
      <trkpt lat="45.79823" lon="2.97933">
        <ele>1047.04</ele>
        <time>2013-10-18T16:05:46Z</time>
      </trkpt>
      <trkpt lat="45.79816" lon="2.97959">
        <ele>1044.54</ele>
        <time>2013-10-18T16:05:51Z</time>
      </trkpt>
      <trkpt lat="45.79819" lon="2.97985">
        <ele>1040.2</ele>
        <time>2013-10-18T16:05:57Z</time>
      </trkpt>
      <trkpt lat="45.79825" lon="2.98012">
        <ele>1036.42</ele>
        <time>2013-10-18T16:06:07Z</time>
      </trkpt>
      <trkpt lat="45.79835" lon="2.98034">
        <ele>1030.49</ele>
        <time>2013-10-18T16:06:17Z</time>
      </trkpt>
      <trkpt lat="45.79845" lon="2.98055">
        <ele>1025.02</ele>
        <time>2013-10-18T16:06:25Z</time>
      </trkpt>
      <trkpt lat="45.79848" lon="2.98081">
        <ele>1016.9</ele>
        <time>2013-10-18T16:06:32Z</time>
      </trkpt>
      <trkpt lat="45.79857" lon="2.98105">
        <ele>1010.69</ele>
        <time>2013-10-18T16:06:43Z</time>
      </trkpt>
      <trkpt lat="45.79874" lon="2.98115">
        <ele>1007.38</ele>
        <time>2013-10-18T16:07:26Z</time>
      </trkpt>
      <trkpt lat="45.79881" lon="2.98139">
        <ele>999.84</ele>
        <time>2013-10-18T16:07:35Z</time>
      </trkpt>
      <trkpt lat="45.79889" lon="2.98167">
        <ele>990.64</ele>
        <time>2013-10-18T16:07:41Z</time>
      </trkpt>
      <trkpt lat="45.79894" lon="2.98192">
        <ele>984.37</ele>
        <time>2013-10-18T16:07:47Z</time>
      </trkpt>
      <trkpt lat="45.79897" lon="2.98221">
        <ele>978.98</ele>
        <time>2013-10-18T16:07:54Z</time>
      </trkpt>
      <trkpt lat="45.79902" lon="2.9825">
        <ele>975.46</ele>
        <time>2013-10-18T16:08:00Z</time>
      </trkpt>
      <trkpt lat="45.79908" lon="2.98274">
        <ele>972.3</ele>
        <time>2013-10-18T16:08:04Z</time>
      </trkpt>
      <trkpt lat="45.7991" lon="2.983">
        <ele>971.24</ele>
        <time>2013-10-18T16:08:14Z</time>
      </trkpt>
      <trkpt lat="45.79909" lon="2.98326">
        <ele>966.88</ele>
        <time>2013-10-18T16:08:39Z</time>
      </trkpt>
      <trkpt lat="45.79904" lon="2.98351">
        <ele>958.79</ele>
        <time>2013-10-18T16:10:13Z</time>
      </trkpt>
      <trkpt lat="45.79883" lon="2.98348">
        <ele>955.11</ele>
        <time>2013-10-18T16:10:22Z</time>
      </trkpt>
      <trkpt lat="45.79864" lon="2.98341">
        <ele>953</ele>
        <time>2013-10-18T16:10:27Z</time>
      </trkpt>
      <trkpt lat="45.79846" lon="2.98331">
        <ele>951.52</ele>
        <time>2013-10-18T16:10:32Z</time>
      </trkpt>
      <trkpt lat="45.79824" lon="2.98325">
        <ele>950.93</ele>
        <time>2013-10-18T16:10:37Z</time>
      </trkpt>
      <trkpt lat="45.79805" lon="2.98314">
        <ele>951.01</ele>
        <time>2013-10-18T16:10:42Z</time>
      </trkpt>
      <trkpt lat="45.79786" lon="2.98303">
        <ele>955.69</ele>
        <time>2013-10-18T16:10:49Z</time>
      </trkpt>
      <trkpt lat="45.79768" lon="2.98295">
        <ele>956.37</ele>
        <time>2013-10-18T16:10:55Z</time>
      </trkpt>
      <trkpt lat="45.79748" lon="2.98293">
        <ele>953.13</ele>
        <time>2013-10-18T16:11:02Z</time>
      </trkpt>
      <trkpt lat="45.79729" lon="2.98288">
        <ele>952.34</ele>
        <time>2013-10-18T16:11:08Z</time>
      </trkpt>
      <trkpt lat="45.79709" lon="2.98288">
        <ele>952.23</ele>
        <time>2013-10-18T16:11:15Z</time>
      </trkpt>
      <trkpt lat="45.79684" lon="2.9828">
        <ele>950.48</ele>
        <time>2013-10-18T16:11:19Z</time>
      </trkpt>
      <trkpt lat="45.79667" lon="2.98275">
        <ele>950.3</ele>
        <time>2013-10-18T16:11:22Z</time>
      </trkpt>
      <trkpt lat="45.79647" lon="2.98275">
        <ele>951.07</ele>
        <time>2013-10-18T16:11:28Z</time>
      </trkpt>
      <trkpt lat="45.7963" lon="2.98264">
        <ele>953.99</ele>
        <time>2013-10-18T16:11:33Z</time>
      </trkpt>
      <trkpt lat="45.79612" lon="2.98247">
        <ele>954.78</ele>
        <time>2013-10-18T16:11:38Z</time>
      </trkpt>
      <trkpt lat="45.79594" lon="2.98231">
        <ele>955.05</ele>
        <time>2013-10-18T16:11:44Z</time>
      </trkpt>
      <trkpt lat="45.79579" lon="2.98214">
        <ele>955.88</ele>
        <time>2013-10-18T16:11:49Z</time>
      </trkpt>
      <trkpt lat="45.79563" lon="2.98197">
        <ele>958.12</ele>
        <time>2013-10-18T16:11:54Z</time>
      </trkpt>
      <trkpt lat="45.79547" lon="2.98184">
        <ele>959.27</ele>
        <time>2013-10-18T16:11:58Z</time>
      </trkpt>
      <trkpt lat="45.79531" lon="2.98166">
        <ele>958.45</ele>
        <time>2013-10-18T16:12:03Z</time>
      </trkpt>
      <trkpt lat="45.79516" lon="2.98151">
        <ele>958.55</ele>
        <time>2013-10-18T16:12:09Z</time>
      </trkpt>
      <trkpt lat="45.79503" lon="2.98133">
        <ele>958.45</ele>
        <time>2013-10-18T16:12:14Z</time>
      </trkpt>
      <trkpt lat="45.79489" lon="2.98115">
        <ele>959.32</ele>
        <time>2013-10-18T16:12:19Z</time>
      </trkpt>
      <trkpt lat="45.79475" lon="2.98097">
        <ele>959.42</ele>
        <time>2013-10-18T16:12:24Z</time>
      </trkpt>
      <trkpt lat="45.79461" lon="2.98078">
        <ele>959.75</ele>
        <time>2013-10-18T16:12:29Z</time>
      </trkpt>
      <trkpt lat="45.79451" lon="2.98057">
        <ele>959.1</ele>
        <time>2013-10-18T16:12:38Z</time>
      </trkpt>
      <trkpt lat="45.79438" lon="2.98037">
        <ele>958.29</ele>
        <time>2013-10-18T16:12:47Z</time>
      </trkpt>
      <trkpt lat="45.79423" lon="2.98016">
        <ele>958.69</ele>
        <time>2013-10-18T16:12:54Z</time>
      </trkpt>
      <trkpt lat="45.79411" lon="2.97993">
        <ele>959.34</ele>
        <time>2013-10-18T16:12:59Z</time>
      </trkpt>
      <trkpt lat="45.79401" lon="2.97969">
        <ele>961</ele>
        <time>2013-10-18T16:13:03Z</time>
      </trkpt>
      <trkpt lat="45.79388" lon="2.97946">
        <ele>960.71</ele>
        <time>2013-10-18T16:13:08Z</time>
      </trkpt>
      <trkpt lat="45.79376" lon="2.97923">
        <ele>959.64</ele>
        <time>2013-10-18T16:13:13Z</time>
      </trkpt>
      <trkpt lat="45.79367" lon="2.97899">
        <ele>962.24</ele>
        <time>2013-10-18T16:13:17Z</time>
      </trkpt>
      <trkpt lat="45.79356" lon="2.97876">
        <ele>964.9</ele>
        <time>2013-10-18T16:13:23Z</time>
      </trkpt>
      <trkpt lat="45.79342" lon="2.97857">
        <ele>965.33</ele>
        <time>2013-10-18T16:13:32Z</time>
      </trkpt>
      <trkpt lat="45.79325" lon="2.9784">
        <ele>965.15</ele>
        <time>2013-10-18T16:13:38Z</time>
      </trkpt>
      <trkpt lat="45.79307" lon="2.97827">
        <ele>966.83</ele>
        <time>2013-10-18T16:13:42Z</time>
      </trkpt>
      <trkpt lat="45.79279" lon="2.97796">
        <ele>968.1</ele>
        <time>2013-10-18T16:13:44Z</time>
      </trkpt>
      <trkpt lat="45.79267" lon="2.97776">
        <ele>970.2</ele>
        <time>2013-10-18T16:13:47Z</time>
      </trkpt>
      <trkpt lat="45.79254" lon="2.97751">
        <ele>973.24</ele>
        <time>2013-10-18T16:13:51Z</time>
      </trkpt>
      <trkpt lat="45.79239" lon="2.97732">
        <ele>974.38</ele>
        <time>2013-10-18T16:13:55Z</time>
      </trkpt>
      <trkpt lat="45.79221" lon="2.97733">
        <ele>975.41</ele>
        <time>2013-10-18T16:14:00Z</time>
      </trkpt>
      <trkpt lat="45.79206" lon="2.97754">
        <ele>978.56</ele>
        <time>2013-10-18T16:14:39Z</time>
      </trkpt>
      <trkpt lat="45.7919" lon="2.97777">
        <ele>974.89</ele>
        <time>2013-10-18T16:14:42Z</time>
      </trkpt>
      <trkpt lat="45.79175" lon="2.97802">
        <ele>972.13</ele>
        <time>2013-10-18T16:14:45Z</time>
      </trkpt>
      <trkpt lat="45.7916" lon="2.97829">
        <ele>969.72</ele>
        <time>2013-10-18T16:14:48Z</time>
      </trkpt>
      <trkpt lat="45.79146" lon="2.97856">
        <ele>967.7</ele>
        <time>2013-10-18T16:14:51Z</time>
      </trkpt>
      <trkpt lat="45.79132" lon="2.97883">
        <ele>965.72</ele>
        <time>2013-10-18T16:14:54Z</time>
      </trkpt>
      <trkpt lat="45.79124" lon="2.9791">
        <ele>964.31</ele>
        <time>2013-10-18T16:14:57Z</time>
      </trkpt>
      <trkpt lat="45.79119" lon="2.9794">
        <ele>962.77</ele>
        <time>2013-10-18T16:15:00Z</time>
      </trkpt>
      <trkpt lat="45.79106" lon="2.9796">
        <ele>961.32</ele>
        <time>2013-10-18T16:15:03Z</time>
      </trkpt>
      <trkpt lat="45.79091" lon="2.97981">
        <ele>959.33</ele>
        <time>2013-10-18T16:15:06Z</time>
      </trkpt>
      <trkpt lat="45.79076" lon="2.98006">
        <ele>956.9</ele>
        <time>2013-10-18T16:15:09Z</time>
      </trkpt>
      <trkpt lat="45.79057" lon="2.98037">
        <ele>955.5</ele>
        <time>2013-10-18T16:15:12Z</time>
      </trkpt>
      <trkpt lat="45.79044" lon="2.98059">
        <ele>954.47</ele>
        <time>2013-10-18T16:15:14Z</time>
      </trkpt>
      <trkpt lat="45.79029" lon="2.98081">
        <ele>953.08</ele>
        <time>2013-10-18T16:15:16Z</time>
      </trkpt>
      <trkpt lat="45.79017" lon="2.98103">
        <ele>951.81</ele>
        <time>2013-10-18T16:15:18Z</time>
      </trkpt>
      <trkpt lat="45.79005" lon="2.98126">
        <ele>950.62</ele>
        <time>2013-10-18T16:15:20Z</time>
      </trkpt>
      <trkpt lat="45.78995" lon="2.98149">
        <ele>949.73</ele>
        <time>2013-10-18T16:15:22Z</time>
      </trkpt>
      <trkpt lat="45.78984" lon="2.9817">
        <ele>948.61</ele>
        <time>2013-10-18T16:15:24Z</time>
      </trkpt>
      <trkpt lat="45.7897" lon="2.98187">
        <ele>947.25</ele>
        <time>2013-10-18T16:15:26Z</time>
      </trkpt>
      <trkpt lat="45.78955" lon="2.98217">
        <ele>945.45</ele>
        <time>2013-10-18T16:15:29Z</time>
      </trkpt>
      <trkpt lat="45.78946" lon="2.98251">
        <ele>943.49</ele>
        <time>2013-10-18T16:15:32Z</time>
      </trkpt>
      <trkpt lat="45.78934" lon="2.98281">
        <ele>942.51</ele>
        <time>2013-10-18T16:15:35Z</time>
      </trkpt>
      <trkpt lat="45.78921" lon="2.98308">
        <ele>940.95</ele>
        <time>2013-10-18T16:15:38Z</time>
      </trkpt>
      <trkpt lat="45.78909" lon="2.98337">
        <ele>938.99</ele>
        <time>2013-10-18T16:15:41Z</time>
      </trkpt>
      <trkpt lat="45.78897" lon="2.98363">
        <ele>937.79</ele>
        <time>2013-10-18T16:15:44Z</time>
      </trkpt>
      <trkpt lat="45.78884" lon="2.98388">
        <ele>936.86</ele>
        <time>2013-10-18T16:15:47Z</time>
      </trkpt>
      <trkpt lat="45.78872" lon="2.98411">
        <ele>936.15</ele>
        <time>2013-10-18T16:15:50Z</time>
      </trkpt>
      <trkpt lat="45.78858" lon="2.98429">
        <ele>935.9</ele>
        <time>2013-10-18T16:15:53Z</time>
      </trkpt>
      <trkpt lat="45.78839" lon="2.98429">
        <ele>935.66</ele>
        <time>2013-10-18T16:15:56Z</time>
      </trkpt>
      <trkpt lat="45.78819" lon="2.98425">
        <ele>935.14</ele>
        <time>2013-10-18T16:16:01Z</time>
      </trkpt>
      <trkpt lat="45.78798" lon="2.98433">
        <ele>931.33</ele>
        <time>2013-10-18T16:16:08Z</time>
      </trkpt>
      <trkpt lat="45.78779" lon="2.98427">
        <ele>932.32</ele>
        <time>2013-10-18T16:16:13Z</time>
      </trkpt>
      <trkpt lat="45.7876" lon="2.98416">
        <ele>933.84</ele>
        <time>2013-10-18T16:16:18Z</time>
      </trkpt>
      <trkpt lat="45.78742" lon="2.98415">
        <ele>935.14</ele>
        <time>2013-10-18T16:16:23Z</time>
      </trkpt>
      <trkpt lat="45.7872" lon="2.9841">
        <ele>937.45</ele>
        <time>2013-10-18T16:16:29Z</time>
      </trkpt>
      <trkpt lat="45.78698" lon="2.98416">
        <ele>938.3</ele>
        <time>2013-10-18T16:16:34Z</time>
      </trkpt>
      <trkpt lat="45.7868" lon="2.98419">
        <ele>937.92</ele>
        <time>2013-10-18T16:16:38Z</time>
      </trkpt>
      <trkpt lat="45.78657" lon="2.98421">
        <ele>937.39</ele>
        <time>2013-10-18T16:16:42Z</time>
      </trkpt>
      <trkpt lat="45.78636" lon="2.98423">
        <ele>936.85</ele>
        <time>2013-10-18T16:16:46Z</time>
      </trkpt>
      <trkpt lat="45.78615" lon="2.98431">
        <ele>936.5</ele>
        <time>2013-10-18T16:16:51Z</time>
      </trkpt>
      <trkpt lat="45.78595" lon="2.98427">
        <ele>936.29</ele>
        <time>2013-10-18T16:16:55Z</time>
      </trkpt>
      <trkpt lat="45.78575" lon="2.9843">
        <ele>936.12</ele>
        <time>2013-10-18T16:16:58Z</time>
      </trkpt>
      <trkpt lat="45.78555" lon="2.98442">
        <ele>936.08</ele>
        <time>2013-10-18T16:17:02Z</time>
      </trkpt>
      <trkpt lat="45.78534" lon="2.9845">
        <ele>936.01</ele>
        <time>2013-10-18T16:17:05Z</time>
      </trkpt>
      <trkpt lat="45.78516" lon="2.98455">
        <ele>935.99</ele>
        <time>2013-10-18T16:17:07Z</time>
      </trkpt>
      <trkpt lat="45.78495" lon="2.98467">
        <ele>936.61</ele>
        <time>2013-10-18T16:17:10Z</time>
      </trkpt>
      <trkpt lat="45.78475" lon="2.9848">
        <ele>936.48</ele>
        <time>2013-10-18T16:17:13Z</time>
      </trkpt>
      <trkpt lat="45.78456" lon="2.98491">
        <ele>934.6</ele>
        <time>2013-10-18T16:17:16Z</time>
      </trkpt>
      <trkpt lat="45.78438" lon="2.98503">
        <ele>933.12</ele>
        <time>2013-10-18T16:17:19Z</time>
      </trkpt>
      <trkpt lat="45.78421" lon="2.98514">
        <ele>932.54</ele>
        <time>2013-10-18T16:17:22Z</time>
      </trkpt>
      <trkpt lat="45.78404" lon="2.98521">
        <ele>932.33</ele>
        <time>2013-10-18T16:17:25Z</time>
      </trkpt>
      <trkpt lat="45.78383" lon="2.98523">
        <ele>932.12</ele>
        <time>2013-10-18T16:17:28Z</time>
      </trkpt>
      <trkpt lat="45.78359" lon="2.98526">
        <ele>931.66</ele>
        <time>2013-10-18T16:17:31Z</time>
      </trkpt>
      <trkpt lat="45.78335" lon="2.98529">
        <ele>931.38</ele>
        <time>2013-10-18T16:17:34Z</time>
      </trkpt>
      <trkpt lat="45.78312" lon="2.98533">
        <ele>930.93</ele>
        <time>2013-10-18T16:17:37Z</time>
      </trkpt>
      <trkpt lat="45.78289" lon="2.98535">
        <ele>930.65</ele>
        <time>2013-10-18T16:17:40Z</time>
      </trkpt>
      <trkpt lat="45.78268" lon="2.98537">
        <ele>929.99</ele>
        <time>2013-10-18T16:17:43Z</time>
      </trkpt>
      <trkpt lat="45.78247" lon="2.98543">
        <ele>930.19</ele>
        <time>2013-10-18T16:17:46Z</time>
      </trkpt>
      <trkpt lat="45.78228" lon="2.98558">
        <ele>929.59</ele>
        <time>2013-10-18T16:17:49Z</time>
      </trkpt>
      <trkpt lat="45.78209" lon="2.98566">
        <ele>929.76</ele>
        <time>2013-10-18T16:17:52Z</time>
      </trkpt>
      <trkpt lat="45.7819" lon="2.98576">
        <ele>929.83</ele>
        <time>2013-10-18T16:17:55Z</time>
      </trkpt>
      <trkpt lat="45.78172" lon="2.98581">
        <ele>929.59</ele>
        <time>2013-10-18T16:17:58Z</time>
      </trkpt>
      <trkpt lat="45.78151" lon="2.98583">
        <ele>929.45</ele>
        <time>2013-10-18T16:18:01Z</time>
      </trkpt>
      <trkpt lat="45.78131" lon="2.98581">
        <ele>928.8</ele>
        <time>2013-10-18T16:18:04Z</time>
      </trkpt>
      <trkpt lat="45.78113" lon="2.98587">
        <ele>927.78</ele>
        <time>2013-10-18T16:18:07Z</time>
      </trkpt>
      <trkpt lat="45.78091" lon="2.98595">
        <ele>926.93</ele>
        <time>2013-10-18T16:18:11Z</time>
      </trkpt>
      <trkpt lat="45.7807" lon="2.9859">
        <ele>926.55</ele>
        <time>2013-10-18T16:18:14Z</time>
      </trkpt>
      <trkpt lat="45.78049" lon="2.98582">
        <ele>926.14</ele>
        <time>2013-10-18T16:18:17Z</time>
      </trkpt>
      <trkpt lat="45.7803" lon="2.98574">
        <ele>926.01</ele>
        <time>2013-10-18T16:18:20Z</time>
      </trkpt>
      <trkpt lat="45.78011" lon="2.98567">
        <ele>925.87</ele>
        <time>2013-10-18T16:18:24Z</time>
      </trkpt>
      <trkpt lat="45.77992" lon="2.98556">
        <ele>925.59</ele>
        <time>2013-10-18T16:18:27Z</time>
      </trkpt>
      <trkpt lat="45.77974" lon="2.98549">
        <ele>925.19</ele>
        <time>2013-10-18T16:18:30Z</time>
      </trkpt>
      <trkpt lat="45.7795" lon="2.98549">
        <ele>924.89</ele>
        <time>2013-10-18T16:18:34Z</time>
      </trkpt>
      <trkpt lat="45.77929" lon="2.98551">
        <ele>924.41</ele>
        <time>2013-10-18T16:18:38Z</time>
      </trkpt>
      <trkpt lat="45.7791" lon="2.98549">
        <ele>923.69</ele>
        <time>2013-10-18T16:18:42Z</time>
      </trkpt>
      <trkpt lat="45.77894" lon="2.98536">
        <ele>923.33</ele>
        <time>2013-10-18T16:18:45Z</time>
      </trkpt>
      <trkpt lat="45.77875" lon="2.98525">
        <ele>923.1</ele>
        <time>2013-10-18T16:18:49Z</time>
      </trkpt>
      <trkpt lat="45.77858" lon="2.98514">
        <ele>921.66</ele>
        <time>2013-10-18T16:18:53Z</time>
      </trkpt>
      <trkpt lat="45.77837" lon="2.98502">
        <ele>919.76</ele>
        <time>2013-10-18T16:18:58Z</time>
      </trkpt>
      <trkpt lat="45.77819" lon="2.98488">
        <ele>918.9</ele>
        <time>2013-10-18T16:19:02Z</time>
      </trkpt>
      <trkpt lat="45.77799" lon="2.98479">
        <ele>918.18</ele>
        <time>2013-10-18T16:19:06Z</time>
      </trkpt>
      <trkpt lat="45.77782" lon="2.98467">
        <ele>917.41</ele>
        <time>2013-10-18T16:19:09Z</time>
      </trkpt>
      <trkpt lat="45.77759" lon="2.98456">
        <ele>916.33</ele>
        <time>2013-10-18T16:19:13Z</time>
      </trkpt>
      <trkpt lat="45.7774" lon="2.98448">
        <ele>915.43</ele>
        <time>2013-10-18T16:19:17Z</time>
      </trkpt>
      <trkpt lat="45.77718" lon="2.98436">
        <ele>914.89</ele>
        <time>2013-10-18T16:19:21Z</time>
      </trkpt>
      <trkpt lat="45.77698" lon="2.98426">
        <ele>914.21</ele>
        <time>2013-10-18T16:19:25Z</time>
      </trkpt>
      <trkpt lat="45.77681" lon="2.98416">
        <ele>914</ele>
        <time>2013-10-18T16:19:28Z</time>
      </trkpt>
      <trkpt lat="45.7766" lon="2.98404">
        <ele>913.47</ele>
        <time>2013-10-18T16:19:32Z</time>
      </trkpt>
      <trkpt lat="45.7764" lon="2.9839">
        <ele>913.06</ele>
        <time>2013-10-18T16:19:36Z</time>
      </trkpt>
      <trkpt lat="45.7762" lon="2.98375">
        <ele>913.52</ele>
        <time>2013-10-18T16:19:40Z</time>
      </trkpt>
      <trkpt lat="45.77603" lon="2.98361">
        <ele>914.29</ele>
        <time>2013-10-18T16:19:43Z</time>
      </trkpt>
      <trkpt lat="45.77586" lon="2.98342">
        <ele>915.34</ele>
        <time>2013-10-18T16:19:46Z</time>
      </trkpt>
      <trkpt lat="45.77568" lon="2.9833">
        <ele>915.87</ele>
        <time>2013-10-18T16:19:49Z</time>
      </trkpt>
      <trkpt lat="45.77549" lon="2.98324">
        <ele>915.89</ele>
        <time>2013-10-18T16:19:52Z</time>
      </trkpt>
      <trkpt lat="45.7753" lon="2.98312">
        <ele>915.19</ele>
        <time>2013-10-18T16:19:55Z</time>
      </trkpt>
      <trkpt lat="45.77512" lon="2.98301">
        <ele>914.69</ele>
        <time>2013-10-18T16:19:58Z</time>
      </trkpt>
      <trkpt lat="45.77495" lon="2.9829">
        <ele>914.59</ele>
        <time>2013-10-18T16:20:01Z</time>
      </trkpt>
      <trkpt lat="45.77474" lon="2.98279">
        <ele>914.07</ele>
        <time>2013-10-18T16:20:05Z</time>
      </trkpt>
      <trkpt lat="45.77456" lon="2.98276">
        <ele>912.57</ele>
        <time>2013-10-18T16:20:09Z</time>
      </trkpt>
      <trkpt lat="45.77433" lon="2.9827">
        <ele>911.08</ele>
        <time>2013-10-18T16:20:14Z</time>
      </trkpt>
      <trkpt lat="45.77411" lon="2.98258">
        <ele>910.5</ele>
        <time>2013-10-18T16:20:18Z</time>
      </trkpt>
      <trkpt lat="45.77392" lon="2.98251">
        <ele>910.78</ele>
        <time>2013-10-18T16:20:21Z</time>
      </trkpt>
      <trkpt lat="45.77373" lon="2.98241">
        <ele>911.09</ele>
        <time>2013-10-18T16:20:25Z</time>
      </trkpt>
      <trkpt lat="45.77352" lon="2.98232">
        <ele>910.24</ele>
        <time>2013-10-18T16:20:30Z</time>
      </trkpt>
      <trkpt lat="45.77332" lon="2.98219">
        <ele>908.27</ele>
        <time>2013-10-18T16:20:34Z</time>
      </trkpt>
      <trkpt lat="45.77314" lon="2.98203">
        <ele>906.94</ele>
        <time>2013-10-18T16:20:37Z</time>
      </trkpt>
      <trkpt lat="45.77294" lon="2.98191">
        <ele>905.34</ele>
        <time>2013-10-18T16:20:41Z</time>
      </trkpt>
      <trkpt lat="45.77271" lon="2.98179">
        <ele>904.15</ele>
        <time>2013-10-18T16:20:45Z</time>
      </trkpt>
      <trkpt lat="45.77253" lon="2.9817">
        <ele>903.51</ele>
        <time>2013-10-18T16:20:49Z</time>
      </trkpt>
      <trkpt lat="45.77233" lon="2.98158">
        <ele>903.14</ele>
        <time>2013-10-18T16:20:53Z</time>
      </trkpt>
      <trkpt lat="45.77213" lon="2.98146">
        <ele>902.9</ele>
        <time>2013-10-18T16:20:58Z</time>
      </trkpt>
      <trkpt lat="45.77199" lon="2.9813">
        <ele>903.22</ele>
        <time>2013-10-18T16:21:01Z</time>
      </trkpt>
      <trkpt lat="45.77183" lon="2.98109">
        <ele>904.46</ele>
        <time>2013-10-18T16:21:05Z</time>
      </trkpt>
      <trkpt lat="45.77168" lon="2.98093">
        <ele>906.43</ele>
        <time>2013-10-18T16:21:09Z</time>
      </trkpt>
      <trkpt lat="45.77154" lon="2.9807">
        <ele>907.03</ele>
        <time>2013-10-18T16:21:14Z</time>
      </trkpt>
      <trkpt lat="45.77137" lon="2.98053">
        <ele>907.39</ele>
        <time>2013-10-18T16:21:19Z</time>
      </trkpt>
      <trkpt lat="45.77118" lon="2.9804">
        <ele>907.12</ele>
        <time>2013-10-18T16:21:24Z</time>
      </trkpt>
      <trkpt lat="45.77096" lon="2.98036">
        <ele>912.39</ele>
        <time>2013-10-18T16:21:30Z</time>
      </trkpt>
      <trkpt lat="45.77076" lon="2.9803">
        <ele>916.69</ele>
        <time>2013-10-18T16:21:35Z</time>
      </trkpt>
      <trkpt lat="45.77059" lon="2.98017">
        <ele>917.86</ele>
        <time>2013-10-18T16:21:41Z</time>
      </trkpt>
      <trkpt lat="45.77041" lon="2.98005">
        <ele>920.46</ele>
        <time>2013-10-18T16:21:48Z</time>
      </trkpt>
      <trkpt lat="45.77022" lon="2.97996">
        <ele>925.31</ele>
        <time>2013-10-18T16:21:57Z</time>
      </trkpt>
      <trkpt lat="45.77005" lon="2.97982">
        <ele>926.84</ele>
        <time>2013-10-18T16:22:04Z</time>
      </trkpt>
      <trkpt lat="45.76989" lon="2.97966">
        <ele>928.77</ele>
        <time>2013-10-18T16:22:10Z</time>
      </trkpt>
      <trkpt lat="45.76969" lon="2.97963">
        <ele>928.29</ele>
        <time>2013-10-18T16:22:17Z</time>
      </trkpt>
      <trkpt lat="45.7695" lon="2.97964">
        <ele>929.09</ele>
        <time>2013-10-18T16:22:23Z</time>
      </trkpt>
      <trkpt lat="45.76932" lon="2.97963">
        <ele>929.15</ele>
        <time>2013-10-18T16:22:28Z</time>
      </trkpt>
      <trkpt lat="45.76913" lon="2.97962">
        <ele>929.01</ele>
        <time>2013-10-18T16:22:32Z</time>
      </trkpt>
      <trkpt lat="45.76895" lon="2.97962">
        <ele>928.56</ele>
        <time>2013-10-18T16:22:37Z</time>
      </trkpt>
      <trkpt lat="45.76878" lon="2.97957">
        <ele>927.29</ele>
        <time>2013-10-18T16:22:42Z</time>
      </trkpt>
      <trkpt lat="45.7686" lon="2.97951">
        <ele>926.62</ele>
        <time>2013-10-18T16:22:46Z</time>
      </trkpt>
      <trkpt lat="45.76842" lon="2.97944">
        <ele>926.16</ele>
        <time>2013-10-18T16:22:50Z</time>
      </trkpt>
      <trkpt lat="45.76823" lon="2.97943">
        <ele>926.02</ele>
        <time>2013-10-18T16:22:55Z</time>
      </trkpt>
      <trkpt lat="45.76805" lon="2.9795">
        <ele>926.69</ele>
        <time>2013-10-18T16:22:59Z</time>
      </trkpt>
      <trkpt lat="45.76785" lon="2.97952">
        <ele>927.78</ele>
        <time>2013-10-18T16:23:04Z</time>
      </trkpt>
      <trkpt lat="45.76768" lon="2.97943">
        <ele>927.79</ele>
        <time>2013-10-18T16:23:09Z</time>
      </trkpt>
      <trkpt lat="45.76749" lon="2.97932">
        <ele>926.9</ele>
        <time>2013-10-18T16:23:14Z</time>
      </trkpt>
      <trkpt lat="45.76729" lon="2.97925">
        <ele>926</ele>
        <time>2013-10-18T16:23:19Z</time>
      </trkpt>
      <trkpt lat="45.76709" lon="2.97914">
        <ele>923.98</ele>
        <time>2013-10-18T16:23:24Z</time>
      </trkpt>
      <trkpt lat="45.76692" lon="2.97904">
        <ele>923.27</ele>
        <time>2013-10-18T16:23:29Z</time>
      </trkpt>
      <trkpt lat="45.76669" lon="2.979">
        <ele>922.59</ele>
        <time>2013-10-18T16:23:34Z</time>
      </trkpt>
      <trkpt lat="45.76651" lon="2.979">
        <ele>922.18</ele>
        <time>2013-10-18T16:23:38Z</time>
      </trkpt>
      <trkpt lat="45.76633" lon="2.97902">
        <ele>922.01</ele>
        <time>2013-10-18T16:23:42Z</time>
      </trkpt>
      <trkpt lat="45.76611" lon="2.97906">
        <ele>921.21</ele>
        <time>2013-10-18T16:23:47Z</time>
      </trkpt>
      <trkpt lat="45.76593" lon="2.97902">
        <ele>921.08</ele>
        <time>2013-10-18T16:23:50Z</time>
      </trkpt>
      <trkpt lat="45.76575" lon="2.97899">
        <ele>921.78</ele>
        <time>2013-10-18T16:23:53Z</time>
      </trkpt>
      <trkpt lat="45.76556" lon="2.97892">
        <ele>922.04</ele>
        <time>2013-10-18T16:23:57Z</time>
      </trkpt>
      <trkpt lat="45.76537" lon="2.97881">
        <ele>921.85</ele>
        <time>2013-10-18T16:24:01Z</time>
      </trkpt>
      <trkpt lat="45.7652" lon="2.97868">
        <ele>922.06</ele>
        <time>2013-10-18T16:24:05Z</time>
      </trkpt>
      <trkpt lat="45.76504" lon="2.97852">
        <ele>921.31</ele>
        <time>2013-10-18T16:24:09Z</time>
      </trkpt>
      <trkpt lat="45.76485" lon="2.97844">
        <ele>920.08</ele>
        <time>2013-10-18T16:24:13Z</time>
      </trkpt>
      <trkpt lat="45.76467" lon="2.97835">
        <ele>919.08</ele>
        <time>2013-10-18T16:24:18Z</time>
      </trkpt>
      <trkpt lat="45.76449" lon="2.97821">
        <ele>917.47</ele>
        <time>2013-10-18T16:24:24Z</time>
      </trkpt>
      <trkpt lat="45.76433" lon="2.97807">
        <ele>917.85</ele>
        <time>2013-10-18T16:24:29Z</time>
      </trkpt>
      <trkpt lat="45.76417" lon="2.9779">
        <ele>917.28</ele>
        <time>2013-10-18T16:24:35Z</time>
      </trkpt>
      <trkpt lat="45.76399" lon="2.97773">
        <ele>917.57</ele>
        <time>2013-10-18T16:24:41Z</time>
      </trkpt>
      <trkpt lat="45.76381" lon="2.97759">
        <ele>917.62</ele>
        <time>2013-10-18T16:24:46Z</time>
      </trkpt>
      <trkpt lat="45.76365" lon="2.97748">
        <ele>917.96</ele>
        <time>2013-10-18T16:24:50Z</time>
      </trkpt>
      <trkpt lat="45.76347" lon="2.97738">
        <ele>918.52</ele>
        <time>2013-10-18T16:24:54Z</time>
      </trkpt>
      <trkpt lat="45.76328" lon="2.97731">
        <ele>918.63</ele>
        <time>2013-10-18T16:25:00Z</time>
      </trkpt>
      <trkpt lat="45.76311" lon="2.97713">
        <ele>920.31</ele>
        <time>2013-10-18T16:25:06Z</time>
      </trkpt>
      <trkpt lat="45.76294" lon="2.97699">
        <ele>921.18</ele>
        <time>2013-10-18T16:25:11Z</time>
      </trkpt>
      <trkpt lat="45.76275" lon="2.97685">
        <ele>919.17</ele>
        <time>2013-10-18T16:25:15Z</time>
      </trkpt>
      <trkpt lat="45.76256" lon="2.97673">
        <ele>917.08</ele>
        <time>2013-10-18T16:25:19Z</time>
      </trkpt>
      <trkpt lat="45.76236" lon="2.97662">
        <ele>916.16</ele>
        <time>2013-10-18T16:25:23Z</time>
      </trkpt>
      <trkpt lat="45.76219" lon="2.97649">
        <ele>916.1</ele>
        <time>2013-10-18T16:25:27Z</time>
      </trkpt>
      <trkpt lat="45.76202" lon="2.97637">
        <ele>917.8</ele>
        <time>2013-10-18T16:25:32Z</time>
      </trkpt>
      <trkpt lat="45.76181" lon="2.97626">
        <ele>919.92</ele>
        <time>2013-10-18T16:25:38Z</time>
      </trkpt>
      <trkpt lat="45.76166" lon="2.97609">
        <ele>920.02</ele>
        <time>2013-10-18T16:25:44Z</time>
      </trkpt>
      <trkpt lat="45.76149" lon="2.97591">
        <ele>919.76</ele>
        <time>2013-10-18T16:25:49Z</time>
      </trkpt>
      <trkpt lat="45.76135" lon="2.97575">
        <ele>918.44</ele>
        <time>2013-10-18T16:25:54Z</time>
      </trkpt>
      <trkpt lat="45.7612" lon="2.97557">
        <ele>917.57</ele>
        <time>2013-10-18T16:25:59Z</time>
      </trkpt>
      <trkpt lat="45.76104" lon="2.9754">
        <ele>917.57</ele>
        <time>2013-10-18T16:26:04Z</time>
      </trkpt>
      <trkpt lat="45.76088" lon="2.97529">
        <ele>920.68</ele>
        <time>2013-10-18T16:26:12Z</time>
      </trkpt>
      <trkpt lat="45.76074" lon="2.97511">
        <ele>923.98</ele>
        <time>2013-10-18T16:26:20Z</time>
      </trkpt>
      <trkpt lat="45.76058" lon="2.97495">
        <ele>922.74</ele>
        <time>2013-10-18T16:26:28Z</time>
      </trkpt>
      <trkpt lat="45.76043" lon="2.9748">
        <ele>921.91</ele>
        <time>2013-10-18T16:26:36Z</time>
      </trkpt>
      <trkpt lat="45.76027" lon="2.97464">
        <ele>925.28</ele>
        <time>2013-10-18T16:26:47Z</time>
      </trkpt>
      <trkpt lat="45.76016" lon="2.97444">
        <ele>930.58</ele>
        <time>2013-10-18T16:27:11Z</time>
      </trkpt>
      <trkpt lat="45.75998" lon="2.9743">
        <ele>933.73</ele>
        <time>2013-10-18T16:27:20Z</time>
      </trkpt>
      <trkpt lat="45.75981" lon="2.9742">
        <ele>934.26</ele>
        <time>2013-10-18T16:27:29Z</time>
      </trkpt>
      <trkpt lat="45.75962" lon="2.97418">
        <ele>932.4</ele>
        <time>2013-10-18T16:27:40Z</time>
      </trkpt>
      <trkpt lat="45.75943" lon="2.97414">
        <ele>931.55</ele>
        <time>2013-10-18T16:27:48Z</time>
      </trkpt>
      <trkpt lat="45.75924" lon="2.97407">
        <ele>930.76</ele>
        <time>2013-10-18T16:27:55Z</time>
      </trkpt>
      <trkpt lat="45.75905" lon="2.97402">
        <ele>930.91</ele>
        <time>2013-10-18T16:28:02Z</time>
      </trkpt>
      <trkpt lat="45.75887" lon="2.97394">
        <ele>930.21</ele>
        <time>2013-10-18T16:28:11Z</time>
      </trkpt>
      <trkpt lat="45.75868" lon="2.97395">
        <ele>928.21</ele>
        <time>2013-10-18T16:28:21Z</time>
      </trkpt>
      <trkpt lat="45.7585" lon="2.97402">
        <ele>927.83</ele>
        <time>2013-10-18T16:28:31Z</time>
      </trkpt>
      <trkpt lat="45.7583" lon="2.97397">
        <ele>929.54</ele>
        <time>2013-10-18T16:28:41Z</time>
      </trkpt>
      <trkpt lat="45.75812" lon="2.97399">
        <ele>931.64</ele>
        <time>2013-10-18T16:28:49Z</time>
      </trkpt>
      <trkpt lat="45.75793" lon="2.97394">
        <ele>932.67</ele>
        <time>2013-10-18T16:28:55Z</time>
      </trkpt>
      <trkpt lat="45.75774" lon="2.9739">
        <ele>933.17</ele>
        <time>2013-10-18T16:29:02Z</time>
      </trkpt>
      <trkpt lat="45.75755" lon="2.9739">
        <ele>934.75</ele>
        <time>2013-10-18T16:29:08Z</time>
      </trkpt>
      <trkpt lat="45.75737" lon="2.97393">
        <ele>938.67</ele>
        <time>2013-10-18T16:29:15Z</time>
      </trkpt>
      <trkpt lat="45.75718" lon="2.97398">
        <ele>943.47</ele>
        <time>2013-10-18T16:29:24Z</time>
      </trkpt>
      <trkpt lat="45.75699" lon="2.97392">
        <ele>943.17</ele>
        <time>2013-10-18T16:29:31Z</time>
      </trkpt>
      <trkpt lat="45.75681" lon="2.97387">
        <ele>941.22</ele>
        <time>2013-10-18T16:29:39Z</time>
      </trkpt>
      <trkpt lat="45.75663" lon="2.97389">
        <ele>941.76</ele>
        <time>2013-10-18T16:29:50Z</time>
      </trkpt>
      <trkpt lat="45.75657" lon="2.9736">
        <ele>947.65</ele>
        <time>2013-10-18T16:30:36Z</time>
      </trkpt>
      <trkpt lat="45.75661" lon="2.97331">
        <ele>949.78</ele>
        <time>2013-10-18T16:30:43Z</time>
      </trkpt>
      <trkpt lat="45.75665" lon="2.97305">
        <ele>951.82</ele>
        <time>2013-10-18T16:30:52Z</time>
      </trkpt>
      <trkpt lat="45.75671" lon="2.97279">
        <ele>952.71</ele>
        <time>2013-10-18T16:31:02Z</time>
      </trkpt>
      <trkpt lat="45.75679" lon="2.97254">
        <ele>953.79</ele>
        <time>2013-10-18T16:31:11Z</time>
      </trkpt>
      <trkpt lat="45.75684" lon="2.97228">
        <ele>954.58</ele>
        <time>2013-10-18T16:31:20Z</time>
      </trkpt>
      <trkpt lat="45.75692" lon="2.97203">
        <ele>955.97</ele>
        <time>2013-10-18T16:31:29Z</time>
      </trkpt>
      <trkpt lat="45.75695" lon="2.97176">
        <ele>958.09</ele>
        <time>2013-10-18T16:31:38Z</time>
      </trkpt>
      <trkpt lat="45.75701" lon="2.97149">
        <ele>959.94</ele>
        <time>2013-10-18T16:31:47Z</time>
      </trkpt>
      <trkpt lat="45.75707" lon="2.97121">
        <ele>959.67</ele>
        <time>2013-10-18T16:31:58Z</time>
      </trkpt>
      <trkpt lat="45.7571" lon="2.97094">
        <ele>959.74</ele>
        <time>2013-10-18T16:32:05Z</time>
      </trkpt>
      <trkpt lat="45.75712" lon="2.97067">
        <ele>959.53</ele>
        <time>2013-10-18T16:32:11Z</time>
      </trkpt>
      <trkpt lat="45.75718" lon="2.9704">
        <ele>959.91</ele>
        <time>2013-10-18T16:32:21Z</time>
      </trkpt>
      <trkpt lat="45.75724" lon="2.97012">
        <ele>956.99</ele>
        <time>2013-10-18T16:32:27Z</time>
      </trkpt>
      <trkpt lat="45.75736" lon="2.96993">
        <ele>959.28</ele>
        <time>2013-10-18T16:32:44Z</time>
      </trkpt>
      <trkpt lat="45.75746" lon="2.96971">
        <ele>959.96</ele>
        <time>2013-10-18T16:34:02Z</time>
      </trkpt>
      <trkpt lat="45.75743" lon="2.96944">
        <ele>959.74</ele>
        <time>2013-10-18T16:34:54Z</time>
      </trkpt>
      <trkpt lat="45.7575" lon="2.96916">
        <ele>961.6</ele>
        <time>2013-10-18T16:35:03Z</time>
      </trkpt>
      <trkpt lat="45.75758" lon="2.9689">
        <ele>962.64</ele>
        <time>2013-10-18T16:35:09Z</time>
      </trkpt>
      <trkpt lat="45.75768" lon="2.96867">
        <ele>963.47</ele>
        <time>2013-10-18T16:35:17Z</time>
      </trkpt>
      <trkpt lat="45.75773" lon="2.9684">
        <ele>964.25</ele>
        <time>2013-10-18T16:35:27Z</time>
      </trkpt>
      <trkpt lat="45.75779" lon="2.96815">
        <ele>966.72</ele>
        <time>2013-10-18T16:35:37Z</time>
      </trkpt>
      <trkpt lat="45.75784" lon="2.96787">
        <ele>967.45</ele>
        <time>2013-10-18T16:35:44Z</time>
      </trkpt>
      <trkpt lat="45.7579" lon="2.96762">
        <ele>967.42</ele>
        <time>2013-10-18T16:35:50Z</time>
      </trkpt>
      <trkpt lat="45.75794" lon="2.96737">
        <ele>968.61</ele>
        <time>2013-10-18T16:35:58Z</time>
      </trkpt>
      <trkpt lat="45.758" lon="2.96711">
        <ele>971.8</ele>
        <time>2013-10-18T16:36:08Z</time>
      </trkpt>
      <trkpt lat="45.75811" lon="2.96688">
        <ele>973.63</ele>
        <time>2013-10-18T16:36:17Z</time>
      </trkpt>
      <trkpt lat="45.75816" lon="2.96663">
        <ele>975.07</ele>
        <time>2013-10-18T16:36:25Z</time>
      </trkpt>
      <trkpt lat="45.75822" lon="2.96636">
        <ele>973.01</ele>
        <time>2013-10-18T16:36:32Z</time>
      </trkpt>
      <trkpt lat="45.75829" lon="2.9661">
        <ele>970.56</ele>
        <time>2013-10-18T16:36:39Z</time>
      </trkpt>
      <trkpt lat="45.75827" lon="2.96582">
        <ele>968.62</ele>
        <time>2013-10-18T16:36:48Z</time>
      </trkpt>
      <trkpt lat="45.75835" lon="2.96559">
        <ele>968.32</ele>
        <time>2013-10-18T16:36:58Z</time>
      </trkpt>
      <trkpt lat="45.75839" lon="2.96531">
        <ele>968.19</ele>
        <time>2013-10-18T16:37:08Z</time>
      </trkpt>
      <trkpt lat="45.75823" lon="2.96517">
        <ele>969.03</ele>
        <time>2013-10-18T16:37:17Z</time>
      </trkpt>
      <trkpt lat="45.75803" lon="2.96516">
        <ele>968.69</ele>
        <time>2013-10-18T16:37:24Z</time>
      </trkpt>
      <trkpt lat="45.75783" lon="2.96515">
        <ele>966.66</ele>
        <time>2013-10-18T16:37:31Z</time>
      </trkpt>
      <trkpt lat="45.75763" lon="2.96521">
        <ele>965.18</ele>
        <time>2013-10-18T16:37:37Z</time>
      </trkpt>
      <trkpt lat="45.75744" lon="2.96529">
        <ele>965.74</ele>
        <time>2013-10-18T16:37:44Z</time>
      </trkpt>
      <trkpt lat="45.75725" lon="2.96535">
        <ele>966.64</ele>
        <time>2013-10-18T16:37:51Z</time>
      </trkpt>
      <trkpt lat="45.75706" lon="2.96543">
        <ele>967.71</ele>
        <time>2013-10-18T16:37:57Z</time>
      </trkpt>
      <trkpt lat="45.75688" lon="2.96545">
        <ele>966.8</ele>
        <time>2013-10-18T16:38:03Z</time>
      </trkpt>
      <trkpt lat="45.75669" lon="2.96554">
        <ele>965.7</ele>
        <time>2013-10-18T16:38:08Z</time>
      </trkpt>
      <trkpt lat="45.75648" lon="2.96562">
        <ele>965.34</ele>
        <time>2013-10-18T16:38:14Z</time>
      </trkpt>
      <trkpt lat="45.7563" lon="2.96569">
        <ele>966.01</ele>
        <time>2013-10-18T16:38:19Z</time>
      </trkpt>
      <trkpt lat="45.75611" lon="2.96579">
        <ele>965.65</ele>
        <time>2013-10-18T16:38:24Z</time>
      </trkpt>
      <trkpt lat="45.75591" lon="2.9659">
        <ele>965.65</ele>
        <time>2013-10-18T16:38:29Z</time>
      </trkpt>
      <trkpt lat="45.75573" lon="2.96597">
        <ele>964.93</ele>
        <time>2013-10-18T16:38:33Z</time>
      </trkpt>
      <trkpt lat="45.75553" lon="2.96604">
        <ele>965.32</ele>
        <time>2013-10-18T16:38:38Z</time>
      </trkpt>
      <trkpt lat="45.75536" lon="2.96613">
        <ele>965.21</ele>
        <time>2013-10-18T16:38:43Z</time>
      </trkpt>
      <trkpt lat="45.75519" lon="2.96627">
        <ele>963.97</ele>
        <time>2013-10-18T16:38:48Z</time>
      </trkpt>
      <trkpt lat="45.75503" lon="2.96642">
        <ele>961.79</ele>
        <time>2013-10-18T16:38:52Z</time>
      </trkpt>
      <trkpt lat="45.75485" lon="2.96654">
        <ele>959.43</ele>
        <time>2013-10-18T16:38:56Z</time>
      </trkpt>
      <trkpt lat="45.75468" lon="2.96662">
        <ele>956.07</ele>
        <time>2013-10-18T16:38:59Z</time>
      </trkpt>
      <trkpt lat="45.75451" lon="2.96673">
        <ele>953.94</ele>
        <time>2013-10-18T16:39:02Z</time>
      </trkpt>
      <trkpt lat="45.75434" lon="2.96686">
        <ele>953.95</ele>
        <time>2013-10-18T16:39:05Z</time>
      </trkpt>
      <trkpt lat="45.75405" lon="2.96701">
        <ele>955.24</ele>
        <time>2013-10-18T16:39:08Z</time>
      </trkpt>
      <trkpt lat="45.75385" lon="2.96708">
        <ele>955.73</ele>
        <time>2013-10-18T16:39:12Z</time>
      </trkpt>
      <trkpt lat="45.75362" lon="2.96699">
        <ele>954.1</ele>
        <time>2013-10-18T16:39:16Z</time>
      </trkpt>
      <trkpt lat="45.75343" lon="2.96709">
        <ele>952.43</ele>
        <time>2013-10-18T16:39:21Z</time>
      </trkpt>
      <trkpt lat="45.75324" lon="2.96717">
        <ele>955.03</ele>
        <time>2013-10-18T16:39:27Z</time>
      </trkpt>
      <trkpt lat="45.753" lon="2.96732">
        <ele>957.07</ele>
        <time>2013-10-18T16:39:31Z</time>
      </trkpt>
      <trkpt lat="45.75287" lon="2.96751">
        <ele>958.6</ele>
        <time>2013-10-18T16:39:34Z</time>
      </trkpt>
      <trkpt lat="45.75282" lon="2.96777">
        <ele>955.67</ele>
        <time>2013-10-18T16:39:39Z</time>
      </trkpt>
      <trkpt lat="45.75272" lon="2.968">
        <ele>956.02</ele>
        <time>2013-10-18T16:39:46Z</time>
      </trkpt>
      <trkpt lat="45.75254" lon="2.9681">
        <ele>956.07</ele>
        <time>2013-10-18T16:39:51Z</time>
      </trkpt>
      <trkpt lat="45.75236" lon="2.96809">
        <ele>955.37</ele>
        <time>2013-10-18T16:39:55Z</time>
      </trkpt>
      <trkpt lat="45.75218" lon="2.968">
        <ele>953.85</ele>
        <time>2013-10-18T16:39:58Z</time>
      </trkpt>
      <trkpt lat="45.75198" lon="2.96788">
        <ele>953.19</ele>
        <time>2013-10-18T16:39:59Z</time>
      </trkpt>
      <trkpt lat="45.7518" lon="2.9679">
        <ele>951.52</ele>
        <time>2013-10-18T16:40:02Z</time>
      </trkpt>
      <trkpt lat="45.75156" lon="2.96797">
        <ele>950.04</ele>
        <time>2013-10-18T16:40:06Z</time>
      </trkpt>
      <trkpt lat="45.75137" lon="2.96802">
        <ele>949.23</ele>
        <time>2013-10-18T16:40:09Z</time>
      </trkpt>
      <trkpt lat="45.75116" lon="2.96813">
        <ele>948.14</ele>
        <time>2013-10-18T16:40:13Z</time>
      </trkpt>
      <trkpt lat="45.75093" lon="2.9682">
        <ele>947.32</ele>
        <time>2013-10-18T16:40:17Z</time>
      </trkpt>
      <trkpt lat="45.75072" lon="2.96826">
        <ele>946.91</ele>
        <time>2013-10-18T16:40:21Z</time>
      </trkpt>
      <trkpt lat="45.75052" lon="2.9683">
        <ele>946.23</ele>
        <time>2013-10-18T16:40:25Z</time>
      </trkpt>
      <trkpt lat="45.7503" lon="2.96835">
        <ele>945.88</ele>
        <time>2013-10-18T16:40:29Z</time>
      </trkpt>
      <trkpt lat="45.75009" lon="2.96844">
        <ele>945.62</ele>
        <time>2013-10-18T16:40:33Z</time>
      </trkpt>
      <trkpt lat="45.7499" lon="2.9685">
        <ele>945.37</ele>
        <time>2013-10-18T16:40:37Z</time>
      </trkpt>
      <trkpt lat="45.7497" lon="2.96855">
        <ele>945.14</ele>
        <time>2013-10-18T16:40:41Z</time>
      </trkpt>
      <trkpt lat="45.74948" lon="2.96862">
        <ele>944.38</ele>
        <time>2013-10-18T16:40:46Z</time>
      </trkpt>
      <trkpt lat="45.7493" lon="2.96871">
        <ele>943.38</ele>
        <time>2013-10-18T16:40:50Z</time>
      </trkpt>
      <trkpt lat="45.74912" lon="2.96876">
        <ele>942.22</ele>
        <time>2013-10-18T16:40:54Z</time>
      </trkpt>
      <trkpt lat="45.74891" lon="2.96877">
        <ele>941.05</ele>
        <time>2013-10-18T16:40:59Z</time>
      </trkpt>
      <trkpt lat="45.74871" lon="2.96878">
        <ele>939.06</ele>
        <time>2013-10-18T16:41:04Z</time>
      </trkpt>
      <trkpt lat="45.74853" lon="2.96885">
        <ele>937.06</ele>
        <time>2013-10-18T16:41:09Z</time>
      </trkpt>
      <trkpt lat="45.74834" lon="2.96895">
        <ele>936.48</ele>
        <time>2013-10-18T16:41:14Z</time>
      </trkpt>
      <trkpt lat="45.74817" lon="2.96903">
        <ele>936.06</ele>
        <time>2013-10-18T16:41:18Z</time>
      </trkpt>
      <trkpt lat="45.74799" lon="2.96913">
        <ele>936</ele>
        <time>2013-10-18T16:41:21Z</time>
      </trkpt>
      <trkpt lat="45.74779" lon="2.96926">
        <ele>935.84</ele>
        <time>2013-10-18T16:41:26Z</time>
      </trkpt>
      <trkpt lat="45.74761" lon="2.96938">
        <ele>935.86</ele>
        <time>2013-10-18T16:41:30Z</time>
      </trkpt>
      <trkpt lat="45.74743" lon="2.96954">
        <ele>936.31</ele>
        <time>2013-10-18T16:41:35Z</time>
      </trkpt>
      <trkpt lat="45.74723" lon="2.96965">
        <ele>936.23</ele>
        <time>2013-10-18T16:41:40Z</time>
      </trkpt>
      <trkpt lat="45.74706" lon="2.9698">
        <ele>937.17</ele>
        <time>2013-10-18T16:41:45Z</time>
      </trkpt>
      <trkpt lat="45.74689" lon="2.96992">
        <ele>938.44</ele>
        <time>2013-10-18T16:41:50Z</time>
      </trkpt>
      <trkpt lat="45.74669" lon="2.96996">
        <ele>941.37</ele>
        <time>2013-10-18T16:41:55Z</time>
      </trkpt>
      <trkpt lat="45.74651" lon="2.97002">
        <ele>943.34</ele>
        <time>2013-10-18T16:41:59Z</time>
      </trkpt>
      <trkpt lat="45.74633" lon="2.9701">
        <ele>944.05</ele>
        <time>2013-10-18T16:42:04Z</time>
      </trkpt>
      <trkpt lat="45.74614" lon="2.97013">
        <ele>943.75</ele>
        <time>2013-10-18T16:42:13Z</time>
      </trkpt>
      <trkpt lat="45.74595" lon="2.97022">
        <ele>939.31</ele>
        <time>2013-10-18T16:42:32Z</time>
      </trkpt>
      <trkpt lat="45.74578" lon="2.97014">
        <ele>939.28</ele>
        <time>2013-10-18T16:42:38Z</time>
      </trkpt>
      <trkpt lat="45.74559" lon="2.97005">
        <ele>939.07</ele>
        <time>2013-10-18T16:42:44Z</time>
      </trkpt>
      <trkpt lat="45.74541" lon="2.97003">
        <ele>938.75</ele>
        <time>2013-10-18T16:42:50Z</time>
      </trkpt>
      <trkpt lat="45.74522" lon="2.97">
        <ele>939.44</ele>
        <time>2013-10-18T16:42:57Z</time>
      </trkpt>
      <trkpt lat="45.74505" lon="2.96991">
        <ele>940.48</ele>
        <time>2013-10-18T16:43:03Z</time>
      </trkpt>
      <trkpt lat="45.74487" lon="2.9698">
        <ele>939.38</ele>
        <time>2013-10-18T16:43:11Z</time>
      </trkpt>
      <trkpt lat="45.74468" lon="2.96967">
        <ele>938.91</ele>
        <time>2013-10-18T16:43:18Z</time>
      </trkpt>
      <trkpt lat="45.74449" lon="2.96962">
        <ele>938.29</ele>
        <time>2013-10-18T16:43:23Z</time>
      </trkpt>
      <trkpt lat="45.74429" lon="2.96955">
        <ele>938.24</ele>
        <time>2013-10-18T16:43:29Z</time>
      </trkpt>
      <trkpt lat="45.74412" lon="2.96943">
        <ele>937.35</ele>
        <time>2013-10-18T16:43:35Z</time>
      </trkpt>
      <trkpt lat="45.74395" lon="2.9693">
        <ele>937.21</ele>
        <time>2013-10-18T16:43:41Z</time>
      </trkpt>
      <trkpt lat="45.74373" lon="2.96923">
        <ele>938.65</ele>
        <time>2013-10-18T16:43:46Z</time>
      </trkpt>
      <trkpt lat="45.74354" lon="2.96912">
        <ele>941.68</ele>
        <time>2013-10-18T16:43:50Z</time>
      </trkpt>
      <trkpt lat="45.74335" lon="2.96904">
        <ele>944.02</ele>
        <time>2013-10-18T16:43:54Z</time>
      </trkpt>
      <trkpt lat="45.74318" lon="2.96895">
        <ele>946.07</ele>
        <time>2013-10-18T16:43:58Z</time>
      </trkpt>
      <trkpt lat="45.74299" lon="2.96886">
        <ele>946.88</ele>
        <time>2013-10-18T16:44:03Z</time>
      </trkpt>
      <trkpt lat="45.74282" lon="2.96874">
        <ele>949.62</ele>
        <time>2013-10-18T16:44:09Z</time>
      </trkpt>
      <trkpt lat="45.74265" lon="2.96864">
        <ele>950.55</ele>
        <time>2013-10-18T16:44:15Z</time>
      </trkpt>
      <trkpt lat="45.74246" lon="2.9685">
        <ele>947.45</ele>
        <time>2013-10-18T16:44:21Z</time>
      </trkpt>
      <trkpt lat="45.74228" lon="2.96836">
        <ele>947.61</ele>
        <time>2013-10-18T16:44:26Z</time>
      </trkpt>
      <trkpt lat="45.74209" lon="2.9682">
        <ele>948.29</ele>
        <time>2013-10-18T16:44:32Z</time>
      </trkpt>
      <trkpt lat="45.74192" lon="2.96805">
        <ele>950.24</ele>
        <time>2013-10-18T16:44:38Z</time>
      </trkpt>
      <trkpt lat="45.74174" lon="2.96789">
        <ele>953.77</ele>
        <time>2013-10-18T16:44:44Z</time>
      </trkpt>
      <trkpt lat="45.74156" lon="2.9678">
        <ele>954.75</ele>
        <time>2013-10-18T16:44:50Z</time>
      </trkpt>
      <trkpt lat="45.74143" lon="2.96759">
        <ele>954.48</ele>
        <time>2013-10-18T16:44:57Z</time>
      </trkpt>
      <trkpt lat="45.74131" lon="2.96736">
        <ele>954.27</ele>
        <time>2013-10-18T16:45:04Z</time>
      </trkpt>
      <trkpt lat="45.7412" lon="2.96711">
        <ele>956.33</ele>
        <time>2013-10-18T16:45:12Z</time>
      </trkpt>
      <trkpt lat="45.74106" lon="2.96695">
        <ele>955.95</ele>
        <time>2013-10-18T16:45:18Z</time>
      </trkpt>
      <trkpt lat="45.74086" lon="2.96693">
        <ele>956.28</ele>
        <time>2013-10-18T16:45:23Z</time>
      </trkpt>
      <trkpt lat="45.74064" lon="2.96696">
        <ele>958.35</ele>
        <time>2013-10-18T16:45:28Z</time>
      </trkpt>
      <trkpt lat="45.74046" lon="2.96701">
        <ele>961.47</ele>
        <time>2013-10-18T16:45:33Z</time>
      </trkpt>
      <trkpt lat="45.74028" lon="2.96717">
        <ele>962.87</ele>
        <time>2013-10-18T16:45:39Z</time>
      </trkpt>
      <trkpt lat="45.74016" lon="2.96738">
        <ele>964.53</ele>
        <time>2013-10-18T16:45:44Z</time>
      </trkpt>
      <trkpt lat="45.7401" lon="2.96767">
        <ele>965.81</ele>
        <time>2013-10-18T16:45:50Z</time>
      </trkpt>
      <trkpt lat="45.74004" lon="2.96792">
        <ele>967.41</ele>
        <time>2013-10-18T16:45:55Z</time>
      </trkpt>
      <trkpt lat="45.73997" lon="2.9682">
        <ele>969.51</ele>
        <time>2013-10-18T16:46:02Z</time>
      </trkpt>
      <trkpt lat="45.73986" lon="2.96845">
        <ele>971.02</ele>
        <time>2013-10-18T16:46:09Z</time>
      </trkpt>
      <trkpt lat="45.73972" lon="2.96865">
        <ele>970.67</ele>
        <time>2013-10-18T16:46:16Z</time>
      </trkpt>
      <trkpt lat="45.73959" lon="2.96884">
        <ele>970.65</ele>
        <time>2013-10-18T16:46:23Z</time>
      </trkpt>
      <trkpt lat="45.73946" lon="2.96904">
        <ele>971.17</ele>
        <time>2013-10-18T16:46:29Z</time>
      </trkpt>
      <trkpt lat="45.73934" lon="2.96926">
        <ele>971.8</ele>
        <time>2013-10-18T16:46:35Z</time>
      </trkpt>
      <trkpt lat="45.73926" lon="2.96953">
        <ele>973.03</ele>
        <time>2013-10-18T16:46:41Z</time>
      </trkpt>
      <trkpt lat="45.7392" lon="2.96978">
        <ele>974.11</ele>
        <time>2013-10-18T16:46:46Z</time>
      </trkpt>
      <trkpt lat="45.73915" lon="2.97003">
        <ele>972.06</ele>
        <time>2013-10-18T16:46:51Z</time>
      </trkpt>
      <trkpt lat="45.73912" lon="2.97031">
        <ele>970.95</ele>
        <time>2013-10-18T16:46:58Z</time>
      </trkpt>
      <trkpt lat="45.73906" lon="2.97056">
        <ele>970.24</ele>
        <time>2013-10-18T16:47:06Z</time>
      </trkpt>
      <trkpt lat="45.73899" lon="2.97084">
        <ele>970.33</ele>
        <time>2013-10-18T16:47:11Z</time>
      </trkpt>
      <trkpt lat="45.73891" lon="2.97115">
        <ele>970.59</ele>
        <time>2013-10-18T16:47:15Z</time>
      </trkpt>
      <trkpt lat="45.73884" lon="2.9714">
        <ele>970.48</ele>
        <time>2013-10-18T16:47:17Z</time>
      </trkpt>
      <trkpt lat="45.73876" lon="2.97168">
        <ele>970.31</ele>
        <time>2013-10-18T16:47:20Z</time>
      </trkpt>
      <trkpt lat="45.73869" lon="2.97193">
        <ele>971.04</ele>
        <time>2013-10-18T16:47:23Z</time>
      </trkpt>
      <trkpt lat="45.73858" lon="2.97232">
        <ele>971.92</ele>
        <time>2013-10-18T16:47:27Z</time>
      </trkpt>
      <trkpt lat="45.73848" lon="2.97259">
        <ele>972.19</ele>
        <time>2013-10-18T16:47:28Z</time>
      </trkpt>
      <trkpt lat="45.73843" lon="2.97285">
        <ele>972.51</ele>
        <time>2013-10-18T16:47:32Z</time>
      </trkpt>
      <trkpt lat="45.73838" lon="2.9732">
        <ele>971.5</ele>
        <time>2013-10-18T16:47:36Z</time>
      </trkpt>
      <trkpt lat="45.73841" lon="2.97349">
        <ele>968.99</ele>
        <time>2013-10-18T16:47:42Z</time>
      </trkpt>
      <trkpt lat="45.73848" lon="2.97378">
        <ele>965.97</ele>
        <time>2013-10-18T16:47:48Z</time>
      </trkpt>
      <trkpt lat="45.73851" lon="2.97407">
        <ele>965.01</ele>
        <time>2013-10-18T16:47:54Z</time>
      </trkpt>
      <trkpt lat="45.73853" lon="2.97436">
        <ele>965.59</ele>
        <time>2013-10-18T16:48:01Z</time>
      </trkpt>
      <trkpt lat="45.73859" lon="2.97461">
        <ele>967.8</ele>
        <time>2013-10-18T16:48:09Z</time>
      </trkpt>
      <trkpt lat="45.73861" lon="2.97487">
        <ele>968.71</ele>
        <time>2013-10-18T16:48:18Z</time>
      </trkpt>
      <trkpt lat="45.73861" lon="2.97514">
        <ele>971.36</ele>
        <time>2013-10-18T16:48:25Z</time>
      </trkpt>
      <trkpt lat="45.73861" lon="2.97542">
        <ele>973.89</ele>
        <time>2013-10-18T16:48:33Z</time>
      </trkpt>
      <trkpt lat="45.73861" lon="2.97571">
        <ele>973.34</ele>
        <time>2013-10-18T16:48:43Z</time>
      </trkpt>
      <trkpt lat="45.7386" lon="2.97596">
        <ele>974.1</ele>
        <time>2013-10-18T16:48:50Z</time>
      </trkpt>
      <trkpt lat="45.73861" lon="2.97624">
        <ele>975.51</ele>
        <time>2013-10-18T16:48:58Z</time>
      </trkpt>
      <trkpt lat="45.73864" lon="2.97652">
        <ele>973.98</ele>
        <time>2013-10-18T16:49:08Z</time>
      </trkpt>
      <trkpt lat="45.73865" lon="2.97681">
        <ele>975.51</ele>
        <time>2013-10-18T16:49:17Z</time>
      </trkpt>
      <trkpt lat="45.73862" lon="2.97709">
        <ele>977.88</ele>
        <time>2013-10-18T16:49:24Z</time>
      </trkpt>
      <trkpt lat="45.73861" lon="2.97737">
        <ele>981.14</ele>
        <time>2013-10-18T16:49:32Z</time>
      </trkpt>
      <trkpt lat="45.73862" lon="2.97764">
        <ele>982.06</ele>
        <time>2013-10-18T16:49:39Z</time>
      </trkpt>
      <trkpt lat="45.73859" lon="2.97792">
        <ele>983.13</ele>
        <time>2013-10-18T16:49:47Z</time>
      </trkpt>
      <trkpt lat="45.73857" lon="2.97818">
        <ele>983.97</ele>
        <time>2013-10-18T16:49:53Z</time>
      </trkpt>
      <trkpt lat="45.73856" lon="2.97845">
        <ele>984.27</ele>
        <time>2013-10-18T16:49:59Z</time>
      </trkpt>
      <trkpt lat="45.73854" lon="2.97872">
        <ele>984.21</ele>
        <time>2013-10-18T16:50:06Z</time>
      </trkpt>
      <trkpt lat="45.73851" lon="2.97899">
        <ele>984.64</ele>
        <time>2013-10-18T16:50:16Z</time>
      </trkpt>
      <trkpt lat="45.73849" lon="2.97928">
        <ele>985.13</ele>
        <time>2013-10-18T16:50:25Z</time>
      </trkpt>
      <trkpt lat="45.73848" lon="2.97955">
        <ele>986.48</ele>
        <time>2013-10-18T16:50:32Z</time>
      </trkpt>
      <trkpt lat="45.7384" lon="2.9798">
        <ele>988.69</ele>
        <time>2013-10-18T16:50:41Z</time>
      </trkpt>
      <trkpt lat="45.73834" lon="2.98005">
        <ele>989.81</ele>
        <time>2013-10-18T16:50:48Z</time>
      </trkpt>
      <trkpt lat="45.73831" lon="2.98033">
        <ele>990.73</ele>
        <time>2013-10-18T16:50:55Z</time>
      </trkpt>
      <trkpt lat="45.7383" lon="2.9806">
        <ele>992.83</ele>
        <time>2013-10-18T16:51:01Z</time>
      </trkpt>
      <trkpt lat="45.73828" lon="2.98087">
        <ele>994.82</ele>
        <time>2013-10-18T16:51:08Z</time>
      </trkpt>
      <trkpt lat="45.73827" lon="2.98116">
        <ele>997.44</ele>
        <time>2013-10-18T16:51:15Z</time>
      </trkpt>
      <trkpt lat="45.73824" lon="2.98145">
        <ele>999.04</ele>
        <time>2013-10-18T16:51:21Z</time>
      </trkpt>
      <trkpt lat="45.73821" lon="2.98172">
        <ele>999.78</ele>
        <time>2013-10-18T16:51:27Z</time>
      </trkpt>
      <trkpt lat="45.73817" lon="2.98198">
        <ele>1001.25</ele>
        <time>2013-10-18T16:51:32Z</time>
      </trkpt>
      <trkpt lat="45.73816" lon="2.98227">
        <ele>1003.58</ele>
        <time>2013-10-18T16:51:39Z</time>
      </trkpt>
      <trkpt lat="45.73813" lon="2.98255">
        <ele>1002.74</ele>
        <time>2013-10-18T16:51:46Z</time>
      </trkpt>
      <trkpt lat="45.73809" lon="2.98282">
        <ele>1003.89</ele>
        <time>2013-10-18T16:51:52Z</time>
      </trkpt>
      <trkpt lat="45.73807" lon="2.98308">
        <ele>1004.88</ele>
        <time>2013-10-18T16:51:58Z</time>
      </trkpt>
      <trkpt lat="45.73802" lon="2.98335">
        <ele>1003.96</ele>
        <time>2013-10-18T16:52:04Z</time>
      </trkpt>
      <trkpt lat="45.73796" lon="2.9836">
        <ele>1003.63</ele>
        <time>2013-10-18T16:52:09Z</time>
      </trkpt>
      <trkpt lat="45.73786" lon="2.98387">
        <ele>1002.09</ele>
        <time>2013-10-18T16:52:15Z</time>
      </trkpt>
      <trkpt lat="45.7378" lon="2.98411">
        <ele>1000.94</ele>
        <time>2013-10-18T16:52:20Z</time>
      </trkpt>
      <trkpt lat="45.73771" lon="2.98441">
        <ele>999.58</ele>
        <time>2013-10-18T16:52:25Z</time>
      </trkpt>
      <trkpt lat="45.73764" lon="2.98465">
        <ele>998.95</ele>
        <time>2013-10-18T16:52:28Z</time>
      </trkpt>
      <trkpt lat="45.73755" lon="2.98493">
        <ele>998</ele>
        <time>2013-10-18T16:52:32Z</time>
      </trkpt>
      <trkpt lat="45.73736" lon="2.98525">
        <ele>997.31</ele>
        <time>2013-10-18T16:52:37Z</time>
      </trkpt>
      <trkpt lat="45.73725" lon="2.98553">
        <ele>996.43</ele>
        <time>2013-10-18T16:52:41Z</time>
      </trkpt>
      <trkpt lat="45.73714" lon="2.98579">
        <ele>997.6</ele>
        <time>2013-10-18T16:52:45Z</time>
      </trkpt>
      <trkpt lat="45.73706" lon="2.98605">
        <ele>998.69</ele>
        <time>2013-10-18T16:52:49Z</time>
      </trkpt>
      <trkpt lat="45.73699" lon="2.98632">
        <ele>997.78</ele>
        <time>2013-10-18T16:52:54Z</time>
      </trkpt>
      <trkpt lat="45.73694" lon="2.98658">
        <ele>996.62</ele>
        <time>2013-10-18T16:53:00Z</time>
      </trkpt>
      <trkpt lat="45.73693" lon="2.98684">
        <ele>993.96</ele>
        <time>2013-10-18T16:53:08Z</time>
      </trkpt>
      <trkpt lat="45.73689" lon="2.98711">
        <ele>992.41</ele>
        <time>2013-10-18T16:53:14Z</time>
      </trkpt>
      <trkpt lat="45.7368" lon="2.98745">
        <ele>992.65</ele>
        <time>2013-10-18T16:53:18Z</time>
      </trkpt>
      <trkpt lat="45.73665" lon="2.98784">
        <ele>993</ele>
        <time>2013-10-18T16:53:20Z</time>
      </trkpt>
      <trkpt lat="45.73659" lon="2.98812">
        <ele>993.2</ele>
        <time>2013-10-18T16:53:23Z</time>
      </trkpt>
      <trkpt lat="45.73656" lon="2.98847">
        <ele>994.03</ele>
        <time>2013-10-18T16:53:26Z</time>
      </trkpt>
      <trkpt lat="45.73649" lon="2.9888">
        <ele>994.08</ele>
        <time>2013-10-18T16:53:29Z</time>
      </trkpt>
      <trkpt lat="45.7364" lon="2.98907">
        <ele>994.02</ele>
        <time>2013-10-18T16:53:33Z</time>
      </trkpt>
      <trkpt lat="45.73628" lon="2.9893">
        <ele>996.45</ele>
        <time>2013-10-18T16:53:36Z</time>
      </trkpt>
      <trkpt lat="45.73618" lon="2.98954">
        <ele>1002.1</ele>
        <time>2013-10-18T16:53:41Z</time>
      </trkpt>
      <trkpt lat="45.7361" lon="2.98978">
        <ele>1002.78</ele>
        <time>2013-10-18T16:53:46Z</time>
      </trkpt>
      <trkpt lat="45.73596" lon="2.99002">
        <ele>1001.81</ele>
        <time>2013-10-18T16:53:51Z</time>
      </trkpt>
      <trkpt lat="45.73583" lon="2.99027">
        <ele>1000.87</ele>
        <time>2013-10-18T16:53:56Z</time>
      </trkpt>
      <trkpt lat="45.73569" lon="2.99051">
        <ele>1000.9</ele>
        <time>2013-10-18T16:54:01Z</time>
      </trkpt>
      <trkpt lat="45.73557" lon="2.99072">
        <ele>1001.1</ele>
        <time>2013-10-18T16:54:05Z</time>
      </trkpt>
      <trkpt lat="45.73544" lon="2.99096">
        <ele>1001.53</ele>
        <time>2013-10-18T16:54:10Z</time>
      </trkpt>
      <trkpt lat="45.73534" lon="2.99121">
        <ele>1001.52</ele>
        <time>2013-10-18T16:54:14Z</time>
      </trkpt>
      <trkpt lat="45.73519" lon="2.99155">
        <ele>1001.3</ele>
        <time>2013-10-18T16:54:18Z</time>
      </trkpt>
      <trkpt lat="45.73511" lon="2.99186">
        <ele>1000.74</ele>
        <time>2013-10-18T16:54:22Z</time>
      </trkpt>
      <trkpt lat="45.735" lon="2.99207">
        <ele>1000.36</ele>
        <time>2013-10-18T16:54:25Z</time>
      </trkpt>
      <trkpt lat="45.73488" lon="2.99238">
        <ele>1000.41</ele>
        <time>2013-10-18T16:54:29Z</time>
      </trkpt>
      <trkpt lat="45.73475" lon="2.99262">
        <ele>1000.57</ele>
        <time>2013-10-18T16:54:33Z</time>
      </trkpt>
      <trkpt lat="45.73461" lon="2.9929">
        <ele>1000.58</ele>
        <time>2013-10-18T16:54:37Z</time>
      </trkpt>
      <trkpt lat="45.73449" lon="2.99311">
        <ele>1000.39</ele>
        <time>2013-10-18T16:54:40Z</time>
      </trkpt>
      <trkpt lat="45.73436" lon="2.99337">
        <ele>1000.24</ele>
        <time>2013-10-18T16:54:43Z</time>
      </trkpt>
      <trkpt lat="45.73423" lon="2.99362">
        <ele>999.66</ele>
        <time>2013-10-18T16:54:46Z</time>
      </trkpt>
      <trkpt lat="45.73408" lon="2.99388">
        <ele>999.19</ele>
        <time>2013-10-18T16:54:49Z</time>
      </trkpt>
      <trkpt lat="45.73392" lon="2.99407">
        <ele>998.81</ele>
        <time>2013-10-18T16:54:52Z</time>
      </trkpt>
      <trkpt lat="45.73375" lon="2.99428">
        <ele>998.74</ele>
        <time>2013-10-18T16:54:55Z</time>
      </trkpt>
      <trkpt lat="45.7336" lon="2.99453">
        <ele>998.33</ele>
        <time>2013-10-18T16:54:58Z</time>
      </trkpt>
      <trkpt lat="45.73341" lon="2.99474">
        <ele>998.26</ele>
        <time>2013-10-18T16:55:01Z</time>
      </trkpt>
      <trkpt lat="45.73327" lon="2.99497">
        <ele>998.22</ele>
        <time>2013-10-18T16:55:04Z</time>
      </trkpt>
      <trkpt lat="45.73318" lon="2.99519">
        <ele>997.98</ele>
        <time>2013-10-18T16:55:07Z</time>
      </trkpt>
      <trkpt lat="45.73305" lon="2.9954">
        <ele>998.12</ele>
        <time>2013-10-18T16:55:10Z</time>
      </trkpt>
      <trkpt lat="45.73292" lon="2.99564">
        <ele>997.81</ele>
        <time>2013-10-18T16:55:14Z</time>
      </trkpt>
      <trkpt lat="45.73276" lon="2.99585">
        <ele>997.85</ele>
        <time>2013-10-18T16:55:18Z</time>
      </trkpt>
      <trkpt lat="45.73261" lon="2.99605">
        <ele>997.38</ele>
        <time>2013-10-18T16:55:22Z</time>
      </trkpt>
      <trkpt lat="45.73247" lon="2.99629">
        <ele>996.86</ele>
        <time>2013-10-18T16:55:26Z</time>
      </trkpt>
      <trkpt lat="45.73233" lon="2.99644">
        <ele>996.34</ele>
        <time>2013-10-18T16:55:29Z</time>
      </trkpt>
      <trkpt lat="45.73215" lon="2.99665">
        <ele>995.91</ele>
        <time>2013-10-18T16:55:33Z</time>
      </trkpt>
      <trkpt lat="45.73199" lon="2.99683">
        <ele>995.55</ele>
        <time>2013-10-18T16:55:36Z</time>
      </trkpt>
      <trkpt lat="45.73179" lon="2.99705">
        <ele>994.77</ele>
        <time>2013-10-18T16:55:39Z</time>
      </trkpt>
      <trkpt lat="45.73164" lon="2.99723">
        <ele>993.94</ele>
        <time>2013-10-18T16:55:42Z</time>
      </trkpt>
      <trkpt lat="45.73149" lon="2.99747">
        <ele>992.9</ele>
        <time>2013-10-18T16:55:46Z</time>
      </trkpt>
      <trkpt lat="45.73137" lon="2.99771">
        <ele>992.6</ele>
        <time>2013-10-18T16:55:49Z</time>
      </trkpt>
      <trkpt lat="45.73126" lon="2.99799">
        <ele>991.52</ele>
        <time>2013-10-18T16:55:52Z</time>
      </trkpt>
      <trkpt lat="45.73114" lon="2.99825">
        <ele>990.47</ele>
        <time>2013-10-18T16:55:55Z</time>
      </trkpt>
      <trkpt lat="45.73101" lon="2.99846">
        <ele>987.26</ele>
        <time>2013-10-18T16:55:58Z</time>
      </trkpt>
      <trkpt lat="45.73094" lon="2.99872">
        <ele>983.93</ele>
        <time>2013-10-18T16:56:01Z</time>
      </trkpt>
      <trkpt lat="45.73086" lon="2.99896">
        <ele>981.79</ele>
        <time>2013-10-18T16:56:04Z</time>
      </trkpt>
      <trkpt lat="45.73077" lon="2.99924">
        <ele>979.99</ele>
        <time>2013-10-18T16:56:08Z</time>
      </trkpt>
      <trkpt lat="45.73066" lon="2.99947">
        <ele>977.88</ele>
        <time>2013-10-18T16:56:12Z</time>
      </trkpt>
      <trkpt lat="45.73059" lon="2.99972">
        <ele>973.99</ele>
        <time>2013-10-18T16:56:16Z</time>
      </trkpt>
      <trkpt lat="45.73051" lon="2.99999">
        <ele>971.61</ele>
        <time>2013-10-18T16:56:20Z</time>
      </trkpt>
      <trkpt lat="45.73044" lon="3.00024">
        <ele>969.74</ele>
        <time>2013-10-18T16:56:24Z</time>
      </trkpt>
      <trkpt lat="45.73039" lon="3.00049">
        <ele>967.04</ele>
        <time>2013-10-18T16:56:28Z</time>
      </trkpt>
      <trkpt lat="45.73042" lon="3.00083">
        <ele>965.01</ele>
        <time>2013-10-18T16:56:32Z</time>
      </trkpt>
      <trkpt lat="45.73057" lon="3.001">
        <ele>964.47</ele>
        <time>2013-10-18T16:56:38Z</time>
      </trkpt>
      <trkpt lat="45.73076" lon="3.0011">
        <ele>966.61</ele>
        <time>2013-10-18T16:56:43Z</time>
      </trkpt>
      <trkpt lat="45.73098" lon="3.00122">
        <ele>965.97</ele>
        <time>2013-10-18T16:56:48Z</time>
      </trkpt>
      <trkpt lat="45.73116" lon="3.00122">
        <ele>964.2</ele>
        <time>2013-10-18T16:56:52Z</time>
      </trkpt>
      <trkpt lat="45.73137" lon="3.0012">
        <ele>963.34</ele>
        <time>2013-10-18T16:56:57Z</time>
      </trkpt>
      <trkpt lat="45.73159" lon="3.00125">
        <ele>961.23</ele>
        <time>2013-10-18T16:57:01Z</time>
      </trkpt>
      <trkpt lat="45.73181" lon="3.00127">
        <ele>959.6</ele>
        <time>2013-10-18T16:57:05Z</time>
      </trkpt>
      <trkpt lat="45.73199" lon="3.00133">
        <ele>957.97</ele>
        <time>2013-10-18T16:57:11Z</time>
      </trkpt>
      <trkpt lat="45.73217" lon="3.00138">
        <ele>954.29</ele>
        <time>2013-10-18T16:57:25Z</time>
      </trkpt>
      <trkpt lat="45.73234" lon="3.0015">
        <ele>958.2</ele>
        <time>2013-10-18T16:57:41Z</time>
      </trkpt>
      <trkpt lat="45.73252" lon="3.00155">
        <ele>960.24</ele>
        <time>2013-10-18T16:58:10Z</time>
      </trkpt>
      <trkpt lat="45.73272" lon="3.00151">
        <ele>958.17</ele>
        <time>2013-10-18T16:58:24Z</time>
      </trkpt>
      <trkpt lat="45.73291" lon="3.00148">
        <ele>953.17</ele>
        <time>2013-10-18T16:58:30Z</time>
      </trkpt>
      <trkpt lat="45.73308" lon="3.00155">
        <ele>951.96</ele>
        <time>2013-10-18T16:58:39Z</time>
      </trkpt>
      <trkpt lat="45.73324" lon="3.00174">
        <ele>950.34</ele>
        <time>2013-10-18T16:58:49Z</time>
      </trkpt>
      <trkpt lat="45.73335" lon="3.00196">
        <ele>947.23</ele>
        <time>2013-10-18T16:58:56Z</time>
      </trkpt>
      <trkpt lat="45.73344" lon="3.00219">
        <ele>946.62</ele>
        <time>2013-10-18T16:59:03Z</time>
      </trkpt>
      <trkpt lat="45.73357" lon="3.00239">
        <ele>947.59</ele>
        <time>2013-10-18T16:59:11Z</time>
      </trkpt>
      <trkpt lat="45.73367" lon="3.00264">
        <ele>945.37</ele>
        <time>2013-10-18T16:59:18Z</time>
      </trkpt>
      <trkpt lat="45.73374" lon="3.00294">
        <ele>944.04</ele>
        <time>2013-10-18T16:59:24Z</time>
      </trkpt>
      <trkpt lat="45.73382" lon="3.0032">
        <ele>942.69</ele>
        <time>2013-10-18T16:59:28Z</time>
      </trkpt>
      <trkpt lat="45.73392" lon="3.00344">
        <ele>944.78</ele>
        <time>2013-10-18T16:59:32Z</time>
      </trkpt>
      <trkpt lat="45.73404" lon="3.00368">
        <ele>943.43</ele>
        <time>2013-10-18T16:59:37Z</time>
      </trkpt>
      <trkpt lat="45.73408" lon="3.00395">
        <ele>944.95</ele>
        <time>2013-10-18T16:59:40Z</time>
      </trkpt>
      <trkpt lat="45.73414" lon="3.0042">
        <ele>945.61</ele>
        <time>2013-10-18T16:59:45Z</time>
      </trkpt>
      <trkpt lat="45.73422" lon="3.00445">
        <ele>945.43</ele>
        <time>2013-10-18T16:59:52Z</time>
      </trkpt>
      <trkpt lat="45.73434" lon="3.00466">
        <ele>945</ele>
        <time>2013-10-18T17:00:01Z</time>
      </trkpt>
      <trkpt lat="45.73441" lon="3.00491">
        <ele>941.92</ele>
        <time>2013-10-18T17:00:06Z</time>
      </trkpt>
      <trkpt lat="45.73436" lon="3.00524">
        <ele>939.42</ele>
        <time>2013-10-18T17:00:08Z</time>
      </trkpt>
      <trkpt lat="45.73437" lon="3.00552">
        <ele>937.2</ele>
        <time>2013-10-18T17:00:10Z</time>
      </trkpt>
      <trkpt lat="45.7344" lon="3.0058">
        <ele>936.62</ele>
        <time>2013-10-18T17:00:13Z</time>
      </trkpt>
      <trkpt lat="45.73447" lon="3.00605">
        <ele>936.95</ele>
        <time>2013-10-18T17:00:17Z</time>
      </trkpt>
      <trkpt lat="45.73441" lon="3.00635">
        <ele>936.08</ele>
        <time>2013-10-18T17:00:21Z</time>
      </trkpt>
      <trkpt lat="45.73433" lon="3.00662">
        <ele>934.27</ele>
        <time>2013-10-18T17:00:25Z</time>
      </trkpt>
      <trkpt lat="45.73422" lon="3.00688">
        <ele>933.88</ele>
        <time>2013-10-18T17:00:29Z</time>
      </trkpt>
      <trkpt lat="45.73411" lon="3.00714">
        <ele>934.33</ele>
        <time>2013-10-18T17:00:33Z</time>
      </trkpt>
      <trkpt lat="45.73404" lon="3.00738">
        <ele>933.44</ele>
        <time>2013-10-18T17:00:37Z</time>
      </trkpt>
      <trkpt lat="45.73394" lon="3.00766">
        <ele>932.66</ele>
        <time>2013-10-18T17:00:42Z</time>
      </trkpt>
      <trkpt lat="45.73381" lon="3.00788">
        <ele>932.82</ele>
        <time>2013-10-18T17:00:47Z</time>
      </trkpt>
      <trkpt lat="45.73369" lon="3.00807">
        <ele>930.7</ele>
        <time>2013-10-18T17:00:52Z</time>
      </trkpt>
      <trkpt lat="45.7337" lon="3.00834">
        <ele>929.68</ele>
        <time>2013-10-18T17:00:59Z</time>
      </trkpt>
      <trkpt lat="45.73381" lon="3.00858">
        <ele>927.73</ele>
        <time>2013-10-18T17:01:05Z</time>
      </trkpt>
      <trkpt lat="45.73386" lon="3.00888">
        <ele>924.95</ele>
        <time>2013-10-18T17:01:10Z</time>
      </trkpt>
      <trkpt lat="45.7339" lon="3.00913">
        <ele>924.06</ele>
        <time>2013-10-18T17:01:14Z</time>
      </trkpt>
      <trkpt lat="45.73398" lon="3.00938">
        <ele>923.3</ele>
        <time>2013-10-18T17:01:19Z</time>
      </trkpt>
      <trkpt lat="45.73407" lon="3.00966">
        <ele>922.71</ele>
        <time>2013-10-18T17:01:24Z</time>
      </trkpt>
      <trkpt lat="45.73416" lon="3.00995">
        <ele>925.15</ele>
        <time>2013-10-18T17:01:29Z</time>
      </trkpt>
      <trkpt lat="45.73425" lon="3.01018">
        <ele>924.69</ele>
        <time>2013-10-18T17:01:34Z</time>
      </trkpt>
      <trkpt lat="45.73436" lon="3.0104">
        <ele>925.74</ele>
        <time>2013-10-18T17:01:40Z</time>
      </trkpt>
      <trkpt lat="45.73453" lon="3.01056">
        <ele>926.78</ele>
        <time>2013-10-18T17:01:50Z</time>
      </trkpt>
      <trkpt lat="45.73471" lon="3.0106">
        <ele>927.14</ele>
        <time>2013-10-18T17:01:56Z</time>
      </trkpt>
      <trkpt lat="45.73491" lon="3.01068">
        <ele>927.2</ele>
        <time>2013-10-18T17:02:01Z</time>
      </trkpt>
      <trkpt lat="45.73514" lon="3.01077">
        <ele>927.25</ele>
        <time>2013-10-18T17:02:02Z</time>
      </trkpt>
      <trkpt lat="45.73538" lon="3.01084">
        <ele>927.59</ele>
        <time>2013-10-18T17:02:04Z</time>
      </trkpt>
      <trkpt lat="45.73556" lon="3.01098">
        <ele>927.11</ele>
        <time>2013-10-18T17:02:06Z</time>
      </trkpt>
      <trkpt lat="45.73578" lon="3.01111">
        <ele>924</ele>
        <time>2013-10-18T17:02:09Z</time>
      </trkpt>
      <trkpt lat="45.73602" lon="3.01106">
        <ele>919.83</ele>
        <time>2013-10-18T17:02:12Z</time>
      </trkpt>
      <trkpt lat="45.73621" lon="3.01099">
        <ele>916.88</ele>
        <time>2013-10-18T17:02:14Z</time>
      </trkpt>
      <trkpt lat="45.73639" lon="3.01087">
        <ele>914.03</ele>
        <time>2013-10-18T17:02:16Z</time>
      </trkpt>
      <trkpt lat="45.73654" lon="3.01074">
        <ele>912.48</ele>
        <time>2013-10-18T17:02:18Z</time>
      </trkpt>
      <trkpt lat="45.73674" lon="3.01054">
        <ele>911.21</ele>
        <time>2013-10-18T17:02:21Z</time>
      </trkpt>
      <trkpt lat="45.73687" lon="3.0103">
        <ele>909.82</ele>
        <time>2013-10-18T17:02:24Z</time>
      </trkpt>
      <trkpt lat="45.73704" lon="3.01016">
        <ele>908.64</ele>
        <time>2013-10-18T17:02:26Z</time>
      </trkpt>
      <trkpt lat="45.73726" lon="3.01001">
        <ele>907</ele>
        <time>2013-10-18T17:02:29Z</time>
      </trkpt>
      <trkpt lat="45.73748" lon="3.01002">
        <ele>906.91</ele>
        <time>2013-10-18T17:02:31Z</time>
      </trkpt>
      <trkpt lat="45.73772" lon="3.01006">
        <ele>905.39</ele>
        <time>2013-10-18T17:02:34Z</time>
      </trkpt>
      <trkpt lat="45.73793" lon="3.0101">
        <ele>903.07</ele>
        <time>2013-10-18T17:02:37Z</time>
      </trkpt>
      <trkpt lat="45.73813" lon="3.01015">
        <ele>901.89</ele>
        <time>2013-10-18T17:02:40Z</time>
      </trkpt>
      <trkpt lat="45.73831" lon="3.01021">
        <ele>902.2</ele>
        <time>2013-10-18T17:02:43Z</time>
      </trkpt>
      <trkpt lat="45.73851" lon="3.01028">
        <ele>902.35</ele>
        <time>2013-10-18T17:02:47Z</time>
      </trkpt>
      <trkpt lat="45.7387" lon="3.0104">
        <ele>901.88</ele>
        <time>2013-10-18T17:02:51Z</time>
      </trkpt>
      <trkpt lat="45.7389" lon="3.01046">
        <ele>902.22</ele>
        <time>2013-10-18T17:02:55Z</time>
      </trkpt>
      <trkpt lat="45.73911" lon="3.01051">
        <ele>901.52</ele>
        <time>2013-10-18T17:02:59Z</time>
      </trkpt>
      <trkpt lat="45.7393" lon="3.01059">
        <ele>900.97</ele>
        <time>2013-10-18T17:03:03Z</time>
      </trkpt>
      <trkpt lat="45.73948" lon="3.01065">
        <ele>900.1</ele>
        <time>2013-10-18T17:03:07Z</time>
      </trkpt>
      <trkpt lat="45.73968" lon="3.01068">
        <ele>899.08</ele>
        <time>2013-10-18T17:03:11Z</time>
      </trkpt>
      <trkpt lat="45.73988" lon="3.0107">
        <ele>897.79</ele>
        <time>2013-10-18T17:03:15Z</time>
      </trkpt>
      <trkpt lat="45.74008" lon="3.01073">
        <ele>896.6</ele>
        <time>2013-10-18T17:03:20Z</time>
      </trkpt>
      <trkpt lat="45.74028" lon="3.0108">
        <ele>895.6</ele>
        <time>2013-10-18T17:03:24Z</time>
      </trkpt>
      <trkpt lat="45.74049" lon="3.01085">
        <ele>896.07</ele>
        <time>2013-10-18T17:03:27Z</time>
      </trkpt>
      <trkpt lat="45.7407" lon="3.01085">
        <ele>895.66</ele>
        <time>2013-10-18T17:03:30Z</time>
      </trkpt>
      <trkpt lat="45.7409" lon="3.0108">
        <ele>895.1</ele>
        <time>2013-10-18T17:03:33Z</time>
      </trkpt>
      <trkpt lat="45.74113" lon="3.01077">
        <ele>894.4</ele>
        <time>2013-10-18T17:03:37Z</time>
      </trkpt>
      <trkpt lat="45.74131" lon="3.01089">
        <ele>893.93</ele>
        <time>2013-10-18T17:03:41Z</time>
      </trkpt>
      <trkpt lat="45.74147" lon="3.01103">
        <ele>893.75</ele>
        <time>2013-10-18T17:03:44Z</time>
      </trkpt>
      <trkpt lat="45.74164" lon="3.01123">
        <ele>893.81</ele>
        <time>2013-10-18T17:03:47Z</time>
      </trkpt>
      <trkpt lat="45.74182" lon="3.01138">
        <ele>893.72</ele>
        <time>2013-10-18T17:03:50Z</time>
      </trkpt>
      <trkpt lat="45.74202" lon="3.0115">
        <ele>893.41</ele>
        <time>2013-10-18T17:03:53Z</time>
      </trkpt>
      <trkpt lat="45.74222" lon="3.0115">
        <ele>892.72</ele>
        <time>2013-10-18T17:03:56Z</time>
      </trkpt>
      <trkpt lat="45.74245" lon="3.01136">
        <ele>891.61</ele>
        <time>2013-10-18T17:03:59Z</time>
      </trkpt>
      <trkpt lat="45.74264" lon="3.01133">
        <ele>890.92</ele>
        <time>2013-10-18T17:04:03Z</time>
      </trkpt>
      <trkpt lat="45.7426" lon="3.01108">
        <ele>889.29</ele>
        <time>2013-10-18T17:04:08Z</time>
      </trkpt>
      <trkpt lat="45.74263" lon="3.01078">
        <ele>888.19</ele>
        <time>2013-10-18T17:04:13Z</time>
      </trkpt>
      <trkpt lat="45.7427" lon="3.01051">
        <ele>887.32</ele>
        <time>2013-10-18T17:04:18Z</time>
      </trkpt>
      <trkpt lat="45.74288" lon="3.01037">
        <ele>885.31</ele>
        <time>2013-10-18T17:04:23Z</time>
      </trkpt>
      <trkpt lat="45.74307" lon="3.01043">
        <ele>882.52</ele>
        <time>2013-10-18T17:04:27Z</time>
      </trkpt>
      <trkpt lat="45.74323" lon="3.01058">
        <ele>879.81</ele>
        <time>2013-10-18T17:04:31Z</time>
      </trkpt>
      <trkpt lat="45.74338" lon="3.01075">
        <ele>878.53</ele>
        <time>2013-10-18T17:04:36Z</time>
      </trkpt>
      <trkpt lat="45.74353" lon="3.01094">
        <ele>878.21</ele>
        <time>2013-10-18T17:04:43Z</time>
      </trkpt>
      <trkpt lat="45.74362" lon="3.01119">
        <ele>877.35</ele>
        <time>2013-10-18T17:04:51Z</time>
      </trkpt>
      <trkpt lat="45.74372" lon="3.01142">
        <ele>874.52</ele>
        <time>2013-10-18T17:04:59Z</time>
      </trkpt>
      <trkpt lat="45.74391" lon="3.01143">
        <ele>874.81</ele>
        <time>2013-10-18T17:05:05Z</time>
      </trkpt>
      <trkpt lat="45.7441" lon="3.01149">
        <ele>876.18</ele>
        <time>2013-10-18T17:05:12Z</time>
      </trkpt>
      <trkpt lat="45.74429" lon="3.0116">
        <ele>876.75</ele>
        <time>2013-10-18T17:05:19Z</time>
      </trkpt>
      <trkpt lat="45.74447" lon="3.01169">
        <ele>877.8</ele>
        <time>2013-10-18T17:05:26Z</time>
      </trkpt>
      <trkpt lat="45.74464" lon="3.01184">
        <ele>879.94</ele>
        <time>2013-10-18T17:05:36Z</time>
      </trkpt>
      <trkpt lat="45.74478" lon="3.01202">
        <ele>882.05</ele>
        <time>2013-10-18T17:05:45Z</time>
      </trkpt>
      <trkpt lat="45.7449" lon="3.01222">
        <ele>878.96</ele>
        <time>2013-10-18T17:05:52Z</time>
      </trkpt>
      <trkpt lat="45.74499" lon="3.01246">
        <ele>881.23</ele>
        <time>2013-10-18T17:06:01Z</time>
      </trkpt>
      <trkpt lat="45.7451" lon="3.01267">
        <ele>882.05</ele>
        <time>2013-10-18T17:06:10Z</time>
      </trkpt>
      <trkpt lat="45.74524" lon="3.01285">
        <ele>882.22</ele>
        <time>2013-10-18T17:06:18Z</time>
      </trkpt>
      <trkpt lat="45.74542" lon="3.01294">
        <ele>881.17</ele>
        <time>2013-10-18T17:06:25Z</time>
      </trkpt>
      <trkpt lat="45.74561" lon="3.01295">
        <ele>882</ele>
        <time>2013-10-18T17:06:33Z</time>
      </trkpt>
      <trkpt lat="45.74579" lon="3.01296">
        <ele>884.1</ele>
        <time>2013-10-18T17:06:41Z</time>
      </trkpt>
      <trkpt lat="45.74598" lon="3.01295">
        <ele>885.68</ele>
        <time>2013-10-18T17:06:50Z</time>
      </trkpt>
      <trkpt lat="45.74611" lon="3.01273">
        <ele>887.14</ele>
        <time>2013-10-18T17:07:00Z</time>
      </trkpt>
      <trkpt lat="45.74619" lon="3.01248">
        <ele>887.79</ele>
        <time>2013-10-18T17:07:08Z</time>
      </trkpt>
      <trkpt lat="45.74631" lon="3.01228">
        <ele>889.58</ele>
        <time>2013-10-18T17:07:18Z</time>
      </trkpt>
      <trkpt lat="45.7465" lon="3.01223">
        <ele>894.27</ele>
        <time>2013-10-18T17:07:26Z</time>
      </trkpt>
      <trkpt lat="45.74668" lon="3.01222">
        <ele>901.77</ele>
        <time>2013-10-18T17:07:34Z</time>
      </trkpt>
      <trkpt lat="45.74686" lon="3.01226">
        <ele>902.54</ele>
        <time>2013-10-18T17:07:41Z</time>
      </trkpt>
      <trkpt lat="45.74703" lon="3.01236">
        <ele>902.81</ele>
        <time>2013-10-18T17:07:49Z</time>
      </trkpt>
      <trkpt lat="45.74719" lon="3.01255">
        <ele>903.74</ele>
        <time>2013-10-18T17:07:57Z</time>
      </trkpt>
      <trkpt lat="45.74737" lon="3.01265">
        <ele>903.09</ele>
        <time>2013-10-18T17:08:04Z</time>
      </trkpt>
      <trkpt lat="45.74756" lon="3.01269">
        <ele>902.94</ele>
        <time>2013-10-18T17:08:11Z</time>
      </trkpt>
      <trkpt lat="45.74774" lon="3.01257">
        <ele>902.42</ele>
        <time>2013-10-18T17:08:18Z</time>
      </trkpt>
      <trkpt lat="45.74787" lon="3.01238">
        <ele>901.6</ele>
        <time>2013-10-18T17:08:25Z</time>
      </trkpt>
      <trkpt lat="45.74802" lon="3.01223">
        <ele>901.09</ele>
        <time>2013-10-18T17:08:34Z</time>
      </trkpt>
      <trkpt lat="45.74821" lon="3.01218">
        <ele>901.31</ele>
        <time>2013-10-18T17:08:43Z</time>
      </trkpt>
      <trkpt lat="45.7484" lon="3.01218">
        <ele>903.59</ele>
        <time>2013-10-18T17:08:49Z</time>
      </trkpt>
      <trkpt lat="45.74858" lon="3.01214">
        <ele>904.75</ele>
        <time>2013-10-18T17:08:59Z</time>
      </trkpt>
      <trkpt lat="45.74874" lon="3.01195">
        <ele>905.34</ele>
        <time>2013-10-18T17:09:07Z</time>
      </trkpt>
      <trkpt lat="45.7489" lon="3.0118">
        <ele>906.45</ele>
        <time>2013-10-18T17:09:12Z</time>
      </trkpt>
      <trkpt lat="45.74909" lon="3.01165">
        <ele>907.66</ele>
        <time>2013-10-18T17:09:18Z</time>
      </trkpt>
      <trkpt lat="45.74925" lon="3.01147">
        <ele>906.66</ele>
        <time>2013-10-18T17:09:25Z</time>
      </trkpt>
      <trkpt lat="45.74942" lon="3.01135">
        <ele>906.26</ele>
        <time>2013-10-18T17:09:30Z</time>
      </trkpt>
      <trkpt lat="45.74959" lon="3.01127">
        <ele>906.07</ele>
        <time>2013-10-18T17:09:35Z</time>
      </trkpt>
      <trkpt lat="45.7498" lon="3.0112">
        <ele>905.64</ele>
        <time>2013-10-18T17:09:41Z</time>
      </trkpt>
      <trkpt lat="45.74997" lon="3.01114">
        <ele>904.59</ele>
        <time>2013-10-18T17:09:46Z</time>
      </trkpt>
      <trkpt lat="45.75016" lon="3.01109">
        <ele>906.13</ele>
        <time>2013-10-18T17:09:51Z</time>
      </trkpt>
      <trkpt lat="45.75037" lon="3.011">
        <ele>907.71</ele>
        <time>2013-10-18T17:09:56Z</time>
      </trkpt>
      <trkpt lat="45.75057" lon="3.0109">
        <ele>911.84</ele>
        <time>2013-10-18T17:10:00Z</time>
      </trkpt>
      <trkpt lat="45.75075" lon="3.01075">
        <ele>914.6</ele>
        <time>2013-10-18T17:10:06Z</time>
      </trkpt>
      <trkpt lat="45.75086" lon="3.01052">
        <ele>913.88</ele>
        <time>2013-10-18T17:10:13Z</time>
      </trkpt>
      <trkpt lat="45.75093" lon="3.01026">
        <ele>912.47</ele>
        <time>2013-10-18T17:10:19Z</time>
      </trkpt>
      <trkpt lat="45.75105" lon="3.01002">
        <ele>911.52</ele>
        <time>2013-10-18T17:10:24Z</time>
      </trkpt>
      <trkpt lat="45.75117" lon="3.00978">
        <ele>911.43</ele>
        <time>2013-10-18T17:10:29Z</time>
      </trkpt>
      <trkpt lat="45.75127" lon="3.00955">
        <ele>911.01</ele>
        <time>2013-10-18T17:10:33Z</time>
      </trkpt>
      <trkpt lat="45.75137" lon="3.0093">
        <ele>910.39</ele>
        <time>2013-10-18T17:10:37Z</time>
      </trkpt>
      <trkpt lat="45.75145" lon="3.00906">
        <ele>910.26</ele>
        <time>2013-10-18T17:10:41Z</time>
      </trkpt>
      <trkpt lat="45.75158" lon="3.0088">
        <ele>910.12</ele>
        <time>2013-10-18T17:10:46Z</time>
      </trkpt>
      <trkpt lat="45.75172" lon="3.00855">
        <ele>911.88</ele>
        <time>2013-10-18T17:10:51Z</time>
      </trkpt>
      <trkpt lat="45.75237" lon="3.00712">
        <ele>919.8</ele>
        <time>2013-10-18T17:11:24Z</time>
      </trkpt>
      <trkpt lat="45.75242" lon="3.00681">
        <ele>921.06</ele>
        <time>2013-10-18T17:11:29Z</time>
      </trkpt>
      <trkpt lat="45.75249" lon="3.00652">
        <ele>922.13</ele>
        <time>2013-10-18T17:11:34Z</time>
      </trkpt>
      <trkpt lat="45.75253" lon="3.00622">
        <ele>921.34</ele>
        <time>2013-10-18T17:11:41Z</time>
      </trkpt>
      <trkpt lat="45.75256" lon="3.00596">
        <ele>920.94</ele>
        <time>2013-10-18T17:11:46Z</time>
      </trkpt>
      <trkpt lat="45.75256" lon="3.00569">
        <ele>919.83</ele>
        <time>2013-10-18T17:11:50Z</time>
      </trkpt>
      <trkpt lat="45.75254" lon="3.00541">
        <ele>917.5</ele>
        <time>2013-10-18T17:11:55Z</time>
      </trkpt>
      <trkpt lat="45.75248" lon="3.00513">
        <ele>916.01</ele>
        <time>2013-10-18T17:12:00Z</time>
      </trkpt>
      <trkpt lat="45.75246" lon="3.00487">
        <ele>913.41</ele>
        <time>2013-10-18T17:12:06Z</time>
      </trkpt>
      <trkpt lat="45.75245" lon="3.00444">
        <ele>910.71</ele>
        <time>2013-10-18T17:12:10Z</time>
      </trkpt>
      <trkpt lat="45.7524" lon="3.00415">
        <ele>911.53</ele>
        <time>2013-10-18T17:12:14Z</time>
      </trkpt>
      <trkpt lat="45.75233" lon="3.00385">
        <ele>912.02</ele>
        <time>2013-10-18T17:12:18Z</time>
      </trkpt>
      <trkpt lat="45.75223" lon="3.0036">
        <ele>912.37</ele>
        <time>2013-10-18T17:12:22Z</time>
      </trkpt>
      <trkpt lat="45.75212" lon="3.00337">
        <ele>911.56</ele>
        <time>2013-10-18T17:12:26Z</time>
      </trkpt>
      <trkpt lat="45.75209" lon="3.00308">
        <ele>910.78</ele>
        <time>2013-10-18T17:12:30Z</time>
      </trkpt>
      <trkpt lat="45.75206" lon="3.00279">
        <ele>909.37</ele>
        <time>2013-10-18T17:12:34Z</time>
      </trkpt>
      <trkpt lat="45.75205" lon="3.00247">
        <ele>908.75</ele>
        <time>2013-10-18T17:12:38Z</time>
      </trkpt>
      <trkpt lat="45.75204" lon="3.00219">
        <ele>906.76</ele>
        <time>2013-10-18T17:12:42Z</time>
      </trkpt>
      <trkpt lat="45.75203" lon="3.00193">
        <ele>907.35</ele>
        <time>2013-10-18T17:12:46Z</time>
      </trkpt>
      <trkpt lat="45.75207" lon="3.00165">
        <ele>907.72</ele>
        <time>2013-10-18T17:12:51Z</time>
      </trkpt>
      <trkpt lat="45.75206" lon="3.00139">
        <ele>908.35</ele>
        <time>2013-10-18T17:12:59Z</time>
      </trkpt>
      <trkpt lat="45.75217" lon="3.00114">
        <ele>904.93</ele>
        <time>2013-10-18T17:13:13Z</time>
      </trkpt>
      <trkpt lat="45.7523" lon="3.00095">
        <ele>903.12</ele>
        <time>2013-10-18T17:13:19Z</time>
      </trkpt>
      <trkpt lat="45.75247" lon="3.00086">
        <ele>902.91</ele>
        <time>2013-10-18T17:13:32Z</time>
      </trkpt>
      <trkpt lat="45.75278" lon="3.00072">
        <ele>905.73</ele>
        <time>2013-10-18T17:13:46Z</time>
      </trkpt>
      <trkpt lat="45.75297" lon="3.00067">
        <ele>909.86</ele>
        <time>2013-10-18T17:13:54Z</time>
      </trkpt>
      <trkpt lat="45.75316" lon="3.00063">
        <ele>912.28</ele>
        <time>2013-10-18T17:14:01Z</time>
      </trkpt>
      <trkpt lat="45.75334" lon="3.00058">
        <ele>911.48</ele>
        <time>2013-10-18T17:14:09Z</time>
      </trkpt>
      <trkpt lat="45.75352" lon="3.00047">
        <ele>911.27</ele>
        <time>2013-10-18T17:14:15Z</time>
      </trkpt>
      <trkpt lat="45.75369" lon="3.0006">
        <ele>909.06</ele>
        <time>2013-10-18T17:14:23Z</time>
      </trkpt>
      <trkpt lat="45.75377" lon="3.00087">
        <ele>906.88</ele>
        <time>2013-10-18T17:14:29Z</time>
      </trkpt>
      <trkpt lat="45.75377" lon="3.00113">
        <ele>907.32</ele>
        <time>2013-10-18T17:14:34Z</time>
      </trkpt>
      <trkpt lat="45.75387" lon="3.00139">
        <ele>906.98</ele>
        <time>2013-10-18T17:14:41Z</time>
      </trkpt>
      <trkpt lat="45.75408" lon="3.00149">
        <ele>905.51</ele>
        <time>2013-10-18T17:14:42Z</time>
      </trkpt>
      <trkpt lat="45.75423" lon="3.00164">
        <ele>900.28</ele>
        <time>2013-10-18T17:14:46Z</time>
      </trkpt>
      <trkpt lat="45.75436" lon="3.00186">
        <ele>898.14</ele>
        <time>2013-10-18T17:14:50Z</time>
      </trkpt>
      <trkpt lat="45.75449" lon="3.00207">
        <ele>897.37</ele>
        <time>2013-10-18T17:14:54Z</time>
      </trkpt>
      <trkpt lat="45.75464" lon="3.0023">
        <ele>897.5</ele>
        <time>2013-10-18T17:14:57Z</time>
      </trkpt>
      <trkpt lat="45.75484" lon="3.0024">
        <ele>896.97</ele>
        <time>2013-10-18T17:15:02Z</time>
      </trkpt>
      <trkpt lat="45.75502" lon="3.00247">
        <ele>895.24</ele>
        <time>2013-10-18T17:15:08Z</time>
      </trkpt>
      <trkpt lat="45.75522" lon="3.0025">
        <ele>894.34</ele>
        <time>2013-10-18T17:15:14Z</time>
      </trkpt>
      <trkpt lat="45.75541" lon="3.0025">
        <ele>893.59</ele>
        <time>2013-10-18T17:15:19Z</time>
      </trkpt>
      <trkpt lat="45.75559" lon="3.00244">
        <ele>893.22</ele>
        <time>2013-10-18T17:15:24Z</time>
      </trkpt>
      <trkpt lat="45.75576" lon="3.00229">
        <ele>892.65</ele>
        <time>2013-10-18T17:15:30Z</time>
      </trkpt>
      <trkpt lat="45.75591" lon="3.00209">
        <ele>891.22</ele>
        <time>2013-10-18T17:15:37Z</time>
      </trkpt>
      <trkpt lat="45.75608" lon="3.00202">
        <ele>889.07</ele>
        <time>2013-10-18T17:15:45Z</time>
      </trkpt>
      <trkpt lat="45.75625" lon="3.00191">
        <ele>887.56</ele>
        <time>2013-10-18T17:15:50Z</time>
      </trkpt>
      <trkpt lat="45.75645" lon="3.00192">
        <ele>887.37</ele>
        <time>2013-10-18T17:15:51Z</time>
      </trkpt>
      <trkpt lat="45.75663" lon="3.00186">
        <ele>887.86</ele>
        <time>2013-10-18T17:15:54Z</time>
      </trkpt>
      <trkpt lat="45.7568" lon="3.00168">
        <ele>889.04</ele>
        <time>2013-10-18T17:15:59Z</time>
      </trkpt>
      <trkpt lat="45.75703" lon="3.00143">
        <ele>888.9</ele>
        <time>2013-10-18T17:16:00Z</time>
      </trkpt>
      <trkpt lat="45.75722" lon="3.00127">
        <ele>887.94</ele>
        <time>2013-10-18T17:16:03Z</time>
      </trkpt>
      <trkpt lat="45.75739" lon="3.00106">
        <ele>885.14</ele>
        <time>2013-10-18T17:16:07Z</time>
      </trkpt>
      <trkpt lat="45.75753" lon="3.00089">
        <ele>883.25</ele>
        <time>2013-10-18T17:16:10Z</time>
      </trkpt>
      <trkpt lat="45.75782" lon="3.00068">
        <ele>882.71</ele>
        <time>2013-10-18T17:16:12Z</time>
      </trkpt>
      <trkpt lat="45.75797" lon="3.00049">
        <ele>881.59</ele>
        <time>2013-10-18T17:16:16Z</time>
      </trkpt>
      <trkpt lat="45.75806" lon="3.00024">
        <ele>881.5</ele>
        <time>2013-10-18T17:16:19Z</time>
      </trkpt>
      <trkpt lat="45.75822" lon="3.00001">
        <ele>881.69</ele>
        <time>2013-10-18T17:16:23Z</time>
      </trkpt>
      <trkpt lat="45.75837" lon="2.99982">
        <ele>882.06</ele>
        <time>2013-10-18T17:16:27Z</time>
      </trkpt>
      <trkpt lat="45.75857" lon="2.99968">
        <ele>881.85</ele>
        <time>2013-10-18T17:16:31Z</time>
      </trkpt>
      <trkpt lat="45.75878" lon="2.99954">
        <ele>881.57</ele>
        <time>2013-10-18T17:16:35Z</time>
      </trkpt>
      <trkpt lat="45.75897" lon="2.99943">
        <ele>881.18</ele>
        <time>2013-10-18T17:16:38Z</time>
      </trkpt>
      <trkpt lat="45.75903" lon="2.99918">
        <ele>881.14</ele>
        <time>2013-10-18T17:16:43Z</time>
      </trkpt>
      <trkpt lat="45.75915" lon="2.99892">
        <ele>880.83</ele>
        <time>2013-10-18T17:16:49Z</time>
      </trkpt>
      <trkpt lat="45.75926" lon="2.99869">
        <ele>880.51</ele>
        <time>2013-10-18T17:16:56Z</time>
      </trkpt>
      <trkpt lat="45.75946" lon="2.9986">
        <ele>879.7</ele>
        <time>2013-10-18T17:17:03Z</time>
      </trkpt>
      <trkpt lat="45.75962" lon="2.99843">
        <ele>878.1</ele>
        <time>2013-10-18T17:17:08Z</time>
      </trkpt>
      <trkpt lat="45.75979" lon="2.99825">
        <ele>876.61</ele>
        <time>2013-10-18T17:17:14Z</time>
      </trkpt>
      <trkpt lat="45.7601" lon="2.9981">
        <ele>871.65</ele>
        <time>2013-10-18T17:17:18Z</time>
      </trkpt>
      <trkpt lat="45.76027" lon="2.99797">
        <ele>866.73</ele>
        <time>2013-10-18T17:17:25Z</time>
      </trkpt>
      <trkpt lat="45.76045" lon="2.99787">
        <ele>865.15</ele>
        <time>2013-10-18T17:17:31Z</time>
      </trkpt>
      <trkpt lat="45.76066" lon="2.9978">
        <ele>861.2</ele>
        <time>2013-10-18T17:17:37Z</time>
      </trkpt>
      <trkpt lat="45.76087" lon="2.99776">
        <ele>859.58</ele>
        <time>2013-10-18T17:17:41Z</time>
      </trkpt>
      <trkpt lat="45.76107" lon="2.99773">
        <ele>860.26</ele>
        <time>2013-10-18T17:17:45Z</time>
      </trkpt>
      <trkpt lat="45.76127" lon="2.99776">
        <ele>860.57</ele>
        <time>2013-10-18T17:17:50Z</time>
      </trkpt>
      <trkpt lat="45.76145" lon="2.99783">
        <ele>858.41</ele>
        <time>2013-10-18T17:17:54Z</time>
      </trkpt>
      <trkpt lat="45.76174" lon="2.99797">
        <ele>857.55</ele>
        <time>2013-10-18T17:17:57Z</time>
      </trkpt>
      <trkpt lat="45.76192" lon="2.99812">
        <ele>858.2</ele>
        <time>2013-10-18T17:18:01Z</time>
      </trkpt>
      <trkpt lat="45.76209" lon="2.99826">
        <ele>851.46</ele>
        <time>2013-10-18T17:18:08Z</time>
      </trkpt>
      <trkpt lat="45.76228" lon="2.9984">
        <ele>847.14</ele>
        <time>2013-10-18T17:18:14Z</time>
      </trkpt>
      <trkpt lat="45.76246" lon="2.99856">
        <ele>847.2</ele>
        <time>2013-10-18T17:18:18Z</time>
      </trkpt>
      <trkpt lat="45.7626" lon="2.99874">
        <ele>845.12</ele>
        <time>2013-10-18T17:18:22Z</time>
      </trkpt>
      <trkpt lat="45.76281" lon="2.99893">
        <ele>842.43</ele>
        <time>2013-10-18T17:18:25Z</time>
      </trkpt>
      <trkpt lat="45.76303" lon="2.9991">
        <ele>834.97</ele>
        <time>2013-10-18T17:18:28Z</time>
      </trkpt>
      <trkpt lat="45.76323" lon="2.99936">
        <ele>830.73</ele>
        <time>2013-10-18T17:18:31Z</time>
      </trkpt>
      <trkpt lat="45.76334" lon="2.99958">
        <ele>831.49</ele>
        <time>2013-10-18T17:18:33Z</time>
      </trkpt>
      <trkpt lat="45.76344" lon="2.99981">
        <ele>833.69</ele>
        <time>2013-10-18T17:18:36Z</time>
      </trkpt>
      <trkpt lat="45.76354" lon="3.00007">
        <ele>835.64</ele>
        <time>2013-10-18T17:18:40Z</time>
      </trkpt>
      <trkpt lat="45.76363" lon="3.00036">
        <ele>836.2</ele>
        <time>2013-10-18T17:18:44Z</time>
      </trkpt>
      <trkpt lat="45.76376" lon="3.00065">
        <ele>836.26</ele>
        <time>2013-10-18T17:18:47Z</time>
      </trkpt>
      <trkpt lat="45.76386" lon="3.00092">
        <ele>835.57</ele>
        <time>2013-10-18T17:18:50Z</time>
      </trkpt>
      <trkpt lat="45.76398" lon="3.00114">
        <ele>835.22</ele>
        <time>2013-10-18T17:18:54Z</time>
      </trkpt>
      <trkpt lat="45.7641" lon="3.00136">
        <ele>835</ele>
        <time>2013-10-18T17:18:58Z</time>
      </trkpt>
      <trkpt lat="45.76422" lon="3.00155">
        <ele>834.87</ele>
        <time>2013-10-18T17:19:03Z</time>
      </trkpt>
      <trkpt lat="45.76438" lon="3.00173">
        <ele>834.61</ele>
        <time>2013-10-18T17:19:08Z</time>
      </trkpt>
      <trkpt lat="45.76447" lon="3.00197">
        <ele>834.24</ele>
        <time>2013-10-18T17:19:12Z</time>
      </trkpt>
      <trkpt lat="45.76451" lon="3.00229">
        <ele>834.73</ele>
        <time>2013-10-18T17:19:16Z</time>
      </trkpt>
      <trkpt lat="45.76456" lon="3.00255">
        <ele>834.71</ele>
        <time>2013-10-18T17:19:20Z</time>
      </trkpt>
      <trkpt lat="45.7646" lon="3.00283">
        <ele>834.57</ele>
        <time>2013-10-18T17:19:22Z</time>
      </trkpt>
      <trkpt lat="45.76466" lon="3.00316">
        <ele>834.3</ele>
        <time>2013-10-18T17:19:25Z</time>
      </trkpt>
      <trkpt lat="45.76472" lon="3.00341">
        <ele>833.84</ele>
        <time>2013-10-18T17:19:28Z</time>
      </trkpt>
      <trkpt lat="45.76466" lon="3.00367">
        <ele>833.39</ele>
        <time>2013-10-18T17:19:31Z</time>
      </trkpt>
      <trkpt lat="45.76462" lon="3.00394">
        <ele>832.58</ele>
        <time>2013-10-18T17:19:34Z</time>
      </trkpt>
      <trkpt lat="45.76451" lon="3.00419">
        <ele>832.39</ele>
        <time>2013-10-18T17:19:37Z</time>
      </trkpt>
      <trkpt lat="45.76442" lon="3.00441">
        <ele>831.97</ele>
        <time>2013-10-18T17:19:40Z</time>
      </trkpt>
      <trkpt lat="45.76432" lon="3.00465">
        <ele>832.09</ele>
        <time>2013-10-18T17:19:42Z</time>
      </trkpt>
      <trkpt lat="45.76424" lon="3.00492">
        <ele>832.56</ele>
        <time>2013-10-18T17:19:45Z</time>
      </trkpt>
      <trkpt lat="45.76416" lon="3.00515">
        <ele>833.82</ele>
        <time>2013-10-18T17:19:48Z</time>
      </trkpt>
      <trkpt lat="45.7641" lon="3.0054">
        <ele>835.15</ele>
        <time>2013-10-18T17:19:51Z</time>
      </trkpt>
      <trkpt lat="45.76398" lon="3.00565">
        <ele>835.37</ele>
        <time>2013-10-18T17:19:55Z</time>
      </trkpt>
      <trkpt lat="45.76383" lon="3.00587">
        <ele>835.5</ele>
        <time>2013-10-18T17:19:59Z</time>
      </trkpt>
      <trkpt lat="45.76385" lon="3.00614">
        <ele>835.2</ele>
        <time>2013-10-18T17:20:04Z</time>
      </trkpt>
      <trkpt lat="45.76402" lon="3.00623">
        <ele>832.71</ele>
        <time>2013-10-18T17:20:46Z</time>
      </trkpt>
      <trkpt lat="45.76418" lon="3.00606">
        <ele>833.01</ele>
        <time>2013-10-18T17:22:21Z</time>
      </trkpt>
      <trkpt lat="45.76436" lon="3.00602">
        <ele>832.17</ele>
        <time>2013-10-18T17:22:29Z</time>
      </trkpt>
      <trkpt lat="45.76463" lon="3.00619">
        <ele>832.72</ele>
        <time>2013-10-18T17:22:31Z</time>
      </trkpt>
      <trkpt lat="45.77092" lon="3.01336">
        <ele>820.59</ele>
        <time>2013-10-18T17:25:53Z</time>
      </trkpt>
      <trkpt lat="45.77104" lon="3.01357">
        <ele>805.34</ele>
        <time>2013-10-18T17:25:56Z</time>
      </trkpt>
      <trkpt lat="45.77115" lon="3.01378">
        <ele>798.69</ele>
        <time>2013-10-18T17:25:59Z</time>
      </trkpt>
      <trkpt lat="45.77127" lon="3.01406">
        <ele>795.04</ele>
        <time>2013-10-18T17:26:03Z</time>
      </trkpt>
      <trkpt lat="45.77135" lon="3.01435">
        <ele>794.16</ele>
        <time>2013-10-18T17:26:07Z</time>
      </trkpt>
      <trkpt lat="45.77144" lon="3.0146">
        <ele>793.28</ele>
        <time>2013-10-18T17:26:11Z</time>
      </trkpt>
      <trkpt lat="45.77133" lon="3.01483">
        <ele>791.77</ele>
        <time>2013-10-18T17:26:18Z</time>
      </trkpt>
      <trkpt lat="45.77113" lon="3.01484">
        <ele>790.95</ele>
        <time>2013-10-18T17:26:23Z</time>
      </trkpt>
      <trkpt lat="45.77094" lon="3.01484">
        <ele>790.37</ele>
        <time>2013-10-18T17:26:28Z</time>
      </trkpt>
      <trkpt lat="45.77075" lon="3.01482">
        <ele>789.95</ele>
        <time>2013-10-18T17:26:33Z</time>
      </trkpt>
      <trkpt lat="45.77056" lon="3.01481">
        <ele>789.71</ele>
        <time>2013-10-18T17:26:38Z</time>
      </trkpt>
      <trkpt lat="45.77034" lon="3.0148">
        <ele>789.25</ele>
        <time>2013-10-18T17:26:43Z</time>
      </trkpt>
      <trkpt lat="45.77016" lon="3.01478">
        <ele>788.82</ele>
        <time>2013-10-18T17:26:47Z</time>
      </trkpt>
      <trkpt lat="45.76994" lon="3.01475">
        <ele>788.72</ele>
        <time>2013-10-18T17:26:52Z</time>
      </trkpt>
      <trkpt lat="45.76973" lon="3.01468">
        <ele>788.79</ele>
        <time>2013-10-18T17:26:57Z</time>
      </trkpt>
      <trkpt lat="45.76961" lon="3.01494">
        <ele>788.27</ele>
        <time>2013-10-18T17:27:02Z</time>
      </trkpt>
      <trkpt lat="45.76955" lon="3.01523">
        <ele>787.3</ele>
        <time>2013-10-18T17:27:07Z</time>
      </trkpt>
      <trkpt lat="45.76939" lon="3.01541">
        <ele>786.83</ele>
        <time>2013-10-18T17:27:12Z</time>
      </trkpt>
      <trkpt lat="45.76921" lon="3.01546">
        <ele>787</ele>
        <time>2013-10-18T17:27:17Z</time>
      </trkpt>
      <trkpt lat="45.76905" lon="3.0156">
        <ele>786.86</ele>
        <time>2013-10-18T17:27:24Z</time>
      </trkpt>
      <trkpt lat="45.76911" lon="3.0159">
        <ele>786.13</ele>
        <time>2013-10-18T17:27:29Z</time>
      </trkpt>
      <trkpt lat="45.76912" lon="3.01616">
        <ele>785.18</ele>
        <time>2013-10-18T17:27:33Z</time>
      </trkpt>
      <trkpt lat="45.76903" lon="3.01645">
        <ele>784.25</ele>
        <time>2013-10-18T17:27:37Z</time>
      </trkpt>
      <trkpt lat="45.76892" lon="3.0167">
        <ele>782.91</ele>
        <time>2013-10-18T17:27:42Z</time>
      </trkpt>
      <trkpt lat="45.76887" lon="3.01702">
        <ele>780.27</ele>
        <time>2013-10-18T17:27:47Z</time>
      </trkpt>
      <trkpt lat="45.76878" lon="3.01734">
        <ele>778.35</ele>
        <time>2013-10-18T17:27:51Z</time>
      </trkpt>
      <trkpt lat="45.76873" lon="3.01761">
        <ele>775.93</ele>
        <time>2013-10-18T17:27:54Z</time>
      </trkpt>
      <trkpt lat="45.76864" lon="3.01785">
        <ele>773.21</ele>
        <time>2013-10-18T17:27:57Z</time>
      </trkpt>
      <trkpt lat="45.76859" lon="3.01812">
        <ele>770.44</ele>
        <time>2013-10-18T17:28:00Z</time>
      </trkpt>
      <trkpt lat="45.76866" lon="3.02081">
        <ele>798.1</ele>
        <time>2013-10-18T17:28:37Z</time>
      </trkpt>
      <trkpt lat="45.76889" lon="3.02067">
        <ele>792.03</ele>
        <time>2013-10-18T17:28:39Z</time>
      </trkpt>
      <trkpt lat="45.76899" lon="3.02092">
        <ele>748</ele>
        <time>2013-10-18T17:29:02Z</time>
      </trkpt>
      <trkpt lat="45.76917" lon="3.02108">
        <ele>746.56</ele>
        <time>2013-10-18T17:29:06Z</time>
      </trkpt>
      <trkpt lat="45.76936" lon="3.02103">
        <ele>744.83</ele>
        <time>2013-10-18T17:29:10Z</time>
      </trkpt>
      <trkpt lat="45.76952" lon="3.02088">
        <ele>744.61</ele>
        <time>2013-10-18T17:29:14Z</time>
      </trkpt>
      <trkpt lat="45.76966" lon="3.02069">
        <ele>745.2</ele>
        <time>2013-10-18T17:29:18Z</time>
      </trkpt>
      <trkpt lat="45.76979" lon="3.02046">
        <ele>745.1</ele>
        <time>2013-10-18T17:29:22Z</time>
      </trkpt>
      <trkpt lat="45.76996" lon="3.02028">
        <ele>744.74</ele>
        <time>2013-10-18T17:29:26Z</time>
      </trkpt>
      <trkpt lat="45.77011" lon="3.02014">
        <ele>744.98</ele>
        <time>2013-10-18T17:29:29Z</time>
      </trkpt>
      <trkpt lat="45.77029" lon="3.02005">
        <ele>744.77</ele>
        <time>2013-10-18T17:29:32Z</time>
      </trkpt>
      <trkpt lat="45.77048" lon="3.02007">
        <ele>749.39</ele>
        <time>2013-10-18T17:29:35Z</time>
      </trkpt>
      <trkpt lat="45.77072" lon="3.02005">
        <ele>759.32</ele>
        <time>2013-10-18T17:29:39Z</time>
      </trkpt>
      <trkpt lat="45.77095" lon="3.02002">
        <ele>762.59</ele>
        <time>2013-10-18T17:29:43Z</time>
      </trkpt>
      <trkpt lat="45.77115" lon="3.01993">
        <ele>763.17</ele>
        <time>2013-10-18T17:29:46Z</time>
      </trkpt>
      <trkpt lat="45.77141" lon="3.01996">
        <ele>762.76</ele>
        <time>2013-10-18T17:29:50Z</time>
      </trkpt>
      <trkpt lat="45.77162" lon="3.02001">
        <ele>761.61</ele>
        <time>2013-10-18T17:29:52Z</time>
      </trkpt>
      <trkpt lat="45.77182" lon="3.02007">
        <ele>759.43</ele>
        <time>2013-10-18T17:29:55Z</time>
      </trkpt>
      <trkpt lat="45.77201" lon="3.02014">
        <ele>757.47</ele>
        <time>2013-10-18T17:29:58Z</time>
      </trkpt>
      <trkpt lat="45.77222" lon="3.02029">
        <ele>755.56</ele>
        <time>2013-10-18T17:30:01Z</time>
      </trkpt>
      <trkpt lat="45.77232" lon="3.02057">
        <ele>751.31</ele>
        <time>2013-10-18T17:30:04Z</time>
      </trkpt>
      <trkpt lat="45.77245" lon="3.02078">
        <ele>748</ele>
        <time>2013-10-18T17:30:07Z</time>
      </trkpt>
      <trkpt lat="45.77269" lon="3.02087">
        <ele>745.99</ele>
        <time>2013-10-18T17:30:10Z</time>
      </trkpt>
      <trkpt lat="45.77293" lon="3.02091">
        <ele>744.51</ele>
        <time>2013-10-18T17:30:13Z</time>
      </trkpt>
      <trkpt lat="45.77316" lon="3.02103">
        <ele>743.3</ele>
        <time>2013-10-18T17:30:16Z</time>
      </trkpt>
      <trkpt lat="45.77331" lon="3.02127">
        <ele>741.97</ele>
        <time>2013-10-18T17:30:19Z</time>
      </trkpt>
      <trkpt lat="45.77341" lon="3.02159">
        <ele>740.89</ele>
        <time>2013-10-18T17:30:22Z</time>
      </trkpt>
      <trkpt lat="45.77342" lon="3.02186">
        <ele>740</ele>
        <time>2013-10-18T17:30:24Z</time>
      </trkpt>
      <trkpt lat="45.77345" lon="3.02214">
        <ele>739.2</ele>
        <time>2013-10-18T17:30:26Z</time>
      </trkpt>
      <trkpt lat="45.77352" lon="3.02249">
        <ele>737.98</ele>
        <time>2013-10-18T17:30:29Z</time>
      </trkpt>
      <trkpt lat="45.77358" lon="3.02283">
        <ele>737.04</ele>
        <time>2013-10-18T17:30:32Z</time>
      </trkpt>
      <trkpt lat="45.77368" lon="3.02315">
        <ele>736.35</ele>
        <time>2013-10-18T17:30:35Z</time>
      </trkpt>
      <trkpt lat="45.77373" lon="3.02349">
        <ele>735.67</ele>
        <time>2013-10-18T17:30:38Z</time>
      </trkpt>
      <trkpt lat="45.77376" lon="3.02376">
        <ele>734.99</ele>
        <time>2013-10-18T17:30:41Z</time>
      </trkpt>
      <trkpt lat="45.77383" lon="3.02406">
        <ele>734.24</ele>
        <time>2013-10-18T17:30:45Z</time>
      </trkpt>
      <trkpt lat="45.77386" lon="3.02432">
        <ele>733.66</ele>
        <time>2013-10-18T17:30:48Z</time>
      </trkpt>
      <trkpt lat="45.77397" lon="3.02463">
        <ele>733.03</ele>
        <time>2013-10-18T17:30:53Z</time>
      </trkpt>
      <trkpt lat="45.77401" lon="3.02497">
        <ele>732.62</ele>
        <time>2013-10-18T17:30:56Z</time>
      </trkpt>
      <trkpt lat="45.77407" lon="3.02526">
        <ele>732.31</ele>
        <time>2013-10-18T17:30:59Z</time>
      </trkpt>
      <trkpt lat="45.77414" lon="3.02552">
        <ele>732.06</ele>
        <time>2013-10-18T17:31:02Z</time>
      </trkpt>
      <trkpt lat="45.77417" lon="3.02579">
        <ele>731.71</ele>
        <time>2013-10-18T17:31:05Z</time>
      </trkpt>
      <trkpt lat="45.77424" lon="3.02608">
        <ele>731.22</ele>
        <time>2013-10-18T17:31:09Z</time>
      </trkpt>
      <trkpt lat="45.77429" lon="3.02647">
        <ele>731.33</ele>
        <time>2013-10-18T17:31:12Z</time>
      </trkpt>
      <trkpt lat="45.77429" lon="3.0268">
        <ele>731.55</ele>
        <time>2013-10-18T17:31:15Z</time>
      </trkpt>
      <trkpt lat="45.77433" lon="3.0271">
        <ele>731.51</ele>
        <time>2013-10-18T17:31:18Z</time>
      </trkpt>
      <trkpt lat="45.77438" lon="3.02737">
        <ele>731.31</ele>
        <time>2013-10-18T17:31:21Z</time>
      </trkpt>
      <trkpt lat="45.77447" lon="3.02761">
        <ele>730.81</ele>
        <time>2013-10-18T17:31:24Z</time>
      </trkpt>
      <trkpt lat="45.77457" lon="3.02788">
        <ele>729.54</ele>
        <time>2013-10-18T17:31:27Z</time>
      </trkpt>
      <trkpt lat="45.77463" lon="3.02817">
        <ele>728.74</ele>
        <time>2013-10-18T17:31:30Z</time>
      </trkpt>
      <trkpt lat="45.77479" lon="3.02837">
        <ele>728.51</ele>
        <time>2013-10-18T17:31:34Z</time>
      </trkpt>
      <trkpt lat="45.77495" lon="3.02849">
        <ele>728.76</ele>
        <time>2013-10-18T17:31:37Z</time>
      </trkpt>
      <trkpt lat="45.77505" lon="3.02871">
        <ele>729.18</ele>
        <time>2013-10-18T17:31:40Z</time>
      </trkpt>
      <trkpt lat="45.77519" lon="3.02888">
        <ele>729.5</ele>
        <time>2013-10-18T17:31:43Z</time>
      </trkpt>
      <trkpt lat="45.77533" lon="3.02908">
        <ele>729.47</ele>
        <time>2013-10-18T17:31:46Z</time>
      </trkpt>
      <trkpt lat="45.7755" lon="3.02932">
        <ele>728.31</ele>
        <time>2013-10-18T17:31:49Z</time>
      </trkpt>
      <trkpt lat="45.77571" lon="3.02949">
        <ele>726.92</ele>
        <time>2013-10-18T17:31:52Z</time>
      </trkpt>
      <trkpt lat="45.77587" lon="3.02971">
        <ele>725.07</ele>
        <time>2013-10-18T17:31:55Z</time>
      </trkpt>
      <trkpt lat="45.776" lon="3.02993">
        <ele>723.47</ele>
        <time>2013-10-18T17:31:58Z</time>
      </trkpt>
      <trkpt lat="45.77609" lon="3.03019">
        <ele>723.11</ele>
        <time>2013-10-18T17:32:01Z</time>
      </trkpt>
      <trkpt lat="45.77617" lon="3.0305">
        <ele>723.01</ele>
        <time>2013-10-18T17:32:04Z</time>
      </trkpt>
      <trkpt lat="45.77639" lon="3.03075">
        <ele>722.67</ele>
        <time>2013-10-18T17:32:07Z</time>
      </trkpt>
      <trkpt lat="45.77655" lon="3.0309">
        <ele>721.58</ele>
        <time>2013-10-18T17:32:09Z</time>
      </trkpt>
      <trkpt lat="45.77672" lon="3.03106">
        <ele>720.75</ele>
        <time>2013-10-18T17:32:11Z</time>
      </trkpt>
      <trkpt lat="45.77687" lon="3.03123">
        <ele>720.06</ele>
        <time>2013-10-18T17:32:13Z</time>
      </trkpt>
      <trkpt lat="45.77702" lon="3.0314">
        <ele>719.49</ele>
        <time>2013-10-18T17:32:15Z</time>
      </trkpt>
      <trkpt lat="45.7772" lon="3.03159">
        <ele>719.4</ele>
        <time>2013-10-18T17:32:17Z</time>
      </trkpt>
      <trkpt lat="45.77735" lon="3.03173">
        <ele>719.23</ele>
        <time>2013-10-18T17:32:19Z</time>
      </trkpt>
      <trkpt lat="45.77749" lon="3.03191">
        <ele>719.12</ele>
        <time>2013-10-18T17:32:21Z</time>
      </trkpt>
      <trkpt lat="45.77769" lon="3.03213">
        <ele>718.95</ele>
        <time>2013-10-18T17:32:24Z</time>
      </trkpt>
      <trkpt lat="45.77782" lon="3.03232">
        <ele>719.02</ele>
        <time>2013-10-18T17:32:26Z</time>
      </trkpt>
      <trkpt lat="45.778" lon="3.03248">
        <ele>718.86</ele>
        <time>2013-10-18T17:32:28Z</time>
      </trkpt>
      <trkpt lat="45.77818" lon="3.03261">
        <ele>718.77</ele>
        <time>2013-10-18T17:32:30Z</time>
      </trkpt>
      <trkpt lat="45.77837" lon="3.03272">
        <ele>718.66</ele>
        <time>2013-10-18T17:32:32Z</time>
      </trkpt>
      <trkpt lat="45.77855" lon="3.03284">
        <ele>718.5</ele>
        <time>2013-10-18T17:32:34Z</time>
      </trkpt>
      <trkpt lat="45.77875" lon="3.03296">
        <ele>718.17</ele>
        <time>2013-10-18T17:32:37Z</time>
      </trkpt>
      <trkpt lat="45.77893" lon="3.03302">
        <ele>717.44</ele>
        <time>2013-10-18T17:32:42Z</time>
      </trkpt>
      <trkpt lat="45.77912" lon="3.03312">
        <ele>716.44</ele>
        <time>2013-10-18T17:32:46Z</time>
      </trkpt>
      <trkpt lat="45.77933" lon="3.03332">
        <ele>715.75</ele>
        <time>2013-10-18T17:32:49Z</time>
      </trkpt>
      <trkpt lat="45.77947" lon="3.0335">
        <ele>715.05</ele>
        <time>2013-10-18T17:32:51Z</time>
      </trkpt>
      <trkpt lat="45.7796" lon="3.03375">
        <ele>712.12</ele>
        <time>2013-10-18T17:32:54Z</time>
      </trkpt>
      <trkpt lat="45.77973" lon="3.03403">
        <ele>709.8</ele>
        <time>2013-10-18T17:32:57Z</time>
      </trkpt>
      <trkpt lat="45.77988" lon="3.03426">
        <ele>707.74</ele>
        <time>2013-10-18T17:33:00Z</time>
      </trkpt>
      <trkpt lat="45.78008" lon="3.03447">
        <ele>706</ele>
        <time>2013-10-18T17:33:04Z</time>
      </trkpt>
      <trkpt lat="45.78026" lon="3.03464">
        <ele>705</ele>
        <time>2013-10-18T17:33:07Z</time>
      </trkpt>
      <trkpt lat="45.7804" lon="3.03492">
        <ele>703.87</ele>
        <time>2013-10-18T17:33:10Z</time>
      </trkpt>
      <trkpt lat="45.7805" lon="3.03516">
        <ele>702.12</ele>
        <time>2013-10-18T17:33:13Z</time>
      </trkpt>
      <trkpt lat="45.78058" lon="3.03544">
        <ele>699.91</ele>
        <time>2013-10-18T17:33:16Z</time>
      </trkpt>
      <trkpt lat="45.78059" lon="3.03571">
        <ele>698.13</ele>
        <time>2013-10-18T17:33:20Z</time>
      </trkpt>
      <trkpt lat="45.78052" lon="3.03599">
        <ele>696.73</ele>
        <time>2013-10-18T17:33:24Z</time>
      </trkpt>
      <trkpt lat="45.78052" lon="3.03628">
        <ele>694.76</ele>
        <time>2013-10-18T17:33:29Z</time>
      </trkpt>
      <trkpt lat="45.78036" lon="3.03614">
        <ele>688.05</ele>
        <time>2013-10-18T17:33:42Z</time>
      </trkpt>
    </trkseg>
  </trk>
</gpx>